Time,TemperatureF,DewpointF,PressureIn,WindDirection,WindDirectionDegrees,WindSpeedMPH,WindSpeedGustMPH,Humidity,HourlyPrecipIn,Conditions,Clouds,dailyrainin,SoftwareType,DateUTC
2013-03-29 00:00:00,34.5,32.7,29.03,WNW,292,3.1,3.1,93,0.00,,---,0.09,VWS V14.01,2013-03-29 03:00:00,
2013-03-29 00:01:00,34.5,32.7,29.03,WNW,292,2.5,3.1,93,0.00,,---,0.09,VWS V14.01,2013-03-29 03:01:00,
2013-03-29 00:02:00,34.5,32.7,29.03,WNW,292,2.7,2.9,93,0.00,,---,0.09,VWS V14.01,2013-03-29 03:02:00,
2013-03-29 00:03:00,34.5,32.7,29.03,West,270,2.5,2.7,93,0.00,,---,0.09,VWS V14.01,2013-03-29 03:03:00,
2013-03-29 00:04:00,34.5,32.7,29.03,West,270,2.9,2.9,93,0.00,,---,0.09,VWS V14.01,2013-03-29 03:04:00,
2013-03-29 00:05:00,34.5,32.7,29.03,West,270,2.7,2.9,93,0.00,,---,0.09,VWS V14.01,2013-03-29 03:05:00,
2013-03-29 00:06:00,34.5,32.7,29.03,WSW,248,1.6,2.7,93,0.00,,---,0.09,VWS V14.01,2013-03-29 03:06:00,
2013-03-29 00:07:00,34.5,32.7,29.03,West,270,2.7,2.9,93,0.00,,---,0.09,VWS V14.01,2013-03-29 03:07:00,
2013-03-29 00:08:00,34.5,32.7,29.06,WNW,292,2.5,2.5,93,0.00,,---,0.09,VWS V14.01,2013-03-29 03:08:00,
2013-03-29 00:09:00,34.5,32.7,29.03,WSW,248,2.7,3.1,93,0.00,,---,0.09,VWS V14.01,2013-03-29 03:09:00,
2013-03-29 00:10:00,34.5,32.7,29.06,West,270,2.5,3.6,93,0.00,,---,0.09,VWS V14.01,2013-03-29 03:10:00,
2013-03-29 00:11:00,34.5,32.7,29.06,NW,315,2.0,2.5,93,0.00,,---,0.09,VWS V14.01,2013-03-29 03:11:00,
2013-03-29 00:12:00,34.5,32.7,29.06,WNW,292,3.6,3.6,93,0.00,,---,0.09,VWS V14.01,2013-03-29 03:12:00,
2013-03-29 00:13:00,34.5,32.7,29.06,West,270,2.5,2.5,93,0.00,,---,0.09,VWS V14.01,2013-03-29 03:13:00,
2013-03-29 00:14:00,34.5,32.7,29.06,West,270,2.7,3.1,93,0.00,,---,0.09,VWS V14.01,2013-03-29 03:14:00,
2013-03-29 00:15:00,34.5,32.7,29.06,SW,225,1.3,2.7,93,0.00,,---,0.09,VWS V14.01,2013-03-29 03:15:00,
2013-03-29 00:16:00,34.5,32.7,29.06,NW,315,2.0,2.5,93,0.00,,---,0.09,VWS V14.01,2013-03-29 03:16:00,
2013-03-29 00:17:00,34.5,32.7,29.06,West,270,2.7,2.7,93,0.00,,---,0.09,VWS V14.01,2013-03-29 03:17:00,
2013-03-29 00:18:00,34.5,32.7,29.06,NNW,338,2.0,2.0,93,0.00,,---,0.09,VWS V14.01,2013-03-29 03:18:00,
2013-03-29 00:19:00,34.5,32.7,29.06,WNW,292,2.5,3.1,93,0.00,,---,0.09,VWS V14.01,2013-03-29 03:19:00,
2013-03-29 00:20:00,34.5,32.7,29.06,NW,315,2.0,2.7,93,0.00,,---,0.09,VWS V14.01,2013-03-29 03:20:00,
2013-03-29 00:21:00,34.5,32.7,29.06,NNW,338,2.5,2.5,93,0.00,,---,0.09,VWS V14.01,2013-03-29 03:21:00,
2013-03-29 00:22:00,34.5,32.7,29.06,NW,315,2.2,2.7,93,0.00,,---,0.09,VWS V14.01,2013-03-29 03:22:00,
2013-03-29 00:23:00,34.5,32.7,29.06,West,270,2.7,2.7,93,0.00,,---,0.09,VWS V14.01,2013-03-29 03:23:00,
2013-03-29 00:24:00,34.5,32.7,29.06,WNW,292,2.5,2.7,93,0.00,,---,0.09,VWS V14.01,2013-03-29 03:24:00,
2013-03-29 00:25:00,34.5,32.7,29.06,West,270,2.5,2.5,93,0.00,,---,0.09,VWS V14.01,2013-03-29 03:25:00,
2013-03-29 00:26:00,34.5,32.7,29.06,NW,315,2.5,2.7,93,0.00,,---,0.09,VWS V14.01,2013-03-29 03:26:00,
2013-03-29 00:27:00,34.5,32.7,29.06,West,270,1.6,2.5,93,0.00,,---,0.09,VWS V14.01,2013-03-29 03:27:00,
2013-03-29 00:28:00,34.5,32.4,29.06,NNW,338,1.1,1.1,92,0.00,,---,0.09,VWS V14.01,2013-03-29 03:28:00,
2013-03-29 00:29:00,34.5,32.7,29.06,West,270,2.2,2.2,93,0.00,,---,0.09,VWS V14.01,2013-03-29 03:29:00,
2013-03-29 00:30:00,34.5,32.4,29.06,NNW,338,1.1,2.2,92,0.00,,---,0.09,VWS V14.01,2013-03-29 03:30:00,
2013-03-29 00:31:00,34.5,32.4,29.06,NNW,338,1.1,1.1,92,0.00,,---,0.09,VWS V14.01,2013-03-29 03:31:00,
2013-03-29 00:32:00,34.3,32.3,29.06,NW,315,0.0,1.1,92,0.00,,---,0.09,VWS V14.01,2013-03-29 03:32:00,
2013-03-29 00:33:00,34.3,32.3,29.06,North,0,1.1,1.1,92,0.00,,---,0.09,VWS V14.01,2013-03-29 03:33:00,
2013-03-29 00:34:00,34.3,32.3,29.06,West,270,1.6,2.0,92,0.00,,---,0.09,VWS V14.01,2013-03-29 03:34:00,
2013-03-29 00:35:00,34.3,32.3,29.06,North,0,1.1,1.6,92,0.00,,---,0.09,VWS V14.01,2013-03-29 03:35:00,
2013-03-29 00:36:00,34.3,32.3,29.06,NW,315,1.6,2.0,92,0.00,,---,0.09,VWS V14.01,2013-03-29 03:36:00,
2013-03-29 00:37:00,34.3,32.3,29.06,NW,315,1.6,1.6,92,0.00,,---,0.09,VWS V14.01,2013-03-29 03:37:00,
2013-03-29 00:38:00,34.3,32.3,29.03,WNW,292,0.0,0.0,92,0.00,,---,0.09,VWS V14.01,2013-03-29 03:38:00,
2013-03-29 00:39:00,34.3,32.3,29.06,North,0,0.0,0.0,92,0.00,,---,0.09,VWS V14.01,2013-03-29 03:39:00,
2013-03-29 00:40:00,34.3,32.3,29.03,NW,315,0.0,0.0,92,0.00,,---,0.09,VWS V14.01,2013-03-29 03:40:00,
2013-03-29 00:41:00,34.3,32.3,29.03,NW,315,1.3,1.3,92,0.00,,---,0.09,VWS V14.01,2013-03-29 03:41:00,
2013-03-29 00:42:00,34.3,32.3,29.03,NW,315,2.0,2.0,92,0.00,,---,0.09,VWS V14.01,2013-03-29 03:42:00,
2013-03-29 00:43:00,34.3,32.3,29.03,NW,315,0.0,0.9,92,0.00,,---,0.09,VWS V14.01,2013-03-29 03:43:00,
2013-03-29 00:44:00,34.3,32.3,29.03,NW,315,1.1,1.6,92,0.00,,---,0.09,VWS V14.01,2013-03-29 03:44:00,
2013-03-29 00:45:00,34.3,32.3,29.03,NW,315,0.9,1.1,92,0.00,,---,0.09,VWS V14.01,2013-03-29 03:45:00,
2013-03-29 00:46:00,34.3,32.3,29.03,North,0,0.0,0.9,92,0.00,,---,0.09,VWS V14.01,2013-03-29 03:46:00,
2013-03-29 00:47:00,34.3,32.0,29.03,North,0,0.0,0.0,91,0.00,,---,0.09,VWS V14.01,2013-03-29 03:47:00,
2013-03-29 00:48:00,34.2,31.8,29.03,ENE,68,0.0,1.1,91,0.00,,---,0.09,VWS V14.01,2013-03-29 03:48:00,
2013-03-29 00:49:00,34.3,32.0,29.03,ENE,68,0.9,2.0,91,0.00,,---,0.09,VWS V14.01,2013-03-29 03:49:00,
2013-03-29 00:50:00,34.2,31.8,29.03,ENE,68,1.1,1.3,91,0.00,,---,0.09,VWS V14.01,2013-03-29 03:50:00,
2013-03-29 00:51:00,34.2,31.8,29.03,ENE,68,0.9,1.1,91,0.00,,---,0.09,VWS V14.01,2013-03-29 03:51:00,
2013-03-29 00:52:00,34.0,31.6,29.03,ENE,68,0.9,0.9,91,0.00,,---,0.09,VWS V14.01,2013-03-29 03:52:00,
2013-03-29 00:53:00,34.0,31.6,29.03,ENE,68,0.0,0.0,91,0.00,,---,0.09,VWS V14.01,2013-03-29 03:53:00,
2013-03-29 00:54:00,34.0,31.6,29.03,ENE,68,1.6,1.6,91,0.00,,---,0.09,VWS V14.01,2013-03-29 03:54:00,
2013-03-29 00:55:00,34.0,31.6,29.03,ENE,68,0.0,1.6,91,0.00,,---,0.09,VWS V14.01,2013-03-29 03:55:00,
2013-03-29 00:56:00,34.0,31.6,29.03,ENE,68,0.0,0.0,91,0.00,,---,0.09,VWS V14.01,2013-03-29 03:56:00,
2013-03-29 00:57:00,34.0,31.6,29.03,ENE,68,1.3,1.3,91,0.00,,---,0.09,VWS V14.01,2013-03-29 03:57:00,
2013-03-29 00:58:00,33.8,31.5,29.03,NE,45,0.0,0.0,91,0.00,,---,0.00,VWS V14.01,2013-03-29 03:58:00,
2013-03-29 00:59:00,33.8,31.5,29.03,NE,45,0.0,1.3,91,0.00,,---,0.09,VWS V14.01,2013-03-29 03:59:00,
2013-03-29 01:00:00,33.8,31.5,29.03,NE,45,0.0,0.0,91,0.00,,---,0.00,VWS V14.01,2013-03-29 04:00:00,
2013-03-29 01:01:00,33.8,31.5,29.03,NE,45,0.0,0.0,91,0.00,,---,0.00,VWS V14.01,2013-03-29 04:01:00,
2013-03-29 01:02:00,33.8,31.5,29.03,NE,45,0.0,0.0,91,0.00,,---,0.00,VWS V14.01,2013-03-29 04:02:00,
2013-03-29 01:03:00,33.8,31.5,29.03,East,90,0.0,0.0,91,0.00,,---,0.00,VWS V14.01,2013-03-29 04:03:00,
2013-03-29 01:04:00,33.8,31.5,29.03,East,90,0.0,0.0,91,0.00,,---,0.00,VWS V14.01,2013-03-29 04:04:00,
2013-03-29 01:05:00,33.8,31.5,29.03,East,90,0.0,0.0,91,0.00,,---,0.00,VWS V14.01,2013-03-29 04:05:00,
2013-03-29 01:06:00,33.8,31.5,29.03,East,90,0.0,0.0,91,0.00,,---,0.00,VWS V14.01,2013-03-29 04:06:00,
2013-03-29 01:07:00,33.8,31.5,29.03,East,90,0.0,0.0,91,0.00,,---,0.00,VWS V14.01,2013-03-29 04:07:00,
2013-03-29 01:08:00,33.8,31.5,29.03,East,90,0.0,0.0,91,0.00,,---,0.00,VWS V14.01,2013-03-29 04:08:00,
2013-03-29 01:09:00,33.8,31.5,29.03,East,90,0.0,0.0,91,0.00,,---,0.00,VWS V14.01,2013-03-29 04:09:00,
2013-03-29 01:10:00,33.8,31.5,29.03,East,90,0.0,0.0,91,0.00,,---,0.00,VWS V14.01,2013-03-29 04:10:00,
2013-03-29 01:11:00,33.8,31.5,29.03,East,90,0.0,0.0,91,0.00,,---,0.00,VWS V14.01,2013-03-29 04:11:00,
2013-03-29 01:12:00,33.8,31.5,29.03,East,90,0.0,0.0,91,0.00,,---,0.00,VWS V14.01,2013-03-29 04:12:00,
2013-03-29 01:13:00,33.8,31.5,29.03,South,180,0.0,0.0,91,0.00,,---,0.00,VWS V14.01,2013-03-29 04:13:00,
2013-03-29 01:14:00,33.8,31.5,29.03,SE,135,0.0,0.0,91,0.00,,---,0.00,VWS V14.01,2013-03-29 04:14:00,
2013-03-29 01:15:00,33.8,31.5,29.03,SE,135,1.1,1.1,91,0.00,,---,0.00,VWS V14.01,2013-03-29 04:15:00,
2013-03-29 01:16:00,33.8,31.5,29.03,SE,135,1.1,1.6,91,0.00,,---,0.00,VWS V14.01,2013-03-29 04:16:00,
2013-03-29 01:17:00,33.8,31.5,29.03,SE,135,0.9,1.1,91,0.00,,---,0.00,VWS V14.01,2013-03-29 04:17:00,
2013-03-29 01:18:00,33.8,31.5,29.03,SE,135,1.1,1.1,91,0.00,,---,0.00,VWS V14.01,2013-03-29 04:18:00,
2013-03-29 01:19:00,33.8,31.5,29.03,SE,135,0.0,1.1,91,0.00,,---,0.00,VWS V14.01,2013-03-29 04:19:00,
2013-03-29 01:20:00,33.6,31.5,29.03,SE,135,0.0,0.0,92,0.00,,---,0.00,VWS V14.01,2013-03-29 04:20:00,
2013-03-29 01:21:00,33.6,31.5,29.03,SE,135,0.0,0.0,92,0.00,,---,0.00,VWS V14.01,2013-03-29 04:21:00,
2013-03-29 01:22:00,33.6,31.5,29.03,SE,135,0.0,0.0,92,0.00,,---,0.00,VWS V14.01,2013-03-29 04:22:00,
2013-03-29 01:23:00,33.6,31.5,29.03,SE,135,0.0,0.0,92,0.00,,---,0.00,VWS V14.01,2013-03-29 04:23:00,
2013-03-29 01:24:00,33.6,31.5,29.03,SE,135,0.0,0.0,92,0.00,,---,0.00,VWS V14.01,2013-03-29 04:24:00,
2013-03-29 01:25:00,33.6,31.5,29.03,SE,135,0.0,0.0,92,0.00,,---,0.00,VWS V14.01,2013-03-29 04:25:00,
2013-03-29 01:26:00,33.6,31.5,29.03,SE,135,0.0,0.0,92,0.00,,---,0.00,VWS V14.01,2013-03-29 04:26:00,
2013-03-29 01:27:00,33.6,31.5,29.03,SE,135,0.0,0.0,92,0.00,,---,0.00,VWS V14.01,2013-03-29 04:27:00,
2013-03-29 01:28:00,33.6,31.5,29.03,SE,135,0.9,1.3,92,0.00,,---,0.00,VWS V14.01,2013-03-29 04:28:00,
2013-03-29 01:29:00,33.6,31.5,29.03,SE,135,0.9,1.3,92,0.00,,---,0.00,VWS V14.01,2013-03-29 04:29:00,
2013-03-29 01:30:00,33.6,31.5,29.03,SE,135,0.0,0.0,92,0.00,,---,0.00,VWS V14.01,2013-03-29 04:30:00,
2013-03-29 01:31:00,33.6,31.5,29.03,SE,135,0.0,0.0,92,0.00,,---,0.00,VWS V14.01,2013-03-29 04:31:00,
2013-03-29 01:32:00,33.6,31.5,29.03,SE,135,0.0,0.0,92,0.00,,---,0.00,VWS V14.01,2013-03-29 04:32:00,
2013-03-29 01:33:00,33.6,31.5,29.03,SE,135,0.0,0.0,92,0.00,,---,0.00,VWS V14.01,2013-03-29 04:33:00,
2013-03-29 01:34:00,33.6,31.5,29.03,SE,135,0.0,0.0,92,0.00,,---,0.00,VWS V14.01,2013-03-29 04:34:00,
2013-03-29 01:35:00,33.6,31.5,29.03,ESE,112,0.0,0.0,92,0.00,,---,0.00,VWS V14.01,2013-03-29 04:35:00,
2013-03-29 01:36:00,33.6,31.5,29.03,SE,135,0.0,0.0,92,0.00,,---,0.00,VWS V14.01,2013-03-29 04:36:00,
2013-03-29 01:37:00,33.6,31.5,29.03,ESE,112,0.0,0.0,92,0.00,,---,0.00,VWS V14.01,2013-03-29 04:37:00,
2013-03-29 01:38:00,33.6,31.5,29.03,ESE,112,1.3,1.3,92,0.00,,---,0.00,VWS V14.01,2013-03-29 04:38:00,
2013-03-29 01:39:00,33.6,31.5,29.03,ESE,112,1.6,1.6,92,0.00,,---,0.00,VWS V14.01,2013-03-29 04:39:00,
2013-03-29 01:40:00,33.6,31.5,29.03,ESE,112,2.0,2.0,92,0.00,,---,0.00,VWS V14.01,2013-03-29 04:40:00,
2013-03-29 01:41:00,33.6,31.5,29.03,ESE,112,1.6,1.6,92,0.00,,---,0.00,VWS V14.01,2013-03-29 04:41:00,
2013-03-29 01:42:00,33.6,31.5,29.03,ESE,112,1.6,2.0,92,0.00,,---,0.00,VWS V14.01,2013-03-29 04:42:00,
2013-03-29 01:43:00,33.6,31.5,29.03,ESE,112,1.6,2.0,92,0.00,,---,0.00,VWS V14.01,2013-03-29 04:43:00,
2013-03-29 01:44:00,33.6,31.5,29.03,ESE,112,1.1,1.6,92,0.00,,---,0.00,VWS V14.01,2013-03-29 04:44:00,
2013-03-29 01:45:00,33.6,31.5,29.03,SE,135,0.0,0.0,92,0.00,,---,0.00,VWS V14.01,2013-03-29 04:45:00,
2013-03-29 01:46:00,33.6,31.5,29.03,ESE,112,0.0,0.0,92,0.00,,---,0.00,VWS V14.01,2013-03-29 04:46:00,
2013-03-29 01:47:00,33.6,31.5,29.03,SE,135,0.0,0.0,92,0.00,,---,0.00,VWS V14.01,2013-03-29 04:47:00,
2013-03-29 01:48:00,33.6,31.5,29.03,SE,135,0.0,0.0,92,0.00,,---,0.00,VWS V14.01,2013-03-29 04:48:00,
2013-03-29 01:49:00,33.6,31.5,29.03,SE,135,0.0,0.0,92,0.00,,---,0.00,VWS V14.01,2013-03-29 04:49:00,
2013-03-29 01:50:00,33.4,31.4,29.03,SE,135,0.0,0.0,92,0.00,,---,0.00,VWS V14.01,2013-03-29 04:50:00,
2013-03-29 01:51:00,33.4,31.4,29.03,SE,135,0.0,0.0,92,0.00,,---,0.00,VWS V14.01,2013-03-29 04:51:00,
2013-03-29 01:52:00,33.4,31.4,29.03,SE,135,0.0,0.0,92,0.00,,---,0.00,VWS V14.01,2013-03-29 04:52:00,
2013-03-29 01:53:00,33.4,31.4,29.03,SE,135,0.0,0.0,92,0.00,,---,0.00,VWS V14.01,2013-03-29 04:53:00,
2013-03-29 01:54:00,33.4,31.4,29.03,SE,135,0.0,0.0,92,0.00,,---,0.00,VWS V14.01,2013-03-29 04:54:00,
2013-03-29 01:55:00,33.4,31.4,29.03,SE,135,1.1,1.3,92,0.00,,---,0.00,VWS V14.01,2013-03-29 04:55:00,
2013-03-29 01:56:00,33.4,31.4,29.03,SE,135,1.3,1.3,92,0.00,,---,0.00,VWS V14.01,2013-03-29 04:56:00,
2013-03-29 01:57:00,33.4,31.4,29.03,SE,135,1.1,1.3,92,0.00,,---,0.00,VWS V14.01,2013-03-29 04:57:00,
2013-03-29 01:58:00,33.4,31.4,29.03,SE,135,2.0,2.0,92,0.00,,---,0.00,VWS V14.01,2013-03-29 04:58:00,
2013-03-29 01:59:00,33.4,31.4,29.03,SE,135,1.1,2.0,92,0.00,,---,0.00,VWS V14.01,2013-03-29 04:59:00,
2013-03-29 02:00:00,33.4,31.4,29.03,SE,135,0.0,0.0,92,0.00,,---,0.00,VWS V14.01,2013-03-29 05:00:00,
2013-03-29 02:01:00,33.4,31.4,29.03,SE,135,0.0,1.3,92,0.00,,---,0.00,VWS V14.01,2013-03-29 05:01:00,
2013-03-29 02:02:00,33.4,31.4,29.03,SE,135,0.0,0.0,92,0.00,,---,0.00,VWS V14.01,2013-03-29 05:02:00,
2013-03-29 02:03:00,33.4,31.4,29.03,SE,135,1.3,1.3,92,0.00,,---,0.00,VWS V14.01,2013-03-29 05:03:00,
2013-03-29 02:04:00,33.4,31.4,29.03,SE,135,1.3,1.3,92,0.00,,---,0.00,VWS V14.01,2013-03-29 05:04:00,
2013-03-29 02:05:00,33.4,31.4,29.03,SE,135,1.3,1.3,92,0.00,,---,0.00,VWS V14.01,2013-03-29 05:05:00,
2013-03-29 02:06:00,33.4,31.4,29.03,SE,135,0.9,1.1,92,0.00,,---,0.00,VWS V14.01,2013-03-29 05:06:00,
2013-03-29 02:07:00,33.4,31.4,29.03,SE,135,1.1,1.3,92,0.00,,---,0.00,VWS V14.01,2013-03-29 05:07:00,
2013-03-29 02:08:00,33.3,31.5,29.03,SE,135,1.3,1.3,93,0.00,,---,0.00,VWS V14.01,2013-03-29 05:08:00,
2013-03-29 02:09:00,33.3,31.5,29.03,SE,135,1.6,1.6,93,0.00,,---,0.00,VWS V14.01,2013-03-29 05:09:00,
2013-03-29 02:10:00,33.3,31.5,29.03,SE,135,1.3,1.3,93,0.00,,---,0.00,VWS V14.01,2013-03-29 05:10:00,
2013-03-29 02:11:00,33.3,31.5,29.03,SE,135,1.3,1.6,93,0.00,,---,0.00,VWS V14.01,2013-03-29 05:11:00,
2013-03-29 02:12:00,33.3,31.5,29.03,SE,135,1.1,1.3,93,0.00,,---,0.00,VWS V14.01,2013-03-29 05:12:00,
2013-03-29 02:13:00,33.3,31.5,29.03,SE,135,1.3,1.3,93,0.00,,---,0.00,VWS V14.01,2013-03-29 05:13:00,
2013-03-29 02:14:00,33.3,31.5,29.03,SE,135,1.6,2.0,93,0.00,,---,0.00,VWS V14.01,2013-03-29 05:14:00,
2013-03-29 02:15:00,33.3,31.5,29.03,SE,135,1.3,1.3,93,0.00,,---,0.00,VWS V14.01,2013-03-29 05:15:00,
2013-03-29 02:16:00,33.3,31.5,29.03,SE,135,1.3,2.0,93,0.00,,---,0.00,VWS V14.01,2013-03-29 05:16:00,
2013-03-29 02:17:00,33.3,31.5,29.03,SE,135,1.3,1.3,93,0.00,,---,0.00,VWS V14.01,2013-03-29 05:17:00,
2013-03-29 02:18:00,33.3,31.5,29.03,SE,135,1.3,1.3,93,0.00,,---,0.00,VWS V14.01,2013-03-29 05:18:00,
2013-03-29 02:19:00,33.3,31.5,29.03,SE,135,1.3,1.3,93,0.00,,---,0.00,VWS V14.01,2013-03-29 05:19:00,
2013-03-29 02:20:00,33.3,31.5,29.03,ESE,112,1.6,1.6,93,0.00,,---,0.00,VWS V14.01,2013-03-29 05:20:00,
2013-03-29 02:21:00,33.3,31.5,29.03,ESE,112,1.6,2.0,93,0.00,,---,0.00,VWS V14.01,2013-03-29 05:21:00,
2013-03-29 02:22:00,33.3,31.5,29.03,ESE,112,1.6,1.6,93,0.00,,---,0.00,VWS V14.01,2013-03-29 05:22:00,
2013-03-29 02:23:00,33.3,31.5,29.03,SE,135,1.3,1.6,93,0.00,,---,0.00,VWS V14.01,2013-03-29 05:23:00,
2013-03-29 02:24:00,33.3,31.5,29.03,SE,135,1.3,1.6,93,0.00,,---,0.00,VWS V14.01,2013-03-29 05:24:00,
2013-03-29 02:25:00,33.3,31.5,29.03,SE,135,2.0,2.2,93,0.00,,---,0.00,VWS V14.01,2013-03-29 05:25:00,
2013-03-29 02:26:00,33.3,31.5,29.03,SE,135,2.2,2.2,93,0.00,,---,0.00,VWS V14.01,2013-03-29 05:26:00,
2013-03-29 02:27:00,33.3,31.5,29.03,SE,135,2.0,2.2,93,0.00,,---,0.00,VWS V14.01,2013-03-29 05:27:00,
2013-03-29 02:28:00,33.3,31.5,29.03,SE,135,1.3,2.0,93,0.00,,---,0.00,VWS V14.01,2013-03-29 05:28:00,
2013-03-29 02:29:00,33.3,31.5,29.03,SE,135,1.1,1.3,93,0.00,,---,0.00,VWS V14.01,2013-03-29 05:29:00,
2013-03-29 02:30:00,33.3,31.5,29.03,SE,135,1.6,1.6,93,0.00,,---,0.00,VWS V14.01,2013-03-29 05:30:00,
2013-03-29 02:31:00,33.3,31.5,29.03,SE,135,1.6,1.6,93,0.00,,---,0.00,VWS V14.01,2013-03-29 05:31:00,
2013-03-29 02:32:00,33.3,31.5,29.03,SE,135,1.6,1.6,93,0.00,,---,0.00,VWS V14.01,2013-03-29 05:32:00,
2013-03-29 02:33:00,33.3,31.5,29.03,SE,135,1.3,2.0,93,0.00,,---,0.00,VWS V14.01,2013-03-29 05:33:00,
2013-03-29 02:34:00,33.3,31.5,29.03,SE,135,2.0,2.0,93,0.00,,---,0.00,VWS V14.01,2013-03-29 05:34:00,
2013-03-29 02:35:00,33.3,31.5,29.03,SE,135,0.0,0.0,93,0.00,,---,0.00,VWS V14.01,2013-03-29 05:35:00,
2013-03-29 02:36:00,33.3,31.5,29.03,SE,135,0.0,1.1,93,0.00,,---,0.00,VWS V14.01,2013-03-29 05:36:00,
2013-03-29 02:37:00,33.3,31.5,29.03,SE,135,0.0,0.0,93,0.00,,---,0.00,VWS V14.01,2013-03-29 05:37:00,
2013-03-29 02:38:00,33.3,31.5,29.03,SE,135,0.0,0.0,93,0.00,,---,0.00,VWS V14.01,2013-03-29 05:38:00,
2013-03-29 02:39:00,33.3,31.5,29.03,SE,135,0.0,0.0,93,0.00,,---,0.00,VWS V14.01,2013-03-29 05:39:00,
2013-03-29 02:40:00,33.3,31.5,29.03,SE,135,0.0,0.0,93,0.00,,---,0.00,VWS V14.01,2013-03-29 05:40:00,
2013-03-29 02:41:00,33.3,31.5,29.03,SE,135,0.0,0.0,93,0.00,,---,0.00,VWS V14.01,2013-03-29 05:41:00,
2013-03-29 02:42:00,33.3,31.5,29.03,SE,135,0.0,0.0,93,0.00,,---,0.00,VWS V14.01,2013-03-29 05:42:00,
2013-03-29 02:43:00,33.3,31.5,29.03,SE,135,0.0,0.0,93,0.00,,---,0.00,VWS V14.01,2013-03-29 05:43:00,
2013-03-29 02:44:00,33.3,31.5,29.03,SSW,202,1.1,1.1,93,0.00,,---,0.00,VWS V14.01,2013-03-29 05:44:00,
2013-03-29 02:45:00,33.3,31.5,29.03,East,90,1.1,1.1,93,0.00,,---,0.00,VWS V14.01,2013-03-29 05:45:00,
2013-03-29 02:46:00,33.3,31.5,29.03,SE,135,0.0,0.0,93,0.00,,---,0.00,VWS V14.01,2013-03-29 05:46:00,
2013-03-29 02:47:00,33.3,31.5,29.03,East,90,1.1,1.1,93,0.00,,---,0.00,VWS V14.01,2013-03-29 05:47:00,
2013-03-29 02:48:00,33.3,31.5,29.03,East,90,0.9,1.1,93,0.00,,---,0.00,VWS V14.01,2013-03-29 05:48:00,
2013-03-29 02:49:00,33.3,31.5,29.03,East,90,0.9,1.3,93,0.00,,---,0.00,VWS V14.01,2013-03-29 05:49:00,
2013-03-29 02:50:00,33.3,31.5,29.03,East,90,0.0,0.0,93,0.00,,---,0.00,VWS V14.01,2013-03-29 05:50:00,
2013-03-29 02:51:00,33.3,31.5,29.03,East,90,0.0,0.0,93,0.00,,---,0.00,VWS V14.01,2013-03-29 05:51:00,
2013-03-29 02:52:00,33.3,31.5,29.03,East,90,0.0,0.0,93,0.00,,---,0.00,VWS V14.01,2013-03-29 05:52:00,
2013-03-29 02:53:00,33.3,31.5,29.03,East,90,0.0,0.0,93,0.00,,---,0.00,VWS V14.01,2013-03-29 05:53:00,
2013-03-29 02:54:00,33.3,31.5,29.03,East,90,0.0,0.0,93,0.00,,---,0.00,VWS V14.01,2013-03-29 05:54:00,
2013-03-29 02:55:00,33.3,31.5,29.03,East,90,0.9,1.3,93,0.00,,---,0.00,VWS V14.01,2013-03-29 05:55:00,
2013-03-29 02:56:00,33.3,31.5,29.03,East,90,1.3,1.3,93,0.00,,---,0.00,VWS V14.01,2013-03-29 05:56:00,
2013-03-29 02:57:00,33.3,31.5,29.03,East,90,0.9,1.3,93,0.00,,---,0.00,VWS V14.01,2013-03-29 05:57:00,
2013-03-29 02:58:00,33.3,31.5,29.03,East,90,0.0,0.9,93,0.00,,---,0.00,VWS V14.01,2013-03-29 05:58:00,
2013-03-29 02:59:00,33.3,31.5,29.03,East,90,0.0,0.0,93,0.00,,---,0.00,VWS V14.01,2013-03-29 05:59:00,
2013-03-29 03:00:00,33.3,31.5,29.03,East,90,0.9,1.1,93,0.00,,---,0.00,VWS V14.01,2013-03-29 06:00:00,
2013-03-29 03:01:00,33.3,31.5,29.03,East,90,1.1,1.3,93,0.00,,---,0.00,VWS V14.01,2013-03-29 06:01:00,
2013-03-29 03:02:00,33.3,31.5,29.03,East,90,0.9,1.1,93,0.00,,---,0.00,VWS V14.01,2013-03-29 06:02:00,
2013-03-29 03:03:00,33.3,31.5,29.03,East,90,0.0,0.9,93,0.00,,---,0.00,VWS V14.01,2013-03-29 06:03:00,
2013-03-29 03:04:00,33.1,31.3,29.03,East,90,0.0,0.0,93,0.00,,---,0.00,VWS V14.01,2013-03-29 06:04:00,
2013-03-29 03:05:00,33.1,31.3,29.03,East,90,0.0,0.0,93,0.00,,---,0.00,VWS V14.01,2013-03-29 06:05:00,
2013-03-29 03:06:00,33.1,31.3,29.03,East,90,0.0,0.0,93,0.00,,---,0.00,VWS V14.01,2013-03-29 06:06:00,
2013-03-29 03:07:00,33.1,31.3,29.03,East,90,0.0,0.0,93,0.00,,---,0.00,VWS V14.01,2013-03-29 06:07:00,
2013-03-29 03:08:00,33.1,31.3,29.03,East,90,0.0,0.0,93,0.00,,---,0.00,VWS V14.01,2013-03-29 06:08:00,
2013-03-29 03:09:00,33.1,31.3,29.03,East,90,0.0,0.0,93,0.00,,---,0.00,VWS V14.01,2013-03-29 06:09:00,
2013-03-29 03:10:00,33.1,31.3,29.03,East,90,0.0,0.0,93,0.00,,---,0.00,VWS V14.01,2013-03-29 06:10:00,
2013-03-29 03:11:00,33.1,31.3,29.03,East,90,0.0,0.0,93,0.00,,---,0.00,VWS V14.01,2013-03-29 06:11:00,
2013-03-29 03:12:00,33.1,31.3,29.03,East,90,0.0,0.0,93,0.00,,---,0.00,VWS V14.01,2013-03-29 06:12:00,
2013-03-29 03:13:00,33.1,31.3,29.03,East,90,0.0,0.0,93,0.00,,---,0.00,VWS V14.01,2013-03-29 06:13:00,
2013-03-29 03:14:00,33.1,31.3,29.03,SE,135,0.0,0.0,93,0.00,,---,0.00,VWS V14.01,2013-03-29 06:14:00,
2013-03-29 03:15:00,33.1,31.3,29.03,East,90,0.9,1.1,93,0.00,,---,0.00,VWS V14.01,2013-03-29 06:15:00,
2013-03-29 03:16:00,33.1,31.3,29.03,East,90,1.1,1.1,93,0.00,,---,0.00,VWS V14.01,2013-03-29 06:16:00,
2013-03-29 03:17:00,33.1,31.3,29.03,East,90,0.9,1.1,93,0.00,,---,0.00,VWS V14.01,2013-03-29 06:17:00,
2013-03-29 03:18:00,33.1,31.3,29.03,East,90,0.0,0.9,93,0.00,,---,0.00,VWS V14.01,2013-03-29 06:18:00,
2013-03-29 03:19:00,33.1,31.3,29.03,East,90,0.0,0.0,93,0.00,,---,0.00,VWS V14.01,2013-03-29 06:19:00,
2013-03-29 03:20:00,33.1,31.3,29.03,East,90,0.0,0.0,93,0.00,,---,0.00,VWS V14.01,2013-03-29 06:20:00,
2013-03-29 03:21:00,33.1,31.3,29.03,East,90,0.0,0.0,93,0.00,,---,0.00,VWS V14.01,2013-03-29 06:21:00,
2013-03-29 03:22:00,33.1,31.3,29.03,East,90,0.0,0.0,93,0.00,,---,0.00,VWS V14.01,2013-03-29 06:22:00,
2013-03-29 03:23:00,33.1,31.3,29.03,East,90,0.0,0.0,93,0.00,,---,0.00,VWS V14.01,2013-03-29 06:23:00,
2013-03-29 03:24:00,33.1,31.3,29.03,East,90,0.0,0.0,93,0.00,,---,0.00,VWS V14.01,2013-03-29 06:24:00,
2013-03-29 03:25:00,32.9,31.1,29.03,East,90,0.0,0.0,93,0.00,,---,0.00,VWS V14.01,2013-03-29 06:25:00,
2013-03-29 03:26:00,32.9,31.1,29.03,East,90,0.0,0.0,93,0.00,,---,0.00,VWS V14.01,2013-03-29 06:26:00,
2013-03-29 03:27:00,32.9,31.1,29.03,East,90,0.0,0.0,93,0.00,,---,0.00,VWS V14.01,2013-03-29 06:27:00,
2013-03-29 03:28:00,32.9,31.1,29.03,East,90,0.0,0.0,93,0.00,,---,0.00,VWS V14.01,2013-03-29 06:28:00,
2013-03-29 03:29:00,32.9,31.1,29.03,East,90,0.0,0.0,93,0.00,,---,0.00,VWS V14.01,2013-03-29 06:29:00,
2013-03-29 03:30:00,32.9,31.1,29.03,East,90,0.0,0.0,93,0.00,,---,0.00,VWS V14.01,2013-03-29 06:30:00,
2013-03-29 03:31:00,32.9,31.1,29.03,East,90,0.0,0.0,93,0.00,,---,0.00,VWS V14.01,2013-03-29 06:31:00,
2013-03-29 03:32:00,32.9,31.1,29.03,East,90,0.0,0.0,93,0.00,,---,0.00,VWS V14.01,2013-03-29 06:32:00,
2013-03-29 03:33:00,32.9,31.1,29.03,East,90,0.0,0.0,93,0.00,,---,0.00,VWS V14.01,2013-03-29 06:33:00,
2013-03-29 03:34:00,32.9,31.1,29.03,East,90,0.0,0.0,93,0.00,,---,0.00,VWS V14.01,2013-03-29 06:34:00,
2013-03-29 03:35:00,32.9,31.1,29.03,East,90,0.0,0.0,93,0.00,,---,0.00,VWS V14.01,2013-03-29 06:35:00,
2013-03-29 03:36:00,32.9,31.1,29.03,East,90,0.0,0.0,93,0.00,,---,0.00,VWS V14.01,2013-03-29 06:36:00,
2013-03-29 03:37:00,32.9,31.1,29.03,East,90,0.0,0.0,93,0.00,,---,0.00,VWS V14.01,2013-03-29 06:37:00,
2013-03-29 03:38:00,32.9,31.1,29.03,East,90,0.0,0.0,93,0.00,,---,0.00,VWS V14.01,2013-03-29 06:38:00,
2013-03-29 03:39:00,32.9,31.1,29.03,East,90,0.0,0.0,93,0.00,,---,0.00,VWS V14.01,2013-03-29 06:39:00,
2013-03-29 03:40:00,32.9,31.1,29.03,SW,225,0.0,0.0,93,0.00,,---,0.00,VWS V14.01,2013-03-29 06:40:00,
2013-03-29 03:41:00,32.9,31.1,29.03,SW,225,0.0,0.9,93,0.00,,---,0.00,VWS V14.01,2013-03-29 06:41:00,
2013-03-29 03:42:00,32.9,31.1,29.03,SW,225,0.0,0.0,93,0.00,,---,0.00,VWS V14.01,2013-03-29 06:42:00,
2013-03-29 03:43:00,32.9,31.1,29.03,SW,225,0.0,0.0,93,0.00,,---,0.00,VWS V14.01,2013-03-29 06:43:00,
2013-03-29 03:44:00,32.9,31.1,29.03,SW,225,0.0,0.0,93,0.00,,---,0.00,VWS V14.01,2013-03-29 06:44:00,
2013-03-29 03:45:00,32.9,31.1,29.03,SSE,158,0.0,0.0,93,0.00,,---,0.00,VWS V14.01,2013-03-29 06:45:00,
2013-03-29 03:46:00,32.9,31.1,29.03,SW,225,0.0,0.0,93,0.00,,---,0.00,VWS V14.01,2013-03-29 06:46:00,
2013-03-29 03:47:00,32.9,31.1,29.03,SSE,158,0.0,0.0,93,0.00,,---,0.00,VWS V14.01,2013-03-29 06:47:00,
2013-03-29 03:48:00,32.9,31.4,29.03,SSE,158,0.0,0.0,94,0.00,,---,0.00,VWS V14.01,2013-03-29 06:48:00,
2013-03-29 03:49:00,32.9,31.4,29.03,SSE,158,0.0,0.0,94,0.00,,---,0.00,VWS V14.01,2013-03-29 06:49:00,
2013-03-29 03:50:00,32.7,30.9,29.03,ESE,112,0.0,0.0,93,0.00,,---,0.00,VWS V14.01,2013-03-29 06:50:00,
2013-03-29 03:51:00,32.7,30.9,29.03,ESE,112,0.0,0.0,93,0.00,,---,0.00,VWS V14.01,2013-03-29 06:51:00,
2013-03-29 03:52:00,32.7,30.9,29.03,ESE,112,0.0,0.0,93,0.00,,---,0.00,VWS V14.01,2013-03-29 06:52:00,
2013-03-29 03:53:00,32.7,30.9,29.03,ESE,112,0.0,0.0,93,0.00,,---,0.00,VWS V14.01,2013-03-29 06:53:00,
2013-03-29 03:54:00,32.7,30.9,29.03,ESE,112,0.0,0.0,93,0.00,,---,0.00,VWS V14.01,2013-03-29 06:54:00,
2013-03-29 03:55:00,32.7,30.9,29.03,ESE,112,0.0,0.0,93,0.00,,---,0.00,VWS V14.01,2013-03-29 06:55:00,
2013-03-29 03:56:00,32.7,30.9,29.03,ESE,112,0.0,0.0,93,0.00,,---,0.00,VWS V14.01,2013-03-29 06:56:00,
2013-03-29 03:57:00,32.7,30.9,29.03,ESE,112,0.0,0.0,93,0.00,,---,0.00,VWS V14.01,2013-03-29 06:57:00,
2013-03-29 03:58:00,32.7,30.9,29.03,ESE,112,0.0,0.0,93,0.00,,---,0.00,VWS V14.01,2013-03-29 06:58:00,
2013-03-29 03:59:00,32.7,30.9,29.03,ESE,112,0.0,0.0,93,0.00,,---,0.00,VWS V14.01,2013-03-29 06:59:00,
2013-03-29 04:00:00,32.7,30.9,29.03,ESE,112,0.0,0.0,93,0.00,,---,0.00,VWS V14.01,2013-03-29 07:00:00,
2013-03-29 04:01:00,32.7,30.9,29.03,ESE,112,0.0,0.0,93,0.00,,---,0.00,VWS V14.01,2013-03-29 07:01:00,
2013-03-29 04:02:00,32.7,30.9,29.03,ESE,112,0.0,0.0,93,0.00,,---,0.00,VWS V14.01,2013-03-29 07:02:00,
2013-03-29 04:03:00,32.7,30.9,29.03,ESE,112,0.0,0.0,93,0.00,,---,0.00,VWS V14.01,2013-03-29 07:03:00,
2013-03-29 04:04:00,32.7,30.9,29.03,ESE,112,0.0,0.0,93,0.00,,---,0.00,VWS V14.01,2013-03-29 07:04:00,
2013-03-29 04:05:00,32.7,30.9,29.03,ESE,112,0.0,0.0,93,0.00,,---,0.00,VWS V14.01,2013-03-29 07:05:00,
2013-03-29 04:06:00,32.7,30.9,29.03,ESE,112,0.0,0.0,93,0.00,,---,0.00,VWS V14.01,2013-03-29 07:06:00,
2013-03-29 04:07:00,32.7,30.9,29.03,ESE,112,0.0,0.0,93,0.00,,---,0.00,VWS V14.01,2013-03-29 07:07:00,
2013-03-29 04:08:00,32.7,30.9,29.03,ESE,112,0.0,0.0,93,0.00,,---,0.00,VWS V14.01,2013-03-29 07:08:00,
2013-03-29 04:09:00,32.7,30.9,29.03,ESE,112,0.0,0.0,93,0.00,,---,0.00,VWS V14.01,2013-03-29 07:09:00,
2013-03-29 04:10:00,32.7,30.9,29.00,ESE,112,0.9,0.9,93,0.00,,---,0.00,VWS V14.01,2013-03-29 07:10:00,
2013-03-29 04:11:00,32.7,30.9,29.00,ESE,112,0.0,0.0,93,0.00,,---,0.00,VWS V14.01,2013-03-29 07:11:00,
2013-03-29 04:12:00,32.7,30.9,29.00,ESE,112,0.9,0.9,93,0.00,,---,0.00,VWS V14.01,2013-03-29 07:12:00,
2013-03-29 04:13:00,32.7,30.9,29.00,ESE,112,0.9,0.9,93,0.00,,---,0.00,VWS V14.01,2013-03-29 07:13:00,
2013-03-29 04:14:00,32.7,31.2,29.00,ESE,112,0.0,0.9,94,0.00,,---,0.00,VWS V14.01,2013-03-29 07:14:00,
2013-03-29 04:15:00,32.7,31.2,29.00,ESE,112,0.0,0.0,94,0.00,,---,0.00,VWS V14.01,2013-03-29 07:15:00,
2013-03-29 04:16:00,32.7,31.2,29.00,ESE,112,0.0,0.0,94,0.00,,---,0.00,VWS V14.01,2013-03-29 07:16:00,
2013-03-29 04:17:00,32.7,31.2,29.00,ESE,112,0.0,0.0,94,0.00,,---,0.00,VWS V14.01,2013-03-29 07:17:00,
2013-03-29 04:18:00,32.7,31.2,29.00,ESE,112,0.0,0.0,94,0.00,,---,0.00,VWS V14.01,2013-03-29 07:18:00,
2013-03-29 04:19:00,32.7,31.2,29.00,ESE,112,0.0,0.0,94,0.00,,---,0.00,VWS V14.01,2013-03-29 07:19:00,
2013-03-29 04:20:00,32.7,31.2,29.00,ESE,112,0.0,0.0,94,0.00,,---,0.00,VWS V14.01,2013-03-29 07:20:00,
2013-03-29 04:21:00,32.7,31.2,29.00,ESE,112,0.0,0.0,94,0.00,,---,0.00,VWS V14.01,2013-03-29 07:21:00,
2013-03-29 04:22:00,32.7,31.2,29.00,ESE,112,0.0,0.0,94,0.00,,---,0.00,VWS V14.01,2013-03-29 07:22:00,
2013-03-29 04:23:00,32.7,31.2,29.00,ESE,112,0.0,0.0,94,0.00,,---,0.00,VWS V14.01,2013-03-29 07:23:00,
2013-03-29 04:24:00,32.7,31.2,29.00,ESE,112,0.0,0.0,94,0.00,,---,0.00,VWS V14.01,2013-03-29 07:24:00,
2013-03-29 04:25:00,32.5,31.0,29.03,ESE,112,0.0,0.0,94,0.00,,---,0.00,VWS V14.01,2013-03-29 07:25:00,
2013-03-29 04:26:00,32.5,31.0,29.03,ESE,112,0.0,0.0,94,0.00,,---,0.00,VWS V14.01,2013-03-29 07:26:00,
2013-03-29 04:27:00,32.5,31.0,29.03,ESE,112,0.0,0.0,94,0.00,,---,0.00,VWS V14.01,2013-03-29 07:27:00,
2013-03-29 04:28:00,32.5,31.0,29.03,ESE,112,0.0,0.0,94,0.00,,---,0.00,VWS V14.01,2013-03-29 07:28:00,
2013-03-29 04:29:00,32.5,31.0,29.03,ESE,112,0.0,0.0,94,0.00,,---,0.00,VWS V14.01,2013-03-29 07:29:00,
2013-03-29 04:30:00,32.5,31.0,29.03,ESE,112,1.3,1.3,94,0.00,,---,0.00,VWS V14.01,2013-03-29 07:30:00,
2013-03-29 04:31:00,32.5,31.0,29.03,ESE,112,0.0,0.0,94,0.00,,---,0.00,VWS V14.01,2013-03-29 07:31:00,
2013-03-29 04:32:00,32.5,31.0,29.03,ESE,112,1.3,1.3,94,0.00,,---,0.00,VWS V14.01,2013-03-29 07:32:00,
2013-03-29 04:33:00,32.5,31.0,29.03,ESE,112,1.1,1.3,94,0.00,,---,0.00,VWS V14.01,2013-03-29 07:33:00,
2013-03-29 04:34:00,32.5,31.0,29.03,ESE,112,0.0,1.1,94,0.00,,---,0.00,VWS V14.01,2013-03-29 07:34:00,
2013-03-29 04:35:00,32.5,31.0,29.03,ESE,112,0.0,0.0,94,0.00,,---,0.00,VWS V14.01,2013-03-29 07:35:00,
2013-03-29 04:36:00,32.5,31.0,29.03,ESE,112,0.0,0.0,94,0.00,,---,0.00,VWS V14.01,2013-03-29 07:36:00,
2013-03-29 04:37:00,32.5,31.0,29.03,ESE,112,0.0,0.0,94,0.00,,---,0.00,VWS V14.01,2013-03-29 07:37:00,
2013-03-29 04:38:00,32.5,31.0,29.03,ESE,112,0.0,0.0,94,0.00,,---,0.00,VWS V14.01,2013-03-29 07:38:00,
2013-03-29 04:39:00,32.5,31.0,29.03,ESE,112,0.0,0.0,94,0.00,,---,0.00,VWS V14.01,2013-03-29 07:39:00,
2013-03-29 04:40:00,32.5,31.0,29.00,ESE,112,0.0,0.0,94,0.00,,---,0.00,VWS V14.01,2013-03-29 07:40:00,
2013-03-29 04:41:00,32.5,31.0,29.00,ESE,112,0.0,0.0,94,0.00,,---,0.00,VWS V14.01,2013-03-29 07:41:00,
2013-03-29 04:42:00,32.5,31.0,29.00,ESE,112,0.0,0.0,94,0.00,,---,0.00,VWS V14.01,2013-03-29 07:42:00,
2013-03-29 04:43:00,32.5,31.0,29.00,ESE,112,0.0,0.0,94,0.00,,---,0.00,VWS V14.01,2013-03-29 07:43:00,
2013-03-29 04:44:00,32.5,31.0,29.00,ESE,112,0.0,0.0,94,0.00,,---,0.00,VWS V14.01,2013-03-29 07:44:00,
2013-03-29 04:45:00,32.5,31.0,29.00,ESE,112,0.0,0.0,94,0.00,,---,0.00,VWS V14.01,2013-03-29 07:45:00,
2013-03-29 04:46:00,32.5,31.0,29.00,ESE,112,0.0,0.0,94,0.00,,---,0.00,VWS V14.01,2013-03-29 07:46:00,
2013-03-29 04:47:00,32.4,30.8,29.00,ESE,112,0.0,0.0,94,0.00,,---,0.00,VWS V14.01,2013-03-29 07:47:00,
2013-03-29 04:48:00,32.4,30.8,29.00,ESE,112,0.0,0.0,94,0.00,,---,0.00,VWS V14.01,2013-03-29 07:48:00,
2013-03-29 04:49:00,32.4,30.8,29.00,ESE,112,0.0,0.0,94,0.00,,---,0.00,VWS V14.01,2013-03-29 07:49:00,
2013-03-29 04:50:00,32.4,30.8,29.00,ESE,112,0.0,0.0,94,0.00,,---,0.00,VWS V14.01,2013-03-29 07:50:00,
2013-03-29 04:51:00,32.4,30.8,29.00,ESE,112,0.0,0.0,94,0.00,,---,0.00,VWS V14.01,2013-03-29 07:51:00,
2013-03-29 04:52:00,32.4,30.8,29.00,ESE,112,0.0,0.0,94,0.00,,---,0.00,VWS V14.01,2013-03-29 07:52:00,
2013-03-29 04:53:00,32.4,30.8,29.00,ESE,112,0.0,0.0,94,0.00,,---,0.00,VWS V14.01,2013-03-29 07:53:00,
2013-03-29 04:54:00,32.4,30.8,29.00,ESE,112,0.0,0.0,94,0.00,,---,0.00,VWS V14.01,2013-03-29 07:54:00,
2013-03-29 04:55:00,32.4,30.8,29.03,ESE,112,0.0,0.0,94,0.00,,---,0.00,VWS V14.01,2013-03-29 07:55:00,
2013-03-29 04:56:00,32.4,30.8,29.03,ESE,112,0.0,0.0,94,0.00,,---,0.00,VWS V14.01,2013-03-29 07:56:00,
2013-03-29 04:57:00,32.4,30.8,29.03,ESE,112,0.0,0.0,94,0.00,,---,0.00,VWS V14.01,2013-03-29 07:57:00,
2013-03-29 04:58:00,32.4,30.8,29.03,ESE,112,0.0,0.0,94,0.00,,---,0.00,VWS V14.01,2013-03-29 07:58:00,
2013-03-29 04:59:00,32.4,30.8,29.03,ESE,112,0.0,0.0,94,0.00,,---,0.00,VWS V14.01,2013-03-29 07:59:00,
2013-03-29 05:00:00,32.4,30.8,29.03,ESE,112,0.0,0.0,94,0.00,,---,0.00,VWS V14.01,2013-03-29 08:00:00,
2013-03-29 05:01:00,32.4,30.8,29.03,ESE,112,0.0,0.0,94,0.00,,---,0.00,VWS V14.01,2013-03-29 08:01:00,
2013-03-29 05:02:00,32.4,30.8,29.03,ESE,112,0.0,0.0,94,0.00,,---,0.00,VWS V14.01,2013-03-29 08:02:00,
2013-03-29 05:03:00,32.4,30.8,29.03,ESE,112,0.0,0.0,94,0.00,,---,0.00,VWS V14.01,2013-03-29 08:03:00,
2013-03-29 05:04:00,32.4,30.8,29.03,ESE,112,0.0,0.0,94,0.00,,---,0.00,VWS V14.01,2013-03-29 08:04:00,
2013-03-29 05:05:00,32.4,30.8,29.03,ESE,112,0.0,0.0,94,0.00,,---,0.00,VWS V14.01,2013-03-29 08:05:00,
2013-03-29 05:06:00,32.4,30.8,29.03,ESE,112,0.0,0.0,94,0.00,,---,0.00,VWS V14.01,2013-03-29 08:06:00,
2013-03-29 05:07:00,32.4,30.8,29.03,ESE,112,0.0,0.0,94,0.00,,---,0.00,VWS V14.01,2013-03-29 08:07:00,
2013-03-29 05:08:00,32.4,30.8,29.03,ESE,112,0.0,0.0,94,0.00,,---,0.00,VWS V14.01,2013-03-29 08:08:00,
2013-03-29 05:09:00,32.4,30.8,29.03,ESE,112,0.0,0.0,94,0.00,,---,0.00,VWS V14.01,2013-03-29 08:09:00,
2013-03-29 05:10:00,32.4,31.1,29.06,ESE,112,0.0,0.0,95,0.00,,---,0.00,VWS V14.01,2013-03-29 08:10:00,
2013-03-29 05:11:00,32.4,31.1,29.06,ESE,112,0.0,859.3,95,0.00,,---,0.00,VWS V14.01,2013-03-29 08:11:00,
2013-03-29 05:12:00,32.4,31.1,29.06,ESE,112,0.0,0.0,95,0.00,,---,0.00,VWS V14.01,2013-03-29 08:12:00,
2013-03-29 05:13:00,32.4,31.1,29.06,ESE,112,0.0,0.0,95,0.00,,---,0.00,VWS V14.01,2013-03-29 08:13:00,
2013-03-29 05:14:00,32.4,31.1,29.06,ESE,112,0.0,0.0,95,0.00,,---,0.00,VWS V14.01,2013-03-29 08:14:00,
2013-03-29 05:15:00,32.4,31.1,29.06,ESE,112,0.0,0.0,95,0.00,,---,0.00,VWS V14.01,2013-03-29 08:15:00,
2013-03-29 05:16:00,32.4,31.1,29.06,ESE,112,0.0,0.0,95,0.00,,---,0.00,VWS V14.01,2013-03-29 08:16:00,
2013-03-29 05:17:00,32.4,31.1,29.06,ESE,112,0.0,0.0,95,0.00,,---,0.00,VWS V14.01,2013-03-29 08:17:00,
2013-03-29 05:18:00,32.4,31.1,29.06,ESE,112,0.0,0.0,95,0.00,,---,0.00,VWS V14.01,2013-03-29 08:18:00,
2013-03-29 05:19:00,32.4,31.1,29.06,ESE,112,0.0,0.0,95,0.00,,---,0.00,VWS V14.01,2013-03-29 08:19:00,
2013-03-29 05:20:00,32.4,31.1,29.06,ESE,112,0.0,0.0,95,0.00,,---,0.00,VWS V14.01,2013-03-29 08:20:00,
2013-03-29 05:21:00,32.4,31.1,29.06,ESE,112,0.0,0.0,95,0.00,,---,0.00,VWS V14.01,2013-03-29 08:21:00,
2013-03-29 05:22:00,32.4,31.1,29.06,ESE,112,0.0,0.0,95,0.00,,---,0.00,VWS V14.01,2013-03-29 08:22:00,
2013-03-29 05:23:00,32.4,31.1,29.06,ESE,112,0.0,0.0,95,0.00,,---,0.00,VWS V14.01,2013-03-29 08:23:00,
2013-03-29 05:24:00,32.4,31.1,29.06,ESE,112,0.0,0.0,95,0.00,,---,0.00,VWS V14.01,2013-03-29 08:24:00,
2013-03-29 05:25:00,32.4,31.1,29.06,ESE,112,0.0,0.0,95,0.00,,---,0.00,VWS V14.01,2013-03-29 08:25:00,
2013-03-29 05:26:00,32.4,31.1,29.06,ESE,112,0.0,0.0,95,0.00,,---,0.00,VWS V14.01,2013-03-29 08:26:00,
2013-03-29 05:27:00,32.4,31.1,29.06,ESE,112,0.0,0.0,95,0.00,,---,0.00,VWS V14.01,2013-03-29 08:27:00,
2013-03-29 05:28:00,32.4,31.1,29.06,ESE,112,0.0,0.0,95,0.00,,---,0.00,VWS V14.01,2013-03-29 08:28:00,
2013-03-29 05:29:00,32.4,31.1,29.06,ESE,112,1.1,1.1,95,0.00,,---,0.00,VWS V14.01,2013-03-29 08:29:00,
2013-03-29 05:30:00,32.4,31.1,29.06,ESE,112,0.0,0.0,95,0.00,,---,0.00,VWS V14.01,2013-03-29 08:30:00,
2013-03-29 05:31:00,32.4,31.1,29.06,ESE,112,0.0,0.9,95,0.00,,---,0.00,VWS V14.01,2013-03-29 08:31:00,
2013-03-29 05:32:00,32.4,31.1,29.06,ESE,112,0.0,0.0,95,0.00,,---,0.00,VWS V14.01,2013-03-29 08:32:00,
2013-03-29 05:33:00,32.4,31.1,29.06,ESE,112,0.0,0.0,95,0.00,,---,0.00,VWS V14.01,2013-03-29 08:33:00,
2013-03-29 05:34:00,32.2,30.9,29.06,ESE,112,0.0,0.0,95,0.00,,---,0.00,VWS V14.01,2013-03-29 08:34:00,
2013-03-29 05:35:00,32.2,30.9,29.06,ESE,112,0.0,0.0,95,0.00,,---,0.00,VWS V14.01,2013-03-29 08:35:00,
2013-03-29 05:36:00,32.2,30.9,29.06,ESE,112,0.0,0.0,95,0.00,,---,0.00,VWS V14.01,2013-03-29 08:36:00,
2013-03-29 05:37:00,32.2,30.9,29.06,ESE,112,0.0,0.0,95,0.00,,---,0.00,VWS V14.01,2013-03-29 08:37:00,
2013-03-29 05:38:00,32.2,30.9,29.06,ESE,112,0.0,0.0,95,0.00,,---,0.00,VWS V14.01,2013-03-29 08:38:00,
2013-03-29 05:39:00,32.2,30.9,29.06,ESE,112,0.0,0.0,95,0.00,,---,0.00,VWS V14.01,2013-03-29 08:39:00,
2013-03-29 05:40:00,32.2,30.9,29.06,ESE,112,0.0,0.0,95,0.00,,---,0.00,VWS V14.01,2013-03-29 08:40:00,
2013-03-29 05:41:00,32.2,30.9,29.06,ESE,112,0.0,0.0,95,0.00,,---,0.00,VWS V14.01,2013-03-29 08:41:00,
2013-03-29 05:42:00,32.2,30.9,29.06,ESE,112,0.0,0.0,95,0.00,,---,0.00,VWS V14.01,2013-03-29 08:42:00,
2013-03-29 05:43:00,32.2,30.9,29.06,ESE,112,0.0,0.0,95,0.00,,---,0.00,VWS V14.01,2013-03-29 08:43:00,
2013-03-29 05:44:00,32.2,30.9,29.06,ESE,112,0.0,0.0,95,0.00,,---,0.00,VWS V14.01,2013-03-29 08:44:00,
2013-03-29 05:45:00,32.2,30.9,29.06,ESE,112,0.0,0.0,95,0.00,,---,0.00,VWS V14.01,2013-03-29 08:45:00,
2013-03-29 05:46:00,32.2,30.9,29.06,ESE,112,0.0,0.0,95,0.00,,---,0.00,VWS V14.01,2013-03-29 08:46:00,
2013-03-29 05:47:00,32.2,30.9,29.06,ESE,112,0.0,0.0,95,0.00,,---,0.00,VWS V14.01,2013-03-29 08:47:00,
2013-03-29 05:48:00,32.2,30.9,29.06,ESE,112,0.0,0.0,95,0.00,,---,0.00,VWS V14.01,2013-03-29 08:48:00,
2013-03-29 05:49:00,32.2,30.9,29.06,ESE,112,0.0,0.0,95,0.00,,---,0.00,VWS V14.01,2013-03-29 08:49:00,
2013-03-29 05:50:00,32.2,30.9,29.06,ESE,112,0.0,0.0,95,0.00,,---,0.00,VWS V14.01,2013-03-29 08:50:00,
2013-03-29 05:51:00,32.2,30.9,29.06,ESE,112,0.0,0.0,95,0.00,,---,0.00,VWS V14.01,2013-03-29 08:51:00,
2013-03-29 05:52:00,32.2,30.9,29.06,ESE,112,0.0,0.0,95,0.00,,---,0.00,VWS V14.01,2013-03-29 08:52:00,
2013-03-29 05:53:00,32.2,30.9,29.06,ESE,112,0.0,0.0,95,0.00,,---,0.00,VWS V14.01,2013-03-29 08:53:00,
2013-03-29 05:54:00,32.2,30.9,29.06,ESE,112,0.0,0.0,95,0.00,,---,0.00,VWS V14.01,2013-03-29 08:54:00,
2013-03-29 05:55:00,32.2,30.9,29.03,ESE,112,0.0,0.0,95,0.00,,---,0.00,VWS V14.01,2013-03-29 08:55:00,
2013-03-29 05:56:00,32.2,30.9,29.03,ESE,112,0.0,0.0,95,0.00,,---,0.00,VWS V14.01,2013-03-29 08:56:00,
2013-03-29 05:57:00,32.2,30.9,29.03,ESE,112,0.0,0.0,95,0.00,,---,0.00,VWS V14.01,2013-03-29 08:57:00,
2013-03-29 05:58:00,32.2,30.9,29.03,ESE,112,0.0,0.0,95,0.00,,---,0.00,VWS V14.01,2013-03-29 08:58:00,
2013-03-29 05:59:00,32.2,30.9,29.03,ESE,112,0.0,0.0,95,0.00,,---,0.00,VWS V14.01,2013-03-29 08:59:00,
2013-03-29 06:00:00,32.2,30.9,29.03,ESE,112,0.0,0.0,95,0.00,,---,0.00,VWS V14.01,2013-03-29 09:00:00,
2013-03-29 06:01:00,32.2,30.9,29.03,ESE,112,0.0,0.0,95,0.00,,---,0.00,VWS V14.01,2013-03-29 09:01:00,
2013-03-29 06:02:00,32.2,30.9,29.03,ESE,112,0.0,0.0,95,0.00,,---,0.00,VWS V14.01,2013-03-29 09:02:00,
2013-03-29 06:03:00,32.2,30.9,29.03,ESE,112,0.0,0.0,95,0.00,,---,0.00,VWS V14.01,2013-03-29 09:03:00,
2013-03-29 06:04:00,32.2,30.9,29.03,ESE,112,0.0,0.0,95,0.00,,---,0.00,VWS V14.01,2013-03-29 09:04:00,
2013-03-29 06:05:00,32.2,30.9,29.03,ESE,112,0.0,0.0,95,0.00,,---,0.00,VWS V14.01,2013-03-29 09:05:00,
2013-03-29 06:06:00,32.2,30.9,29.03,ESE,112,0.0,0.0,95,0.00,,---,0.00,VWS V14.01,2013-03-29 09:06:00,
2013-03-29 06:07:00,32.2,30.9,29.03,ESE,112,0.0,0.0,95,0.00,,---,0.00,VWS V14.01,2013-03-29 09:07:00,
2013-03-29 06:08:00,32.2,30.9,29.03,ESE,112,0.0,0.0,95,0.00,,---,0.00,VWS V14.01,2013-03-29 09:08:00,
2013-03-29 06:09:00,32.2,30.9,29.03,ESE,112,0.0,0.0,95,0.00,,---,0.00,VWS V14.01,2013-03-29 09:09:00,
2013-03-29 06:10:00,32.0,30.7,29.03,ESE,112,0.0,0.0,95,0.00,,---,0.00,VWS V14.01,2013-03-29 09:10:00,
2013-03-29 06:11:00,32.0,30.7,29.03,ESE,112,0.0,0.0,95,0.00,,---,0.00,VWS V14.01,2013-03-29 09:11:00,
2013-03-29 06:12:00,32.0,30.7,29.03,ESE,112,0.0,0.0,95,0.00,,---,0.00,VWS V14.01,2013-03-29 09:12:00,
2013-03-29 06:13:00,32.0,30.7,29.03,ESE,112,0.0,0.0,95,0.00,,---,0.00,VWS V14.01,2013-03-29 09:13:00,
2013-03-29 06:14:00,32.0,30.7,29.03,ESE,112,0.0,0.0,95,0.00,,---,0.00,VWS V14.01,2013-03-29 09:14:00,
2013-03-29 06:15:00,32.0,30.7,29.03,ESE,112,0.0,0.0,95,0.00,,---,0.00,VWS V14.01,2013-03-29 09:15:00,
2013-03-29 06:16:00,32.0,30.7,29.03,ESE,112,0.0,0.0,95,0.00,,---,0.00,VWS V14.01,2013-03-29 09:16:00,
2013-03-29 06:17:00,32.0,30.7,29.03,ESE,112,0.0,0.0,95,0.00,,---,0.00,VWS V14.01,2013-03-29 09:17:00,
2013-03-29 06:18:00,32.0,30.7,29.03,ESE,112,0.0,0.0,95,0.00,,---,0.00,VWS V14.01,2013-03-29 09:18:00,
2013-03-29 06:19:00,32.0,30.7,29.03,ESE,112,0.0,0.0,95,0.00,,---,0.00,VWS V14.01,2013-03-29 09:19:00,
2013-03-29 06:20:00,32.0,30.7,29.03,ESE,112,0.0,0.0,95,0.00,,---,0.00,VWS V14.01,2013-03-29 09:20:00,
2013-03-29 06:21:00,32.0,30.7,29.03,ESE,112,0.0,0.0,95,0.00,,---,0.00,VWS V14.01,2013-03-29 09:21:00,
2013-03-29 06:22:00,32.0,30.7,29.03,ESE,112,0.0,0.0,95,0.00,,---,0.00,VWS V14.01,2013-03-29 09:22:00,
2013-03-29 06:23:00,32.0,30.7,29.03,ESE,112,0.0,0.0,95,0.00,,---,0.00,VWS V14.01,2013-03-29 09:23:00,
2013-03-29 06:24:00,32.0,30.7,29.03,ESE,112,0.0,0.0,95,0.00,,---,0.00,VWS V14.01,2013-03-29 09:24:00,
2013-03-29 06:25:00,32.0,30.7,29.03,ESE,112,0.0,0.0,95,0.00,,---,0.00,VWS V14.01,2013-03-29 09:25:00,
2013-03-29 06:26:00,32.0,30.7,29.03,ESE,112,0.0,0.0,95,0.00,,---,0.00,VWS V14.01,2013-03-29 09:26:00,
2013-03-29 06:27:00,32.0,30.7,29.03,ESE,112,0.0,0.0,95,0.00,,---,0.00,VWS V14.01,2013-03-29 09:27:00,
2013-03-29 06:28:00,32.0,30.7,29.03,ESE,112,0.0,0.0,95,0.00,,---,0.00,VWS V14.01,2013-03-29 09:28:00,
2013-03-29 06:29:00,32.0,30.7,29.03,ESE,112,0.0,0.0,95,0.00,,---,0.00,VWS V14.01,2013-03-29 09:29:00,
2013-03-29 06:30:00,32.0,30.7,29.03,ESE,112,1.1,1.1,95,0.00,,---,0.00,VWS V14.01,2013-03-29 09:30:00,
2013-03-29 06:31:00,32.0,30.7,29.03,ESE,112,1.1,1.1,95,0.00,,---,0.00,VWS V14.01,2013-03-29 09:31:00,
2013-03-29 06:32:00,32.0,30.7,29.03,ESE,112,1.3,1.3,95,0.00,,---,0.00,VWS V14.01,2013-03-29 09:32:00,
2013-03-29 06:33:00,32.0,30.7,29.03,ESE,112,0.0,1.3,95,0.00,,---,0.00,VWS V14.01,2013-03-29 09:33:00,
2013-03-29 06:34:00,32.0,30.7,29.03,ESE,112,0.0,0.0,95,0.00,,---,0.00,VWS V14.01,2013-03-29 09:34:00,
2013-03-29 06:35:00,32.0,30.7,29.03,ESE,112,0.0,0.0,95,0.00,,---,0.00,VWS V14.01,2013-03-29 09:35:00,
2013-03-29 06:36:00,32.0,30.7,29.03,ESE,112,0.0,0.0,95,0.00,,---,0.00,VWS V14.01,2013-03-29 09:36:00,
2013-03-29 06:37:00,32.0,30.7,29.03,ESE,112,0.0,0.0,95,0.00,,---,0.00,VWS V14.01,2013-03-29 09:37:00,
2013-03-29 06:38:00,32.0,30.7,29.03,ESE,112,0.0,0.0,95,0.00,,---,0.00,VWS V14.01,2013-03-29 09:38:00,
2013-03-29 06:39:00,32.0,30.7,29.03,ESE,112,0.0,0.0,95,0.00,,---,0.00,VWS V14.01,2013-03-29 09:39:00,
2013-03-29 06:40:00,32.0,30.7,29.06,ESE,112,0.0,0.0,95,0.00,,---,0.00,VWS V14.01,2013-03-29 09:40:00,
2013-03-29 06:41:00,32.0,30.7,29.06,ESE,112,0.0,0.0,95,0.00,,---,0.00,VWS V14.01,2013-03-29 09:41:00,
2013-03-29 06:42:00,32.0,30.7,29.06,ESE,112,0.0,0.0,95,0.00,,---,0.00,VWS V14.01,2013-03-29 09:42:00,
2013-03-29 06:43:00,32.0,30.7,29.06,ESE,112,0.0,0.0,95,0.00,,---,0.00,VWS V14.01,2013-03-29 09:43:00,
2013-03-29 06:44:00,32.0,30.7,29.06,ESE,112,0.0,0.0,95,0.00,,---,0.00,VWS V14.01,2013-03-29 09:44:00,
2013-03-29 06:45:00,32.0,30.7,29.06,ESE,112,0.0,0.0,95,0.00,,---,0.00,VWS V14.01,2013-03-29 09:45:00,
2013-03-29 06:46:00,32.0,30.7,29.06,ESE,112,0.0,0.0,95,0.00,,---,0.00,VWS V14.01,2013-03-29 09:46:00,
2013-03-29 06:47:00,32.0,30.7,29.06,ESE,112,0.0,0.0,95,0.00,,---,0.00,VWS V14.01,2013-03-29 09:47:00,
2013-03-29 06:48:00,32.0,30.7,29.06,ESE,112,0.0,0.0,95,0.00,,---,0.00,VWS V14.01,2013-03-29 09:48:00,
2013-03-29 06:49:00,32.0,30.7,29.06,ESE,112,0.0,0.0,95,0.00,,---,0.00,VWS V14.01,2013-03-29 09:49:00,
2013-03-29 06:50:00,32.0,30.7,29.06,ESE,112,0.0,0.0,95,0.00,,---,0.00,VWS V14.01,2013-03-29 09:50:00,
2013-03-29 06:51:00,32.0,30.7,29.06,ESE,112,0.0,0.0,95,0.00,,---,0.00,VWS V14.01,2013-03-29 09:51:00,
2013-03-29 06:52:00,32.0,30.7,29.06,ESE,112,0.0,0.0,95,0.00,,---,0.00,VWS V14.01,2013-03-29 09:52:00,
2013-03-29 06:53:00,31.8,30.5,29.06,ESE,112,0.0,0.0,95,0.00,,---,0.00,VWS V14.01,2013-03-29 09:53:00,
2013-03-29 06:54:00,31.8,30.5,29.06,ESE,112,0.0,0.0,95,0.00,,---,0.00,VWS V14.01,2013-03-29 09:54:00,
2013-03-29 06:55:00,31.8,30.5,29.03,ESE,112,0.0,0.0,95,0.00,,---,0.00,VWS V14.01,2013-03-29 09:55:00,
2013-03-29 06:56:00,31.8,30.5,29.03,ESE,112,0.0,0.0,95,0.00,,---,0.00,VWS V14.01,2013-03-29 09:56:00,
2013-03-29 06:57:00,31.8,30.5,29.03,ESE,112,0.0,0.0,95,0.00,,---,0.00,VWS V14.01,2013-03-29 09:57:00,
2013-03-29 06:58:00,31.8,30.5,29.03,ESE,112,0.0,0.0,95,0.00,,---,0.00,VWS V14.01,2013-03-29 09:58:00,
2013-03-29 06:59:00,32.0,30.7,29.03,ESE,112,0.0,0.0,95,0.00,,---,0.00,VWS V14.01,2013-03-29 09:59:00,
2013-03-29 07:00:00,31.8,30.5,29.03,ESE,112,0.0,0.0,95,0.00,,---,0.00,VWS V14.01,2013-03-29 10:00:00,
2013-03-29 07:01:00,32.0,30.7,29.03,ESE,112,0.0,0.0,95,0.00,,---,0.00,VWS V14.01,2013-03-29 10:01:00,
2013-03-29 07:02:00,31.8,30.5,29.03,ESE,112,0.0,0.0,95,0.00,,---,0.00,VWS V14.01,2013-03-29 10:02:00,
2013-03-29 07:03:00,31.8,30.8,29.03,ESE,112,0.0,0.0,96,0.00,,---,0.00,VWS V14.01,2013-03-29 10:03:00,
2013-03-29 07:04:00,31.8,30.8,29.03,ESE,112,0.0,0.0,96,0.00,,---,0.00,VWS V14.01,2013-03-29 10:04:00,
2013-03-29 07:05:00,31.8,30.8,29.03,ESE,112,0.0,0.0,96,0.00,,---,0.00,VWS V14.01,2013-03-29 10:05:00,
2013-03-29 07:06:00,31.8,30.8,29.03,ESE,112,0.0,0.0,96,0.00,,---,0.00,VWS V14.01,2013-03-29 10:06:00,
2013-03-29 07:07:00,31.8,30.8,29.03,ESE,112,0.0,0.0,96,0.00,,---,0.00,VWS V14.01,2013-03-29 10:07:00,
2013-03-29 07:08:00,31.8,30.8,29.03,ESE,112,0.0,0.0,96,0.00,,---,0.00,VWS V14.01,2013-03-29 10:08:00,
2013-03-29 07:09:00,31.8,30.8,29.03,ESE,112,0.0,0.0,96,0.00,,---,0.00,VWS V14.01,2013-03-29 10:09:00,
2013-03-29 07:10:00,31.8,30.8,29.06,ESE,112,0.0,0.0,96,0.00,,---,0.00,VWS V14.01,2013-03-29 10:10:00,
2013-03-29 07:11:00,31.8,30.8,29.06,ESE,112,0.0,0.0,96,0.00,,---,0.00,VWS V14.01,2013-03-29 10:11:00,
2013-03-29 07:12:00,31.8,30.8,29.06,ESE,112,0.0,0.0,96,0.00,,---,0.00,VWS V14.01,2013-03-29 10:12:00,
2013-03-29 07:13:00,31.8,30.8,29.06,ESE,112,0.0,0.0,96,0.00,,---,0.00,VWS V14.01,2013-03-29 10:13:00,
2013-03-29 07:14:00,31.8,30.8,29.06,ESE,112,0.0,0.0,96,0.00,,---,0.00,VWS V14.01,2013-03-29 10:14:00,
2013-03-29 07:15:00,31.8,30.8,29.06,ESE,112,0.0,0.0,96,0.00,,---,0.00,VWS V14.01,2013-03-29 10:15:00,
2013-03-29 07:16:00,31.8,30.8,29.06,ESE,112,0.0,0.0,96,0.00,,---,0.00,VWS V14.01,2013-03-29 10:16:00,
2013-03-29 07:17:00,31.8,30.8,29.06,ESE,112,0.0,0.0,96,0.00,,---,0.00,VWS V14.01,2013-03-29 10:17:00,
2013-03-29 07:18:00,31.8,30.8,29.06,ESE,112,0.0,0.0,96,0.00,,---,0.00,VWS V14.01,2013-03-29 10:18:00,
2013-03-29 07:19:00,31.8,30.8,29.06,ESE,112,0.0,0.0,96,0.00,,---,0.00,VWS V14.01,2013-03-29 10:19:00,
2013-03-29 07:20:00,31.8,30.8,29.06,ESE,112,0.0,0.0,96,0.00,,---,0.00,VWS V14.01,2013-03-29 10:20:00,
2013-03-29 07:21:00,31.8,30.8,29.06,ESE,112,0.0,0.0,96,0.00,,---,0.00,VWS V14.01,2013-03-29 10:21:00,
2013-03-29 07:22:00,31.8,30.8,29.06,ESE,112,0.0,0.0,96,0.00,,---,0.00,VWS V14.01,2013-03-29 10:22:00,
2013-03-29 07:23:00,31.8,30.8,29.06,ESE,112,0.0,0.0,96,0.00,,---,0.00,VWS V14.01,2013-03-29 10:23:00,
2013-03-29 07:24:00,31.8,30.8,29.06,ESE,112,0.0,0.0,96,0.00,,---,0.00,VWS V14.01,2013-03-29 10:24:00,
2013-03-29 07:25:00,31.8,30.8,29.03,ESE,112,0.0,0.0,96,0.00,,---,0.00,VWS V14.01,2013-03-29 10:25:00,
2013-03-29 07:26:00,31.8,30.8,29.03,ESE,112,0.0,0.0,96,0.00,,---,0.00,VWS V14.01,2013-03-29 10:26:00,
2013-03-29 07:27:00,31.8,30.8,29.03,ESE,112,0.0,0.0,96,0.00,,---,0.00,VWS V14.01,2013-03-29 10:27:00,
2013-03-29 07:28:00,31.8,30.8,29.03,ESE,112,0.0,0.0,96,0.00,,---,0.00,VWS V14.01,2013-03-29 10:28:00,
2013-03-29 07:29:00,31.8,30.8,29.03,ESE,112,0.0,0.0,96,0.00,,---,0.00,VWS V14.01,2013-03-29 10:29:00,
2013-03-29 07:30:00,31.8,30.8,29.03,ESE,112,0.0,0.0,96,0.00,,---,0.00,VWS V14.01,2013-03-29 10:30:00,
2013-03-29 07:31:00,31.8,30.8,29.03,ESE,112,0.0,0.0,96,0.00,,---,0.00,VWS V14.01,2013-03-29 10:31:00,
2013-03-29 07:32:00,31.8,30.8,29.03,ESE,112,0.0,0.0,96,0.00,,---,0.00,VWS V14.01,2013-03-29 10:32:00,
2013-03-29 07:33:00,31.8,30.8,29.03,ESE,112,0.0,0.0,96,0.00,,---,0.00,VWS V14.01,2013-03-29 10:33:00,
2013-03-29 07:34:00,31.8,30.8,29.03,ESE,112,0.0,0.0,96,0.00,,---,0.00,VWS V14.01,2013-03-29 10:34:00,
2013-03-29 07:35:00,31.8,30.8,29.03,ESE,112,0.0,0.0,96,0.00,,---,0.00,VWS V14.01,2013-03-29 10:35:00,
2013-03-29 07:36:00,31.8,30.8,29.03,ESE,112,0.0,0.0,96,0.00,,---,0.00,VWS V14.01,2013-03-29 10:36:00,
2013-03-29 07:37:00,31.8,30.8,29.03,ESE,112,0.0,0.0,96,0.00,,---,0.00,VWS V14.01,2013-03-29 10:37:00,
2013-03-29 07:38:00,31.8,30.8,29.03,ESE,112,0.0,0.0,96,0.00,,---,0.00,VWS V14.01,2013-03-29 10:38:00,
2013-03-29 07:39:00,31.8,30.8,29.03,ESE,112,0.0,0.0,96,0.00,,---,0.00,VWS V14.01,2013-03-29 10:39:00,
2013-03-29 07:40:00,31.8,30.8,29.03,ESE,112,0.0,0.0,96,0.00,,---,0.00,VWS V14.01,2013-03-29 10:40:00,
2013-03-29 07:41:00,31.8,30.8,29.03,ESE,112,0.0,0.0,96,0.00,,---,0.00,VWS V14.01,2013-03-29 10:41:00,
2013-03-29 07:42:00,31.8,30.8,29.03,ESE,112,0.0,0.0,96,0.00,,---,0.00,VWS V14.01,2013-03-29 10:42:00,
2013-03-29 07:43:00,31.8,30.8,29.03,ESE,112,0.0,0.0,96,0.00,,---,0.00,VWS V14.01,2013-03-29 10:43:00,
2013-03-29 07:44:00,31.8,30.8,29.03,ESE,112,0.0,0.0,96,0.00,,---,0.00,VWS V14.01,2013-03-29 10:44:00,
2013-03-29 07:45:00,31.8,30.8,29.03,ESE,112,0.0,0.0,96,0.00,,---,14.72,VWS V14.01,2013-03-29 10:45:00,
2013-03-29 07:46:00,31.8,30.8,29.03,ESE,112,0.0,0.0,96,0.00,,---,14.72,VWS V14.01,2013-03-29 10:46:00,
2013-03-29 07:47:00,31.8,30.8,29.03,ESE,112,1.1,1.1,96,0.00,,---,14.72,VWS V14.01,2013-03-29 10:47:00,
2013-03-29 07:48:00,31.8,30.8,29.03,ESE,112,1.1,1.1,96,0.00,,---,14.72,VWS V14.01,2013-03-29 10:48:00,
2013-03-29 07:49:00,31.8,30.8,29.03,ESE,112,0.0,1.1,96,0.00,,---,14.72,VWS V14.01,2013-03-29 10:49:00,
2013-03-29 07:50:00,31.8,30.8,29.03,ESE,112,0.0,0.0,96,0.00,,---,14.72,VWS V14.01,2013-03-29 10:50:00,
2013-03-29 07:51:00,31.8,30.8,29.03,ESE,112,0.0,0.9,96,0.00,,---,14.72,VWS V14.01,2013-03-29 10:51:00,
2013-03-29 07:52:00,31.8,30.8,29.03,ESE,112,0.0,0.0,96,0.00,,---,14.72,VWS V14.01,2013-03-29 10:52:00,
2013-03-29 07:53:00,31.8,30.8,29.03,ESE,112,0.0,0.0,96,0.00,,---,14.72,VWS V14.01,2013-03-29 10:53:00,
2013-03-29 07:54:00,31.8,30.8,29.03,ESE,112,0.0,0.0,96,0.00,,---,14.72,VWS V14.01,2013-03-29 10:54:00,
2013-03-29 07:55:00,31.6,30.6,29.03,ESE,112,0.0,0.0,96,0.00,,---,14.72,VWS V14.01,2013-03-29 10:55:00,
2013-03-29 07:56:00,31.6,30.6,29.03,ESE,112,0.0,0.0,96,0.00,,---,14.72,VWS V14.01,2013-03-29 10:56:00,
2013-03-29 07:57:00,31.6,30.6,29.03,ESE,112,0.0,0.0,96,0.00,,---,14.72,VWS V14.01,2013-03-29 10:57:00,
2013-03-29 07:58:00,31.6,30.6,29.03,ESE,112,0.0,0.0,96,0.00,,---,14.72,VWS V14.01,2013-03-29 10:58:00,
2013-03-29 07:59:00,31.6,30.6,29.03,ESE,112,0.0,0.0,96,0.00,,---,14.72,VWS V14.01,2013-03-29 10:59:00,
2013-03-29 08:00:00,31.8,30.8,29.03,ESE,112,0.0,0.0,96,0.00,,---,14.72,VWS V14.01,2013-03-29 11:00:00,
2013-03-29 08:01:00,31.8,30.8,29.03,ESE,112,0.0,0.0,96,0.00,,---,14.72,VWS V14.01,2013-03-29 11:01:00,
2013-03-29 08:02:00,31.8,30.8,29.03,ESE,112,0.0,0.0,96,0.00,,---,14.72,VWS V14.01,2013-03-29 11:02:00,
2013-03-29 08:03:00,31.8,30.8,29.03,ESE,112,0.0,0.0,96,0.00,,---,14.72,VWS V14.01,2013-03-29 11:03:00,
2013-03-29 08:04:00,31.8,30.8,29.03,ESE,112,0.0,0.0,96,0.00,,---,14.72,VWS V14.01,2013-03-29 11:04:00,
2013-03-29 08:05:00,31.8,30.8,29.03,ESE,112,0.0,0.0,96,0.00,,---,14.72,VWS V14.01,2013-03-29 11:05:00,
2013-03-29 08:06:00,31.8,30.8,29.03,ESE,112,0.0,0.0,96,0.00,,---,14.72,VWS V14.01,2013-03-29 11:06:00,
2013-03-29 08:07:00,31.8,30.8,29.03,ESE,112,0.0,0.0,96,0.00,,---,14.72,VWS V14.01,2013-03-29 11:07:00,
2013-03-29 08:08:00,31.8,30.8,29.03,ESE,112,0.0,0.0,96,0.00,,---,14.72,VWS V14.01,2013-03-29 11:08:00,
2013-03-29 08:09:00,31.8,30.8,29.03,ESE,112,0.0,0.0,96,0.00,,---,14.72,VWS V14.01,2013-03-29 11:09:00,
2013-03-29 08:10:00,31.8,30.8,29.06,ESE,112,0.0,0.0,96,0.00,,---,14.72,VWS V14.01,2013-03-29 11:10:00,
2013-03-29 08:11:00,31.8,30.8,29.06,ESE,112,0.0,0.0,96,0.00,,---,14.72,VWS V14.01,2013-03-29 11:11:00,
2013-03-29 08:12:00,31.8,30.8,29.06,ESE,112,0.0,0.0,96,0.00,,---,14.72,VWS V14.01,2013-03-29 11:12:00,
2013-03-29 08:13:00,31.8,30.8,29.06,ESE,112,0.0,0.0,96,0.00,,---,14.72,VWS V14.01,2013-03-29 11:13:00,
2013-03-29 08:14:00,31.8,30.8,29.06,ESE,112,0.0,0.0,96,0.00,,---,14.72,VWS V14.01,2013-03-29 11:14:00,
2013-03-29 08:15:00,31.8,30.8,29.06,ESE,112,0.0,0.0,96,0.00,,---,14.72,VWS V14.01,2013-03-29 11:15:00,
2013-03-29 08:16:00,31.8,30.8,29.06,ESE,112,0.0,0.0,96,0.00,,---,14.72,VWS V14.01,2013-03-29 11:16:00,
2013-03-29 08:17:00,31.8,30.8,29.06,ESE,112,0.0,0.0,96,0.00,,---,14.72,VWS V14.01,2013-03-29 11:17:00,
2013-03-29 08:18:00,31.8,30.8,29.06,ESE,112,0.0,0.0,96,0.00,,---,14.72,VWS V14.01,2013-03-29 11:18:00,
2013-03-29 08:19:00,31.8,30.8,29.06,ESE,112,0.0,0.0,96,0.00,,---,14.72,VWS V14.01,2013-03-29 11:19:00,
2013-03-29 08:20:00,31.8,30.8,29.06,ESE,112,0.0,0.0,96,0.00,,---,14.72,VWS V14.01,2013-03-29 11:20:00,
2013-03-29 08:21:00,31.8,30.8,29.06,ESE,112,0.0,0.0,96,0.00,,---,14.72,VWS V14.01,2013-03-29 11:21:00,
2013-03-29 08:22:00,31.8,30.8,29.06,ESE,112,0.0,0.0,96,0.00,,---,14.72,VWS V14.01,2013-03-29 11:22:00,
2013-03-29 08:23:00,31.8,30.8,29.06,ESE,112,0.0,0.0,96,0.00,,---,14.72,VWS V14.01,2013-03-29 11:23:00,
2013-03-29 08:24:00,31.8,30.8,29.06,ESE,112,0.0,0.0,96,0.00,,---,14.72,VWS V14.01,2013-03-29 11:24:00,
2013-03-29 08:25:00,31.8,30.8,29.06,ESE,112,0.0,0.0,96,0.00,,---,14.72,VWS V14.01,2013-03-29 11:25:00,
2013-03-29 08:26:00,31.8,30.8,29.06,ESE,112,0.0,0.0,96,0.00,,---,14.72,VWS V14.01,2013-03-29 11:26:00,
2013-03-29 08:27:00,31.8,30.8,29.06,ESE,112,0.0,0.0,96,0.00,,---,14.72,VWS V14.01,2013-03-29 11:27:00,
2013-03-29 08:28:00,31.8,30.8,29.06,ESE,112,0.0,0.0,96,0.00,,---,14.72,VWS V14.01,2013-03-29 11:28:00,
2013-03-29 08:29:00,31.8,30.8,29.06,ESE,112,0.0,0.0,96,0.00,,---,14.72,VWS V14.01,2013-03-29 11:29:00,
2013-03-29 08:30:00,31.8,30.8,29.06,ESE,112,0.0,0.0,96,0.00,,---,14.72,VWS V14.01,2013-03-29 11:30:00,
2013-03-29 08:31:00,31.8,30.8,29.06,ESE,112,0.0,0.0,96,0.00,,---,14.72,VWS V14.01,2013-03-29 11:31:00,
2013-03-29 08:32:00,31.8,30.8,29.06,ESE,112,0.0,0.0,96,0.00,,---,14.72,VWS V14.01,2013-03-29 11:32:00,
2013-03-29 08:33:00,32.0,31.0,29.06,ESE,112,0.0,0.0,96,0.00,,---,14.72,VWS V14.01,2013-03-29 11:33:00,
2013-03-29 08:34:00,32.0,31.2,29.06,ESE,112,0.0,0.0,97,0.00,,---,14.72,VWS V14.01,2013-03-29 11:34:00,
2013-03-29 08:35:00,32.0,31.2,29.06,ESE,112,0.0,0.0,97,0.00,,---,14.72,VWS V14.01,2013-03-29 11:35:00,
2013-03-29 08:36:00,32.0,31.2,29.06,ESE,112,0.0,0.0,97,0.00,,---,14.72,VWS V14.01,2013-03-29 11:36:00,
2013-03-29 08:37:00,32.0,31.2,29.06,ESE,112,0.0,0.0,97,0.00,,---,14.72,VWS V14.01,2013-03-29 11:37:00,
2013-03-29 08:38:00,32.0,31.2,29.06,ESE,112,0.0,0.0,97,0.00,,---,14.72,VWS V14.01,2013-03-29 11:38:00,
2013-03-29 08:39:00,32.0,31.2,29.06,ESE,112,0.0,0.0,97,0.00,,---,14.72,VWS V14.01,2013-03-29 11:39:00,
2013-03-29 08:40:00,32.0,31.0,29.03,ESE,112,0.0,0.0,96,0.00,,---,14.72,VWS V14.01,2013-03-29 11:40:00,
2013-03-29 08:41:00,32.0,31.2,29.03,ESE,112,0.0,0.0,97,0.00,,---,14.72,VWS V14.01,2013-03-29 11:41:00,
2013-03-29 08:42:00,32.0,31.0,29.03,ESE,112,0.0,0.0,96,0.00,,---,14.72,VWS V14.01,2013-03-29 11:42:00,
2013-03-29 08:43:00,32.2,31.2,29.03,ESE,112,0.0,0.0,96,0.00,,---,14.72,VWS V14.01,2013-03-29 11:43:00,
2013-03-29 08:44:00,32.2,31.2,29.03,ESE,112,0.0,0.0,96,0.00,,---,14.72,VWS V14.01,2013-03-29 11:44:00,
2013-03-29 08:45:00,32.2,31.4,29.03,ESE,112,0.0,0.0,97,0.00,,---,14.72,VWS V14.01,2013-03-29 11:45:00,
2013-03-29 08:46:00,32.2,31.4,29.03,ESE,112,0.0,0.0,97,0.00,,---,14.72,VWS V14.01,2013-03-29 11:46:00,
2013-03-29 08:47:00,32.2,31.4,29.03,ESE,112,0.0,0.0,97,0.00,,---,14.72,VWS V14.01,2013-03-29 11:47:00,
2013-03-29 08:48:00,32.2,31.2,29.03,ESE,112,0.0,0.0,96,0.00,,---,14.72,VWS V14.01,2013-03-29 11:48:00,
2013-03-29 08:49:00,32.2,31.4,29.03,ESE,112,0.0,0.0,97,0.00,,---,14.72,VWS V14.01,2013-03-29 11:49:00,
2013-03-29 08:50:00,32.2,31.4,29.03,ESE,112,0.0,0.0,97,0.00,,---,14.72,VWS V14.01,2013-03-29 11:50:00,
2013-03-29 08:51:00,32.2,31.4,29.03,ESE,112,0.0,0.0,97,0.00,,---,14.72,VWS V14.01,2013-03-29 11:51:00,
2013-03-29 08:52:00,32.4,31.6,29.03,ESE,112,0.0,0.0,97,0.00,,---,14.72,VWS V14.01,2013-03-29 11:52:00,
2013-03-29 08:53:00,32.4,31.6,29.03,ESE,112,0.0,0.0,97,0.00,,---,14.72,VWS V14.01,2013-03-29 11:53:00,
2013-03-29 08:54:00,32.4,31.6,29.03,ESE,112,0.0,0.0,97,0.00,,---,14.72,VWS V14.01,2013-03-29 11:54:00,
2013-03-29 08:55:00,32.5,31.8,29.00,ESE,112,0.0,0.0,97,0.00,,---,14.72,VWS V14.01,2013-03-29 11:55:00,
2013-03-29 08:56:00,32.4,31.6,29.00,ESE,112,0.0,0.0,97,0.00,,---,14.72,VWS V14.01,2013-03-29 11:56:00,
2013-03-29 08:57:00,32.5,31.8,29.00,ESE,112,0.0,0.0,97,0.00,,---,14.72,VWS V14.01,2013-03-29 11:57:00,
2013-03-29 08:58:00,32.5,31.8,29.00,ESE,112,0.0,0.0,97,0.00,,---,14.72,VWS V14.01,2013-03-29 11:58:00,
2013-03-29 08:59:00,32.5,31.8,29.00,ESE,112,0.0,0.0,97,0.00,,---,14.72,VWS V14.01,2013-03-29 11:59:00,
2013-03-29 09:00:00,32.7,32.0,29.00,ESE,112,0.0,0.0,97,0.00,,---,14.72,VWS V14.01,2013-03-29 12:00:00,
2013-03-29 09:01:00,32.5,31.8,29.00,ESE,112,0.0,0.0,97,0.00,,---,14.72,VWS V14.01,2013-03-29 12:01:00,
2013-03-29 09:02:00,32.7,32.0,29.00,ESE,112,0.0,0.0,97,0.00,,---,14.72,VWS V14.01,2013-03-29 12:02:00,
2013-03-29 09:03:00,32.7,32.0,29.00,ESE,112,0.0,0.0,97,0.00,,---,14.72,VWS V14.01,2013-03-29 12:03:00,
2013-03-29 09:04:00,32.7,32.0,29.00,ESE,112,0.0,0.0,97,0.00,,---,14.72,VWS V14.01,2013-03-29 12:04:00,
2013-03-29 09:05:00,32.7,32.0,29.00,ESE,112,0.0,0.0,97,0.00,,---,14.72,VWS V14.01,2013-03-29 12:05:00,
2013-03-29 09:06:00,32.7,32.0,29.00,ESE,112,0.0,0.0,97,0.00,,---,14.72,VWS V14.01,2013-03-29 12:06:00,
2013-03-29 09:07:00,32.7,32.0,29.00,ESE,112,0.0,0.0,97,0.00,,---,14.72,VWS V14.01,2013-03-29 12:07:00,
2013-03-29 09:08:00,32.7,32.0,29.00,ESE,112,0.0,0.0,97,0.00,,---,14.72,VWS V14.01,2013-03-29 12:08:00,
2013-03-29 09:09:00,32.7,32.0,29.00,ESE,112,0.0,0.0,97,0.00,,---,14.72,VWS V14.01,2013-03-29 12:09:00,
2013-03-29 09:10:00,32.9,32.1,29.00,ESE,112,0.0,0.0,97,0.00,,---,14.72,VWS V14.01,2013-03-29 12:10:00,
2013-03-29 09:11:00,32.9,32.1,29.00,ESE,112,0.0,0.0,97,0.00,,---,14.72,VWS V14.01,2013-03-29 12:11:00,
2013-03-29 09:12:00,32.9,32.1,29.00,ESE,112,0.0,0.0,97,0.00,,---,14.72,VWS V14.01,2013-03-29 12:12:00,
2013-03-29 09:13:00,32.9,32.1,29.00,ESE,112,0.0,0.0,97,0.00,,---,14.72,VWS V14.01,2013-03-29 12:13:00,
2013-03-29 09:14:00,32.9,32.1,29.00,ESE,112,0.0,0.0,97,0.00,,---,14.72,VWS V14.01,2013-03-29 12:14:00,
2013-03-29 09:15:00,33.1,32.3,29.00,ESE,112,0.0,0.0,97,0.00,,---,14.72,VWS V14.01,2013-03-29 12:15:00,
2013-03-29 09:16:00,32.9,32.1,29.00,ESE,112,0.0,0.0,97,0.00,,---,14.72,VWS V14.01,2013-03-29 12:16:00,
2013-03-29 09:17:00,33.1,32.3,29.00,ESE,112,0.0,0.0,97,0.00,,---,14.72,VWS V14.01,2013-03-29 12:17:00,
2013-03-29 09:18:00,33.1,32.3,29.00,ESE,112,0.0,0.0,97,0.00,,---,14.72,VWS V14.01,2013-03-29 12:18:00,
2013-03-29 09:19:00,33.1,32.3,29.00,ESE,112,0.0,0.0,97,0.00,,---,14.72,VWS V14.01,2013-03-29 12:19:00,
2013-03-29 09:20:00,33.1,32.3,29.00,ESE,112,0.0,0.0,97,0.00,,---,14.72,VWS V14.01,2013-03-29 12:20:00,
2013-03-29 09:21:00,33.1,32.3,29.00,ESE,112,0.0,0.0,97,0.00,,---,14.72,VWS V14.01,2013-03-29 12:21:00,
2013-03-29 09:22:00,33.1,32.3,29.00,ESE,112,0.0,0.0,97,0.00,,---,14.72,VWS V14.01,2013-03-29 12:22:00,
2013-03-29 09:23:00,33.1,32.3,29.00,ESE,112,0.0,0.0,97,0.00,,---,14.72,VWS V14.01,2013-03-29 12:23:00,
2013-03-29 09:24:00,33.1,32.3,29.00,ESE,112,0.0,0.0,97,0.00,,---,14.72,VWS V14.01,2013-03-29 12:24:00,
2013-03-29 09:25:00,33.3,32.5,29.03,ESE,112,0.0,0.0,97,0.00,,---,14.72,VWS V14.01,2013-03-29 12:25:00,
2013-03-29 09:26:00,33.3,32.5,29.03,ESE,112,0.0,0.0,97,0.00,,---,14.72,VWS V14.01,2013-03-29 12:26:00,
2013-03-29 09:27:00,33.3,32.5,29.03,ESE,112,0.0,0.0,97,0.00,,---,14.72,VWS V14.01,2013-03-29 12:27:00,
2013-03-29 09:28:00,33.3,32.5,29.03,ESE,112,0.0,0.0,97,0.00,,---,14.72,VWS V14.01,2013-03-29 12:28:00,
2013-03-29 09:29:00,33.4,32.7,29.03,ESE,112,0.0,0.0,97,0.00,,---,14.72,VWS V14.01,2013-03-29 12:29:00,
2013-03-29 09:30:00,33.3,32.5,29.03,ESE,112,0.0,0.0,97,0.00,,---,14.72,VWS V14.01,2013-03-29 12:30:00,
2013-03-29 09:31:00,33.4,32.7,29.03,ESE,112,0.0,0.0,97,0.00,,---,14.72,VWS V14.01,2013-03-29 12:31:00,
2013-03-29 09:32:00,33.4,32.7,29.03,ESE,112,0.0,0.0,97,0.00,,---,14.72,VWS V14.01,2013-03-29 12:32:00,
2013-03-29 09:33:00,33.4,32.7,29.03,ESE,112,0.0,0.0,97,0.00,,---,14.72,VWS V14.01,2013-03-29 12:33:00,
2013-03-29 09:34:00,33.6,32.9,29.03,ESE,112,0.0,0.0,97,0.00,,---,14.72,VWS V14.01,2013-03-29 12:34:00,
2013-03-29 09:35:00,33.6,32.9,29.03,ESE,112,0.0,0.0,97,0.00,,---,14.72,VWS V14.01,2013-03-29 12:35:00,
2013-03-29 09:36:00,33.6,32.9,29.03,ESE,112,0.0,0.0,97,0.00,,---,14.72,VWS V14.01,2013-03-29 12:36:00,
2013-03-29 09:37:00,33.6,32.9,29.03,ESE,112,0.0,0.0,97,0.00,,---,14.72,VWS V14.01,2013-03-29 12:37:00,
2013-03-29 09:38:00,33.8,32.8,29.03,ESE,112,0.0,0.0,96,0.00,,---,14.72,VWS V14.01,2013-03-29 12:38:00,
2013-03-29 09:39:00,33.8,32.8,29.03,NW,315,2.2,2.2,96,0.00,,---,14.72,VWS V14.01,2013-03-29 12:39:00,
2013-03-29 09:40:00,33.8,32.8,29.03,ESE,112,0.0,0.0,96,0.00,,---,14.72,VWS V14.01,2013-03-29 12:40:00,
2013-03-29 09:41:00,33.8,32.8,29.03,NW,315,2.2,2.2,96,0.00,,---,14.72,VWS V14.01,2013-03-29 12:41:00,
2013-03-29 09:42:00,33.8,32.8,29.03,NW,315,2.2,2.2,96,0.00,,---,14.72,VWS V14.01,2013-03-29 12:42:00,
2013-03-29 09:43:00,33.8,32.8,29.03,NW,315,2.2,2.2,96,0.00,,---,14.72,VWS V14.01,2013-03-29 12:43:00,
2013-03-29 09:44:00,33.8,32.8,29.03,NW,315,2.2,2.2,96,0.00,,---,14.72,VWS V14.01,2013-03-29 12:44:00,
2013-03-29 09:45:00,33.8,32.8,29.03,NW,315,2.2,2.2,96,0.00,,---,14.72,VWS V14.01,2013-03-29 12:45:00,
2013-03-29 09:46:00,33.8,32.8,29.03,NW,315,2.2,2.2,96,0.00,,---,14.72,VWS V14.01,2013-03-29 12:46:00,
2013-03-29 09:47:00,33.8,32.8,29.03,NW,315,2.2,2.2,96,0.00,,---,14.72,VWS V14.01,2013-03-29 12:47:00,
2013-03-29 09:48:00,34.0,33.0,29.03,NW,315,2.2,2.2,96,0.00,,---,14.72,VWS V14.01,2013-03-29 12:48:00,
2013-03-29 09:49:00,34.0,33.0,29.03,NW,315,2.2,2.2,96,0.00,,---,14.72,VWS V14.01,2013-03-29 12:49:00,
2013-03-29 09:50:00,34.0,33.0,29.03,NW,315,2.2,2.2,96,0.00,,---,14.72,VWS V14.01,2013-03-29 12:50:00,
2013-03-29 09:51:00,34.0,33.0,29.03,NW,315,2.2,2.2,96,0.00,,---,14.72,VWS V14.01,2013-03-29 12:51:00,
2013-03-29 09:52:00,34.0,33.0,29.03,NW,315,2.2,2.2,96,0.00,,---,14.72,VWS V14.01,2013-03-29 12:52:00,
2013-03-29 09:53:00,34.2,33.1,29.03,NW,315,2.2,2.2,96,0.00,,---,14.72,VWS V14.01,2013-03-29 12:53:00,
2013-03-29 09:54:00,34.3,33.3,29.00,NW,315,2.2,2.2,96,0.00,,---,14.72,VWS V14.01,2013-03-29 12:54:00,
2013-03-29 09:55:00,34.2,33.1,29.00,NW,315,2.2,2.2,96,0.00,,---,14.72,VWS V14.01,2013-03-29 12:55:00,
2013-03-29 09:56:00,34.3,33.3,29.00,NW,315,2.2,2.2,96,0.00,,---,14.72,VWS V14.01,2013-03-29 12:56:00,
2013-03-29 09:57:00,34.3,33.3,29.00,NW,315,2.2,2.2,96,0.00,,---,14.72,VWS V14.01,2013-03-29 12:57:00,
2013-03-29 09:58:00,34.3,33.3,29.00,West,270,2.0,2.2,96,0.00,,---,14.72,VWS V14.01,2013-03-29 12:58:00,
2013-03-29 09:59:00,34.3,33.3,29.00,West,270,2.0,2.0,96,0.00,,---,14.72,VWS V14.01,2013-03-29 12:59:00,
2013-03-29 10:00:00,34.3,33.3,29.00,West,270,2.0,2.0,96,0.00,,---,14.72,VWS V14.01,2013-03-29 13:00:00,
2013-03-29 10:01:00,34.3,33.3,29.00,West,270,2.0,2.0,96,0.00,,---,14.72,VWS V14.01,2013-03-29 13:01:00,
2013-03-29 10:02:00,34.3,33.3,29.00,West,270,2.0,2.0,96,0.00,,---,14.72,VWS V14.01,2013-03-29 13:02:00,
2013-03-29 10:03:00,34.5,33.5,29.00,West,270,2.0,2.0,96,0.00,,---,14.72,VWS V14.01,2013-03-29 13:03:00,
2013-03-29 10:04:00,34.5,33.5,29.00,West,270,2.0,2.0,96,0.00,,---,14.72,VWS V14.01,2013-03-29 13:04:00,
2013-03-29 10:05:00,34.5,33.5,29.00,West,270,2.0,2.0,96,0.00,,---,14.72,VWS V14.01,2013-03-29 13:05:00,
2013-03-29 10:06:00,34.5,33.5,29.00,West,270,2.0,2.0,96,0.00,,---,14.72,VWS V14.01,2013-03-29 13:06:00,
2013-03-29 10:07:00,34.5,33.5,29.00,West,270,2.0,2.0,96,0.00,,---,14.72,VWS V14.01,2013-03-29 13:07:00,
2013-03-29 10:08:00,34.5,33.5,29.00,West,270,2.0,2.0,96,0.00,,---,14.72,VWS V14.01,2013-03-29 13:08:00,
2013-03-29 10:09:00,34.7,33.7,29.03,West,270,2.0,2.0,96,0.00,,---,14.72,VWS V14.01,2013-03-29 13:09:00,
2013-03-29 10:10:00,34.5,33.5,29.03,West,270,2.0,2.0,96,0.00,,---,14.72,VWS V14.01,2013-03-29 13:10:00,
2013-03-29 10:11:00,34.7,33.7,29.03,West,270,2.0,2.0,96,0.00,,---,14.72,VWS V14.01,2013-03-29 13:11:00,
2013-03-29 10:12:00,34.7,33.7,29.03,West,270,2.0,2.0,96,0.00,,---,14.72,VWS V14.01,2013-03-29 13:12:00,
2013-03-29 10:13:00,34.9,33.9,29.03,West,270,2.0,2.0,96,0.00,,---,14.72,VWS V14.01,2013-03-29 13:13:00,
2013-03-29 10:14:00,34.9,33.9,29.03,West,270,2.0,2.0,96,0.00,,---,14.72,VWS V14.01,2013-03-29 13:14:00,
2013-03-29 10:15:00,34.9,33.9,29.03,West,270,2.0,2.0,96,0.00,,---,14.72,VWS V14.01,2013-03-29 13:15:00,
2013-03-29 10:16:00,34.9,33.9,29.03,West,270,2.0,2.0,96,0.00,,---,14.72,VWS V14.01,2013-03-29 13:16:00,
2013-03-29 10:17:00,34.9,33.9,29.03,West,270,2.0,2.0,96,0.00,,---,14.72,VWS V14.01,2013-03-29 13:17:00,
2013-03-29 10:18:00,34.9,33.6,29.03,West,270,2.0,2.0,95,0.00,,---,14.72,VWS V14.01,2013-03-29 13:18:00,
2013-03-29 10:19:00,35.1,33.8,29.03,West,270,2.0,2.0,95,0.00,,---,14.72,VWS V14.01,2013-03-29 13:19:00,
2013-03-29 10:20:00,35.1,33.8,29.03,West,270,2.0,2.0,95,0.00,,---,14.72,VWS V14.01,2013-03-29 13:20:00,
2013-03-29 10:21:00,35.1,33.8,29.03,West,270,2.0,2.0,95,0.00,,---,14.72,VWS V14.01,2013-03-29 13:21:00,
2013-03-29 10:22:00,35.2,34.0,29.03,West,270,2.0,2.0,95,0.00,,---,14.72,VWS V14.01,2013-03-29 13:22:00,
2013-03-29 10:23:00,35.2,34.0,29.03,West,270,2.0,2.0,95,0.00,,---,14.72,VWS V14.01,2013-03-29 13:23:00,
2013-03-29 10:24:00,35.4,34.1,29.03,West,270,2.0,2.0,95,0.00,,---,14.72,VWS V14.01,2013-03-29 13:24:00,
2013-03-29 10:25:00,35.2,34.0,29.03,West,270,2.0,2.0,95,0.00,,---,14.72,VWS V14.01,2013-03-29 13:25:00,
2013-03-29 10:26:00,35.4,34.1,29.03,West,270,2.0,2.0,95,0.00,,---,14.72,VWS V14.01,2013-03-29 13:26:00,
2013-03-29 10:27:00,35.4,34.1,29.03,West,270,2.0,2.0,95,0.00,,---,14.72,VWS V14.01,2013-03-29 13:27:00,
2013-03-29 10:28:00,35.6,34.0,29.03,West,270,2.0,2.0,94,0.00,,---,14.72,VWS V14.01,2013-03-29 13:28:00,
2013-03-29 10:29:00,35.8,34.2,29.03,West,270,2.0,2.0,94,0.00,,---,14.72,VWS V14.01,2013-03-29 13:29:00,
2013-03-29 10:30:00,35.8,34.2,29.03,West,270,2.0,2.0,94,0.00,,---,14.72,VWS V14.01,2013-03-29 13:30:00,
2013-03-29 10:31:00,35.8,34.2,29.03,West,270,2.0,2.0,94,0.00,,---,14.72,VWS V14.01,2013-03-29 13:31:00,
2013-03-29 10:32:00,36.0,34.4,29.03,West,270,1.1,2.0,94,0.00,,---,14.72,VWS V14.01,2013-03-29 13:32:00,
2013-03-29 10:33:00,36.0,34.4,29.03,West,270,0.0,1.1,94,0.00,,---,14.72,VWS V14.01,2013-03-29 13:33:00,
2013-03-29 10:34:00,36.7,35.1,29.03,West,270,0.0,0.0,94,0.00,,---,14.72,VWS V14.01,2013-03-29 13:34:00,
2013-03-29 10:35:00,36.3,34.8,29.03,West,270,0.0,0.0,94,0.00,,---,14.72,VWS V14.01,2013-03-29 13:35:00,
2013-03-29 10:36:00,36.5,34.9,29.03,West,270,0.0,0.0,94,0.00,,---,14.72,VWS V14.01,2013-03-29 13:36:00,
2013-03-29 10:37:00,36.9,35.3,29.03,West,270,0.0,0.0,94,0.00,,---,14.72,VWS V14.01,2013-03-29 13:37:00,
2013-03-29 10:38:00,36.9,35.3,29.03,West,270,0.0,0.0,94,0.00,,---,14.72,VWS V14.01,2013-03-29 13:38:00,
2013-03-29 10:39:00,37.0,35.2,29.03,West,270,1.3,1.3,93,0.00,,---,14.72,VWS V14.01,2013-03-29 13:39:00,
2013-03-29 10:40:00,37.0,35.2,29.03,West,270,0.9,0.9,93,0.00,,---,14.72,VWS V14.01,2013-03-29 13:40:00,
2013-03-29 10:41:00,37.0,35.2,29.03,West,270,0.9,0.9,93,0.00,,---,14.72,VWS V14.01,2013-03-29 13:41:00,
2013-03-29 10:42:00,37.0,35.2,29.03,WNW,292,0.9,1.3,93,0.00,,---,14.72,VWS V14.01,2013-03-29 13:42:00,
2013-03-29 10:43:00,37.0,35.2,29.03,West,270,0.9,1.3,93,0.00,,---,14.72,VWS V14.01,2013-03-29 13:43:00,
2013-03-29 10:44:00,37.4,35.3,29.03,WNW,292,0.9,0.9,92,0.00,,---,14.72,VWS V14.01,2013-03-29 13:44:00,
2013-03-29 10:45:00,37.4,35.3,29.03,West,270,0.9,0.9,92,0.00,,---,14.72,VWS V14.01,2013-03-29 13:45:00,
2013-03-29 10:46:00,37.4,35.3,29.03,WNW,292,0.9,0.9,92,0.00,,---,14.72,VWS V14.01,2013-03-29 13:46:00,
2013-03-29 10:47:00,37.6,35.2,29.03,WNW,292,0.9,0.9,91,0.00,,---,14.72,VWS V14.01,2013-03-29 13:47:00,
2013-03-29 10:48:00,37.8,35.4,29.03,WNW,292,0.9,0.9,91,0.00,,---,14.72,VWS V14.01,2013-03-29 13:48:00,
2013-03-29 10:49:00,38.1,35.7,29.03,WNW,292,0.9,0.9,91,0.00,,---,14.72,VWS V14.01,2013-03-29 13:49:00,
2013-03-29 10:50:00,37.9,35.5,29.03,WNW,292,0.9,0.9,91,0.00,,---,14.72,VWS V14.01,2013-03-29 13:50:00,
2013-03-29 10:51:00,38.1,35.7,29.03,WNW,292,0.9,0.9,91,0.00,,---,14.72,VWS V14.01,2013-03-29 13:51:00,
2013-03-29 10:52:00,38.1,35.7,29.03,WNW,292,0.9,0.9,91,0.00,,---,14.72,VWS V14.01,2013-03-29 13:52:00,
2013-03-29 10:53:00,38.1,35.7,29.03,West,270,1.3,1.3,91,0.00,,---,14.72,VWS V14.01,2013-03-29 13:53:00,
2013-03-29 10:54:00,38.1,35.7,29.00,West,270,1.3,1.3,91,0.00,,---,14.72,VWS V14.01,2013-03-29 13:54:00,
2013-03-29 10:55:00,38.1,35.7,29.00,West,270,1.3,1.3,91,0.00,,---,14.72,VWS V14.01,2013-03-29 13:55:00,
2013-03-29 10:56:00,38.1,35.7,29.00,West,270,1.3,1.3,91,0.00,,---,14.72,VWS V14.01,2013-03-29 13:56:00,
2013-03-29 10:57:00,38.1,35.7,29.00,WSW,248,1.1,1.3,91,0.00,,---,14.72,VWS V14.01,2013-03-29 13:57:00,
2013-03-29 10:58:00,38.1,35.7,29.00,West,270,0.0,1.1,91,0.00,,---,14.72,VWS V14.01,2013-03-29 13:58:00,
2013-03-29 10:59:00,39.0,35.8,29.00,West,270,1.3,1.3,88,0.00,,---,14.72,VWS V14.01,2013-03-29 13:59:00,
2013-03-29 11:00:00,39.0,35.8,29.00,West,270,1.3,1.3,88,0.00,,---,14.72,VWS V14.01,2013-03-29 14:00:00,
2013-03-29 11:01:00,39.0,35.8,29.00,West,270,1.3,1.3,88,0.00,,---,14.72,VWS V14.01,2013-03-29 14:01:00,
2013-03-29 11:02:00,39.2,35.7,29.00,West,270,1.3,1.3,87,0.00,,---,14.72,VWS V14.01,2013-03-29 14:02:00,
2013-03-29 11:03:00,39.2,35.7,29.00,West,270,1.3,1.3,87,0.00,,---,14.72,VWS V14.01,2013-03-29 14:03:00,
2013-03-29 11:04:00,39.4,35.0,29.00,West,270,1.3,1.3,84,0.00,,---,14.72,VWS V14.01,2013-03-29 14:04:00,
2013-03-29 11:05:00,39.2,35.1,29.00,West,270,1.3,1.3,85,0.00,,---,14.72,VWS V14.01,2013-03-29 14:05:00,
2013-03-29 11:06:00,39.2,35.1,29.00,West,270,1.3,1.3,85,0.00,,---,14.72,VWS V14.01,2013-03-29 14:06:00,
2013-03-29 11:07:00,39.4,35.0,29.00,West,270,0.9,1.3,84,0.00,,---,14.72,VWS V14.01,2013-03-29 14:07:00,
2013-03-29 11:08:00,39.4,34.7,29.00,NW,315,2.0,2.0,83,0.00,,---,14.72,VWS V14.01,2013-03-29 14:08:00,
2013-03-29 11:09:00,39.4,34.0,29.00,NW,315,2.0,2.0,81,0.00,,---,14.72,VWS V14.01,2013-03-29 14:09:00,
2013-03-29 11:10:00,39.6,34.8,29.00,NW,315,1.3,1.3,83,0.00,,---,14.72,VWS V14.01,2013-03-29 14:10:00,
2013-03-29 11:11:00,39.4,34.3,29.00,NW,315,1.6,1.6,82,0.00,,---,14.72,VWS V14.01,2013-03-29 14:11:00,
2013-03-29 11:12:00,39.4,34.0,29.00,NW,315,1.6,2.0,81,0.00,,---,14.72,VWS V14.01,2013-03-29 14:12:00,
2013-03-29 11:13:00,39.4,33.7,29.00,NW,315,2.0,2.0,80,0.00,,---,14.72,VWS V14.01,2013-03-29 14:13:00,
2013-03-29 11:14:00,39.4,33.1,29.00,NW,315,2.2,2.2,78,0.00,,---,14.72,VWS V14.01,2013-03-29 14:14:00,
2013-03-29 11:15:00,39.4,33.1,29.00,NW,315,1.6,2.0,78,0.00,,---,14.72,VWS V14.01,2013-03-29 14:15:00,
2013-03-29 11:16:00,39.4,33.1,29.00,NW,315,1.6,1.6,78,0.00,,---,14.72,VWS V14.01,2013-03-29 14:16:00,
2013-03-29 11:17:00,39.4,33.1,29.00,NW,315,2.2,2.2,78,0.00,,---,14.72,VWS V14.01,2013-03-29 14:17:00,
2013-03-29 11:18:00,39.4,33.1,29.00,NW,315,1.6,2.2,78,0.00,,---,14.72,VWS V14.01,2013-03-29 14:18:00,
2013-03-29 11:19:00,39.4,33.1,29.00,NW,315,1.3,1.3,78,0.00,,---,14.72,VWS V14.01,2013-03-29 14:19:00,
2013-03-29 11:20:00,39.4,33.1,29.00,NW,315,1.3,1.3,78,0.00,,---,14.72,VWS V14.01,2013-03-29 14:20:00,
2013-03-29 11:21:00,39.4,33.1,29.00,NW,315,1.3,1.3,78,0.00,,---,14.72,VWS V14.01,2013-03-29 14:21:00,
2013-03-29 11:22:00,39.4,33.1,29.00,NW,315,1.3,1.3,78,0.00,,---,14.72,VWS V14.01,2013-03-29 14:22:00,
2013-03-29 11:23:00,39.4,33.1,29.00,NW,315,1.3,1.3,78,0.00,,---,14.72,VWS V14.01,2013-03-29 14:23:00,
2013-03-29 11:24:00,39.9,33.6,29.03,WNW,292,1.1,1.1,78,0.00,,---,14.72,VWS V14.01,2013-03-29 14:24:00,
2013-03-29 11:25:00,39.7,33.5,29.03,WNW,292,1.1,1.6,78,0.00,,---,14.72,VWS V14.01,2013-03-29 14:25:00,
2013-03-29 11:26:00,39.9,33.6,29.03,WNW,292,1.1,1.1,78,0.00,,---,14.72,VWS V14.01,2013-03-29 14:26:00,
2013-03-29 11:27:00,39.9,33.6,29.03,WNW,292,1.1,1.1,78,0.00,,---,14.72,VWS V14.01,2013-03-29 14:27:00,
2013-03-29 11:28:00,39.9,33.6,29.03,WNW,292,1.1,1.1,78,0.00,,---,14.72,VWS V14.01,2013-03-29 14:28:00,
2013-03-29 11:29:00,40.3,34.0,29.03,NW,315,0.0,0.0,78,0.00,,---,14.72,VWS V14.01,2013-03-29 14:29:00,
2013-03-29 11:30:00,40.1,33.5,29.03,NW,315,0.0,0.0,77,0.00,,---,14.72,VWS V14.01,2013-03-29 14:30:00,
2013-03-29 11:31:00,40.3,34.0,29.03,West,270,0.0,0.0,78,0.00,,---,14.72,VWS V14.01,2013-03-29 14:31:00,
2013-03-29 11:32:00,40.3,34.0,29.03,NW,315,0.0,0.0,78,0.00,,---,14.72,VWS V14.01,2013-03-29 14:32:00,
2013-03-29 11:33:00,40.3,34.0,29.03,NW,315,0.0,0.0,78,0.00,,---,14.72,VWS V14.01,2013-03-29 14:33:00,
2013-03-29 11:34:00,40.3,33.7,29.03,West,270,0.9,0.9,77,0.00,,---,14.72,VWS V14.01,2013-03-29 14:34:00,
2013-03-29 11:35:00,40.1,33.5,29.03,West,270,1.3,1.3,77,0.00,,---,14.72,VWS V14.01,2013-03-29 14:35:00,
2013-03-29 11:36:00,40.3,33.7,29.03,West,270,0.9,1.3,77,0.00,,---,14.72,VWS V14.01,2013-03-29 14:36:00,
2013-03-29 11:37:00,40.3,33.7,29.03,SW,225,0.0,0.9,77,0.00,,---,14.72,VWS V14.01,2013-03-29 14:37:00,
2013-03-29 11:38:00,40.5,33.8,29.03,SW,225,0.0,0.0,77,0.00,,---,14.72,VWS V14.01,2013-03-29 14:38:00,
2013-03-29 11:39:00,40.5,33.5,29.00,South,180,0.0,0.0,76,0.00,,---,14.72,VWS V14.01,2013-03-29 14:39:00,
2013-03-29 11:40:00,40.5,33.5,29.00,SW,225,0.0,0.9,76,0.00,,---,14.72,VWS V14.01,2013-03-29 14:40:00,
2013-03-29 11:41:00,40.5,33.5,29.00,SW,225,0.0,0.0,76,0.00,,---,14.72,VWS V14.01,2013-03-29 14:41:00,
2013-03-29 11:42:00,40.5,33.5,29.00,South,180,0.0,0.0,76,0.00,,---,14.72,VWS V14.01,2013-03-29 14:42:00,
2013-03-29 11:43:00,40.5,33.5,29.00,South,180,0.0,0.0,76,0.00,,---,14.72,VWS V14.01,2013-03-29 14:43:00,
2013-03-29 11:44:00,40.5,33.5,29.00,SE,135,0.0,0.0,76,0.00,,---,14.72,VWS V14.01,2013-03-29 14:44:00,
2013-03-29 11:45:00,40.5,33.5,29.00,SE,135,0.0,0.0,76,0.00,,---,14.72,VWS V14.01,2013-03-29 14:45:00,
2013-03-29 11:46:00,40.5,33.5,29.00,SE,135,0.0,0.0,76,0.00,,---,14.72,VWS V14.01,2013-03-29 14:46:00,
2013-03-29 11:47:00,41.2,33.9,29.00,SE,135,0.0,0.0,75,0.00,,---,14.72,VWS V14.01,2013-03-29 14:47:00,
2013-03-29 11:48:00,41.2,33.9,29.00,SW,225,1.3,1.3,75,0.00,,---,14.72,VWS V14.01,2013-03-29 14:48:00,
2013-03-29 11:49:00,40.6,33.3,29.00,SW,225,1.3,1.3,75,0.00,,---,14.72,VWS V14.01,2013-03-29 14:49:00,
2013-03-29 11:50:00,41.2,33.9,29.00,SW,225,1.3,1.3,75,0.00,,---,14.72,VWS V14.01,2013-03-29 14:50:00,
2013-03-29 11:51:00,41.2,33.9,29.00,SW,225,1.3,1.3,75,0.00,,---,14.72,VWS V14.01,2013-03-29 14:51:00,
2013-03-29 11:52:00,40.6,33.3,29.00,SW,225,1.3,1.3,75,0.00,,---,14.72,VWS V14.01,2013-03-29 14:52:00,
2013-03-29 11:53:00,40.6,33.3,29.00,SW,225,1.3,1.3,75,0.00,,---,14.72,VWS V14.01,2013-03-29 14:53:00,
2013-03-29 11:54:00,40.6,33.3,29.00,West,270,0.0,0.0,75,0.00,,---,14.72,VWS V14.01,2013-03-29 14:54:00,
2013-03-29 11:55:00,40.5,33.2,29.00,West,270,1.1,1.3,75,0.00,,---,14.72,VWS V14.01,2013-03-29 14:55:00,
2013-03-29 11:56:00,40.6,33.3,29.00,West,270,0.0,1.1,75,0.00,,---,14.72,VWS V14.01,2013-03-29 14:56:00,
2013-03-29 11:57:00,40.6,33.3,29.00,West,270,0.0,0.0,75,0.00,,---,14.72,VWS V14.01,2013-03-29 14:57:00,
2013-03-29 11:58:00,40.8,33.5,29.00,SW,225,0.0,0.0,75,0.00,,---,14.72,VWS V14.01,2013-03-29 14:58:00,
2013-03-29 11:59:00,41.2,33.5,29.00,West,270,2.2,2.2,74,0.00,,---,14.72,VWS V14.01,2013-03-29 14:59:00,
2013-03-29 12:00:00,41.2,33.9,29.00,West,270,1.3,1.3,75,0.00,,---,14.72,VWS V14.01,2013-03-29 15:00:00,
2013-03-29 12:01:00,41.2,33.5,29.00,West,270,2.0,2.0,74,0.00,,---,14.72,VWS V14.01,2013-03-29 15:01:00,
2013-03-29 12:02:00,41.2,33.2,29.00,West,270,1.3,2.2,73,0.00,,---,14.72,VWS V14.01,2013-03-29 15:02:00,
2013-03-29 12:03:00,41.4,33.4,29.00,West,270,1.3,1.3,73,0.00,,---,14.72,VWS V14.01,2013-03-29 15:03:00,
2013-03-29 12:04:00,41.5,33.5,29.00,West,270,0.9,1.3,73,0.00,,---,14.72,VWS V14.01,2013-03-29 15:04:00,
2013-03-29 12:05:00,41.4,33.4,29.00,SW,225,1.1,1.3,73,0.00,,---,14.72,VWS V14.01,2013-03-29 15:05:00,
2013-03-29 12:06:00,41.5,33.5,29.00,West,270,1.3,1.3,73,0.00,,---,14.72,VWS V14.01,2013-03-29 15:06:00,
2013-03-29 12:07:00,41.5,33.5,29.00,West,270,1.3,1.3,73,0.00,,---,14.72,VWS V14.01,2013-03-29 15:07:00,
2013-03-29 12:08:00,41.5,33.5,29.00,West,270,1.3,1.3,73,0.00,,---,14.72,VWS V14.01,2013-03-29 15:08:00,
2013-03-29 12:09:00,41.5,33.5,29.00,NNW,338,0.0,0.9,73,0.00,,---,14.72,VWS V14.01,2013-03-29 15:09:00,
2013-03-29 12:10:00,41.5,33.5,29.00,SW,225,0.0,1.3,73,0.00,,---,14.72,VWS V14.01,2013-03-29 15:10:00,
2013-03-29 12:11:00,41.5,33.5,29.00,NNE,22,0.9,1.1,73,0.00,,---,14.72,VWS V14.01,2013-03-29 15:11:00,
2013-03-29 12:12:00,41.5,33.5,29.00,NW,315,0.0,0.9,73,0.00,,---,14.72,VWS V14.01,2013-03-29 15:12:00,
2013-03-29 12:13:00,41.5,33.5,29.00,WNW,292,1.3,1.3,73,0.00,,---,14.72,VWS V14.01,2013-03-29 15:13:00,
2013-03-29 12:14:00,41.5,33.5,29.00,NW,315,1.3,1.6,73,0.00,,---,14.72,VWS V14.01,2013-03-29 15:14:00,
2013-03-29 12:15:00,41.5,33.5,29.00,WNW,292,1.3,1.6,73,0.00,,---,14.72,VWS V14.01,2013-03-29 15:15:00,
2013-03-29 12:16:00,41.5,33.5,29.00,West,270,1.6,1.6,73,0.00,,---,14.72,VWS V14.01,2013-03-29 15:16:00,
2013-03-29 12:17:00,41.5,33.5,29.00,WNW,292,1.6,2.0,73,0.00,,---,14.72,VWS V14.01,2013-03-29 15:17:00,
2013-03-29 12:18:00,43.0,33.5,29.00,WNW,292,1.1,1.6,69,0.00,,---,14.72,VWS V14.01,2013-03-29 15:18:00,
2013-03-29 12:19:00,43.7,34.6,29.00,NW,315,2.0,2.0,70,0.00,,---,14.72,VWS V14.01,2013-03-29 15:19:00,
2013-03-29 12:20:00,43.5,34.4,29.00,NW,315,1.6,1.6,70,0.00,,---,14.72,VWS V14.01,2013-03-29 15:20:00,
2013-03-29 12:21:00,43.5,34.4,29.00,North,0,0.0,1.6,70,0.00,,---,14.72,VWS V14.01,2013-03-29 15:21:00,
2013-03-29 12:22:00,43.7,34.6,29.00,NW,315,2.0,2.0,70,0.00,,---,14.72,VWS V14.01,2013-03-29 15:22:00,
2013-03-29 12:23:00,43.7,34.2,29.00,WNW,292,2.0,2.2,69,0.00,,---,14.72,VWS V14.01,2013-03-29 15:23:00,
2013-03-29 12:24:00,44.8,34.1,29.03,SW,225,0.0,0.0,66,0.00,,---,14.72,VWS V14.01,2013-03-29 15:24:00,
2013-03-29 12:25:00,43.7,33.5,29.03,NW,315,1.1,2.2,67,0.00,,---,14.72,VWS V14.01,2013-03-29 15:25:00,
2013-03-29 12:26:00,44.2,34.0,29.03,SW,225,0.0,1.1,67,0.00,,---,14.72,VWS V14.01,2013-03-29 15:26:00,
2013-03-29 12:27:00,44.8,34.1,29.03,SW,225,0.0,0.0,66,0.00,,---,14.72,VWS V14.01,2013-03-29 15:27:00,
2013-03-29 12:28:00,45.3,34.7,29.03,SW,225,0.0,0.0,66,0.00,,---,14.72,VWS V14.01,2013-03-29 15:28:00,
2013-03-29 12:29:00,45.9,35.2,29.03,NE,45,1.1,2.2,66,0.00,,---,14.72,VWS V14.01,2013-03-29 15:29:00,
2013-03-29 12:30:00,46.0,35.3,29.03,NW,315,2.0,2.0,66,0.00,,---,14.72,VWS V14.01,2013-03-29 15:30:00,
2013-03-29 12:31:00,45.9,35.2,29.03,NW,315,2.2,2.2,66,0.00,,---,14.72,VWS V14.01,2013-03-29 15:31:00,
2013-03-29 12:32:00,45.9,34.8,29.03,NE,45,0.0,2.2,65,0.00,,---,14.72,VWS V14.01,2013-03-29 15:32:00,
2013-03-29 12:33:00,45.9,34.8,29.03,NE,45,0.0,0.0,65,0.00,,---,14.72,VWS V14.01,2013-03-29 15:33:00,
2013-03-29 12:34:00,45.9,34.8,29.03,NW,315,1.6,2.2,65,0.00,,---,14.72,VWS V14.01,2013-03-29 15:34:00,
2013-03-29 12:35:00,45.9,34.8,29.03,West,270,1.1,1.6,65,0.00,,---,14.72,VWS V14.01,2013-03-29 15:35:00,
2013-03-29 12:36:00,45.9,34.8,29.03,WNW,292,2.0,2.0,65,0.00,,---,14.72,VWS V14.01,2013-03-29 15:36:00,
2013-03-29 12:37:00,45.9,34.8,29.03,NW,315,2.0,2.2,65,0.00,,---,14.72,VWS V14.01,2013-03-29 15:37:00,
2013-03-29 12:38:00,45.9,34.8,29.03,South,180,2.0,2.0,65,0.00,,---,14.72,VWS V14.01,2013-03-29 15:38:00,
2013-03-29 12:39:00,45.9,34.8,29.03,NNW,338,2.7,2.7,65,0.00,,---,14.72,VWS V14.01,2013-03-29 15:39:00,
2013-03-29 12:40:00,45.9,34.8,29.03,NNW,338,2.5,2.5,65,0.00,,---,14.72,VWS V14.01,2013-03-29 15:40:00,
2013-03-29 12:41:00,45.9,34.8,29.03,NW,315,1.6,2.5,65,0.00,,---,14.72,VWS V14.01,2013-03-29 15:41:00,
2013-03-29 12:42:00,45.9,34.8,29.03,West,270,1.3,2.7,65,0.00,,---,14.72,VWS V14.01,2013-03-29 15:42:00,
2013-03-29 12:43:00,45.9,34.8,29.03,NW,315,2.2,2.2,65,0.00,,---,14.72,VWS V14.01,2013-03-29 15:43:00,
2013-03-29 12:44:00,47.8,33.4,29.03,North,0,2.5,2.9,57,0.00,,---,14.72,VWS V14.01,2013-03-29 15:44:00,
2013-03-29 12:45:00,47.5,33.5,29.03,NW,315,2.5,2.5,58,0.00,,---,14.72,VWS V14.01,2013-03-29 15:45:00,
2013-03-29 12:46:00,47.8,33.4,29.03,WSW,248,2.0,2.5,57,0.00,,---,14.72,VWS V14.01,2013-03-29 15:46:00,
2013-03-29 12:47:00,47.8,33.4,29.03,North,0,2.5,2.9,57,0.00,,---,14.72,VWS V14.01,2013-03-29 15:47:00,
2013-03-29 12:48:00,47.7,32.8,29.03,NW,315,2.5,3.6,56,0.00,,---,14.72,VWS V14.01,2013-03-29 15:48:00,
2013-03-29 12:49:00,48.0,33.1,29.03,NW,315,3.1,3.1,56,0.00,,---,14.72,VWS V14.01,2013-03-29 15:49:00,
2013-03-29 12:50:00,47.7,32.3,29.03,NW,315,2.0,2.2,55,0.00,,---,14.72,VWS V14.01,2013-03-29 15:50:00,
2013-03-29 12:51:00,47.7,32.3,29.03,West,270,1.1,2.5,55,0.00,,---,14.72,VWS V14.01,2013-03-29 15:51:00,
2013-03-29 12:52:00,48.0,33.1,29.03,NNW,338,3.6,3.6,56,0.00,,---,14.72,VWS V14.01,2013-03-29 15:52:00,
2013-03-29 12:53:00,47.8,32.0,29.03,NNW,338,2.7,3.6,54,0.00,,---,14.72,VWS V14.01,2013-03-29 15:53:00,
2013-03-29 12:54:00,48.0,31.7,29.03,NW,315,2.0,2.7,53,0.00,,---,14.72,VWS V14.01,2013-03-29 15:54:00,
2013-03-29 12:55:00,47.8,32.0,29.03,North,0,4.0,4.0,54,0.00,,---,14.72,VWS V14.01,2013-03-29 15:55:00,
2013-03-29 12:56:00,48.0,32.2,29.03,NNW,338,2.7,4.0,54,0.00,,---,14.72,VWS V14.01,2013-03-29 15:56:00,
2013-03-29 12:57:00,48.0,31.7,29.03,NW,315,2.0,2.7,53,0.00,,---,14.72,VWS V14.01,2013-03-29 15:57:00,
2013-03-29 12:58:00,47.8,31.5,29.03,West,270,3.1,3.1,53,0.00,,---,14.72,VWS V14.01,2013-03-29 15:58:00,
2013-03-29 12:59:00,47.8,31.5,29.03,North,0,0.9,2.2,53,0.00,,---,14.72,VWS V14.01,2013-03-29 15:59:00,
2013-03-29 13:00:00,47.8,31.5,29.03,SW,225,1.1,1.3,53,0.00,,---,14.72,VWS V14.01,2013-03-29 16:00:00,
2013-03-29 13:01:00,47.8,31.5,29.03,West,270,2.2,3.8,53,0.00,,---,14.72,VWS V14.01,2013-03-29 16:01:00,
2013-03-29 13:02:00,47.8,31.5,29.03,NW,315,0.0,2.2,53,0.00,,---,14.72,VWS V14.01,2013-03-29 16:02:00,
2013-03-29 13:03:00,47.8,31.5,29.03,NW,315,0.0,0.0,53,0.00,,---,14.72,VWS V14.01,2013-03-29 16:03:00,
2013-03-29 13:04:00,49.6,32.8,29.03,West,270,1.6,1.6,52,0.00,,---,14.72,VWS V14.01,2013-03-29 16:04:00,
2013-03-29 13:05:00,47.8,31.5,29.03,NW,315,2.2,2.5,53,0.00,,---,14.72,VWS V14.01,2013-03-29 16:05:00,
2013-03-29 13:06:00,47.8,31.5,29.03,NNW,338,1.3,2.2,53,0.00,,---,14.72,VWS V14.01,2013-03-29 16:06:00,
2013-03-29 13:07:00,49.6,32.8,29.03,West,270,1.3,1.6,52,0.00,,---,14.72,VWS V14.01,2013-03-29 16:07:00,
2013-03-29 13:08:00,49.6,32.8,29.03,SW,225,1.3,2.5,52,0.00,,---,14.72,VWS V14.01,2013-03-29 16:08:00,
2013-03-29 13:09:00,51.1,33.1,29.06,NNW,338,3.8,4.3,50,0.00,,---,14.72,VWS V14.01,2013-03-29 16:09:00,
2013-03-29 13:10:00,51.3,34.2,29.06,South,180,0.9,1.6,52,0.00,,---,14.72,VWS V14.01,2013-03-29 16:10:00,
2013-03-29 13:11:00,51.8,34.8,29.06,North,0,2.0,2.0,52,0.00,,---,14.72,VWS V14.01,2013-03-29 16:11:00,
2013-03-29 13:12:00,51.1,33.1,29.06,NNW,338,3.8,4.3,50,0.00,,---,14.72,VWS V14.01,2013-03-29 16:12:00,
2013-03-29 13:13:00,50.9,32.4,29.06,NNW,338,3.8,3.8,49,0.00,,---,14.72,VWS V14.01,2013-03-29 16:13:00,
2013-03-29 13:14:00,49.5,30.1,29.06,NNW,338,3.8,5.4,47,0.00,,---,14.72,VWS V14.01,2013-03-29 16:14:00,
2013-03-29 13:15:00,50.2,30.8,29.06,NW,315,4.3,4.3,47,0.00,,---,14.72,VWS V14.01,2013-03-29 16:15:00,
2013-03-29 13:16:00,49.5,30.1,29.06,NW,315,5.4,5.4,47,0.00,,---,14.72,VWS V14.01,2013-03-29 16:16:00,
2013-03-29 13:17:00,49.3,29.9,29.06,NNW,338,3.8,5.4,47,0.00,,---,14.72,VWS V14.01,2013-03-29 16:17:00,
2013-03-29 13:18:00,49.1,29.8,29.06,NW,315,5.6,5.6,47,0.00,,---,14.72,VWS V14.01,2013-03-29 16:18:00,
2013-03-29 13:19:00,49.5,30.1,29.06,North,0,3.8,4.0,47,0.00,,---,14.72,VWS V14.01,2013-03-29 16:19:00,
2013-03-29 13:20:00,49.1,29.8,29.06,West,270,5.8,5.8,47,0.00,,---,14.72,VWS V14.01,2013-03-29 16:20:00,
2013-03-29 13:21:00,49.3,29.9,29.06,WNW,292,4.0,5.8,47,0.00,,---,14.72,VWS V14.01,2013-03-29 16:21:00,
2013-03-29 13:22:00,49.5,30.1,29.06,North,0,6.5,6.5,47,0.00,,---,14.72,VWS V14.01,2013-03-29 16:22:00,
2013-03-29 13:23:00,49.5,30.1,29.06,NW,315,5.4,6.5,47,0.00,,---,14.72,VWS V14.01,2013-03-29 16:23:00,
2013-03-29 13:24:00,49.1,29.8,29.00,SW,225,2.5,3.6,47,0.00,,---,14.72,VWS V14.01,2013-03-29 16:24:00,
2013-03-29 13:25:00,49.1,29.8,29.00,WSW,248,2.9,4.3,47,0.00,,---,14.72,VWS V14.01,2013-03-29 16:25:00,
2013-03-29 13:26:00,49.1,29.8,29.00,NW,315,3.6,3.6,47,0.00,,---,14.72,VWS V14.01,2013-03-29 16:26:00,
2013-03-29 13:27:00,49.1,29.8,29.00,South,180,4.3,4.3,47,0.00,,---,14.72,VWS V14.01,2013-03-29 16:27:00,
2013-03-29 13:28:00,49.1,29.8,29.00,WSW,248,4.9,4.9,47,0.00,,---,14.72,VWS V14.01,2013-03-29 16:28:00,
2013-03-29 13:29:00,49.1,29.8,29.00,West,270,5.6,5.8,47,0.00,,---,14.72,VWS V14.01,2013-03-29 16:29:00,
2013-03-29 13:30:00,49.1,29.8,29.00,NW,315,5.4,8.5,47,0.00,,---,14.72,VWS V14.01,2013-03-29 16:30:00,
2013-03-29 13:31:00,49.1,29.8,29.00,WNW,292,5.8,6.0,47,0.00,,---,14.72,VWS V14.01,2013-03-29 16:31:00,
2013-03-29 13:32:00,49.1,29.8,29.00,SW,225,11.0,11.0,47,0.00,,---,14.72,VWS V14.01,2013-03-29 16:32:00,
2013-03-29 13:33:00,48.0,27.7,29.00,West,270,10.1,13.2,45,0.00,,---,14.72,VWS V14.01,2013-03-29 16:33:00,
2013-03-29 13:34:00,48.2,27.9,29.00,West,270,3.8,7.8,45,0.00,,---,14.72,VWS V14.01,2013-03-29 16:34:00,
2013-03-29 13:35:00,48.0,27.7,29.00,West,270,8.1,8.1,45,0.00,,---,14.72,VWS V14.01,2013-03-29 16:35:00,
2013-03-29 13:36:00,48.2,27.3,29.00,SW,225,7.8,8.1,44,0.00,,---,14.72,VWS V14.01,2013-03-29 16:36:00,
2013-03-29 13:37:00,48.2,27.9,29.00,West,270,3.8,7.8,45,0.00,,---,14.72,VWS V14.01,2013-03-29 16:37:00,
2013-03-29 13:38:00,48.4,28.6,29.00,NNW,338,5.4,5.4,46,0.00,,---,14.72,VWS V14.01,2013-03-29 16:38:00,
2013-03-29 13:39:00,48.0,27.2,29.03,West,270,4.9,5.4,44,0.00,,---,14.72,VWS V14.01,2013-03-29 16:39:00,
2013-03-29 13:40:00,48.0,27.2,29.03,West,270,6.5,6.5,44,0.00,,---,14.72,VWS V14.01,2013-03-29 16:40:00,
2013-03-29 13:41:00,48.0,27.2,29.03,NW,315,5.4,7.6,44,0.00,,---,14.72,VWS V14.01,2013-03-29 16:41:00,
2013-03-29 13:42:00,48.0,27.2,29.03,WNW,292,5.8,5.8,44,0.00,,---,14.72,VWS V14.01,2013-03-29 16:42:00,
2013-03-29 13:43:00,48.2,27.9,29.03,NW,315,5.6,5.8,45,0.00,,---,14.72,VWS V14.01,2013-03-29 16:43:00,
2013-03-29 13:44:00,47.8,27.0,29.03,North,0,5.6,8.7,44,0.00,,---,14.72,VWS V14.01,2013-03-29 16:44:00,
2013-03-29 13:45:00,48.0,28.2,29.03,NW,315,7.2,7.2,46,0.00,,---,14.72,VWS V14.01,2013-03-29 16:45:00,
2013-03-29 13:46:00,47.8,27.0,29.03,North,0,8.7,8.7,44,0.00,,---,14.72,VWS V14.01,2013-03-29 16:46:00,
2013-03-29 13:47:00,47.7,26.8,29.03,NNW,338,5.4,8.7,44,0.00,,---,14.72,VWS V14.01,2013-03-29 16:47:00,
2013-03-29 13:48:00,47.8,27.5,29.03,NW,315,5.6,5.6,45,0.00,,---,14.72,VWS V14.01,2013-03-29 16:48:00,
2013-03-29 13:49:00,48.4,28.0,29.03,West,270,4.0,5.4,45,0.00,,---,14.72,VWS V14.01,2013-03-29 16:49:00,
2013-03-29 13:50:00,48.4,28.0,29.03,West,270,2.2,4.0,45,0.00,,---,14.72,VWS V14.01,2013-03-29 16:50:00,
2013-03-29 13:51:00,48.6,28.7,29.03,NW,315,4.9,4.9,46,0.00,,---,14.72,VWS V14.01,2013-03-29 16:51:00,
2013-03-29 13:52:00,48.4,28.0,29.03,West,270,4.0,5.4,45,0.00,,---,14.72,VWS V14.01,2013-03-29 16:52:00,
2013-03-29 13:53:00,48.4,28.0,29.03,WNW,292,6.0,6.5,45,0.00,,---,14.72,VWS V14.01,2013-03-29 16:53:00,
2013-03-29 13:54:00,48.4,28.0,29.00,NW,315,5.8,5.8,45,0.00,,---,14.72,VWS V14.01,2013-03-29 16:54:00,
2013-03-29 13:55:00,48.4,28.0,29.00,West,270,2.7,6.5,45,0.00,,---,14.72,VWS V14.01,2013-03-29 16:55:00,
2013-03-29 13:56:00,48.4,28.0,29.00,WNW,292,5.4,5.4,45,0.00,,---,14.72,VWS V14.01,2013-03-29 16:56:00,
2013-03-29 13:57:00,48.4,28.0,29.00,West,270,8.5,8.5,45,0.00,,---,14.72,VWS V14.01,2013-03-29 16:57:00,
2013-03-29 13:58:00,48.4,28.0,29.00,NW,315,4.7,8.5,45,0.00,,---,14.72,VWS V14.01,2013-03-29 16:58:00,
2013-03-29 13:59:00,47.7,27.4,29.00,WNW,292,3.8,3.8,45,0.00,,---,14.72,VWS V14.01,2013-03-29 16:59:00,
2013-03-29 14:00:00,48.4,28.0,29.00,NW,315,4.7,4.7,45,0.00,,---,14.72,VWS V14.01,2013-03-29 17:00:00,
2013-03-29 14:01:00,47.7,27.4,29.00,WNW,292,3.8,4.7,45,0.00,,---,14.72,VWS V14.01,2013-03-29 17:01:00,
2013-03-29 14:02:00,47.8,27.5,29.00,NW,315,3.6,3.8,45,0.00,,---,14.72,VWS V14.01,2013-03-29 17:02:00,
2013-03-29 14:03:00,47.8,27.5,29.00,SW,225,4.9,4.9,45,0.00,,---,14.72,VWS V14.01,2013-03-29 17:03:00,
2013-03-29 14:04:00,48.0,28.2,29.00,West,270,4.5,4.5,46,0.00,,---,14.72,VWS V14.01,2013-03-29 17:04:00,
2013-03-29 14:05:00,47.8,28.1,29.00,West,270,2.5,5.6,46,0.00,,---,14.72,VWS V14.01,2013-03-29 17:05:00,
2013-03-29 14:06:00,47.8,28.1,29.00,West,270,3.6,4.5,46,0.00,,---,14.72,VWS V14.01,2013-03-29 17:06:00,
2013-03-29 14:07:00,48.0,28.2,29.00,WNW,292,3.4,4.5,46,0.00,,---,14.72,VWS V14.01,2013-03-29 17:07:00,
2013-03-29 14:08:00,48.0,28.2,29.00,NW,315,3.1,3.4,46,0.00,,---,14.72,VWS V14.01,2013-03-29 17:08:00,
2013-03-29 14:09:00,48.7,27.8,29.00,SW,225,5.8,5.8,44,0.00,,---,14.72,VWS V14.01,2013-03-29 17:09:00,
2013-03-29 14:10:00,48.4,27.5,29.00,NW,315,5.4,8.7,44,0.00,,---,14.72,VWS V14.01,2013-03-29 17:10:00,
2013-03-29 14:11:00,48.7,27.8,29.00,West,270,5.6,5.6,44,0.00,,---,14.72,VWS V14.01,2013-03-29 17:11:00,
2013-03-29 14:12:00,49.3,28.9,29.00,West,270,6.0,6.3,45,0.00,,---,14.72,VWS V14.01,2013-03-29 17:12:00,
2013-03-29 14:13:00,49.6,28.6,29.00,NW,315,4.3,6.0,44,0.00,,---,14.72,VWS V14.01,2013-03-29 17:13:00,
2013-03-29 14:14:00,49.6,28.1,29.00,WNW,292,4.3,6.3,43,0.00,,---,14.72,VWS V14.01,2013-03-29 17:14:00,
2013-03-29 14:15:00,49.6,27.5,29.00,WNW,292,6.9,6.9,42,0.00,,---,14.72,VWS V14.01,2013-03-29 17:15:00,
2013-03-29 14:16:00,49.6,27.5,29.00,West,270,6.3,6.9,42,0.00,,---,14.72,VWS V14.01,2013-03-29 17:16:00,
2013-03-29 14:17:00,50.0,28.4,29.00,NW,315,4.3,6.3,43,0.00,,---,14.72,VWS V14.01,2013-03-29 17:17:00,
2013-03-29 14:18:00,49.6,28.1,29.00,NW,315,4.3,6.3,43,0.00,,---,14.72,VWS V14.01,2013-03-29 17:18:00,
2013-03-29 14:19:00,49.6,28.1,29.00,NW,315,3.4,3.6,43,0.00,,---,14.72,VWS V14.01,2013-03-29 17:19:00,
2013-03-29 14:20:00,49.6,28.1,29.00,NNW,338,5.8,10.5,43,0.00,,---,14.72,VWS V14.01,2013-03-29 17:20:00,
2013-03-29 14:21:00,49.6,28.1,29.00,NNW,338,3.6,5.8,43,0.00,,---,14.72,VWS V14.01,2013-03-29 17:21:00,
2013-03-29 14:22:00,49.6,28.1,29.00,NW,315,8.1,8.1,43,0.00,,---,14.72,VWS V14.01,2013-03-29 17:22:00,
2013-03-29 14:23:00,49.6,28.1,29.00,NW,315,7.8,12.5,43,0.00,,---,14.72,VWS V14.01,2013-03-29 17:23:00,
2013-03-29 14:24:00,49.6,28.1,29.00,West,270,5.4,9.6,43,0.00,,---,14.72,VWS V14.01,2013-03-29 17:24:00,
2013-03-29 14:25:00,49.6,28.1,29.00,West,270,10.7,10.7,43,0.00,,---,14.72,VWS V14.01,2013-03-29 17:25:00,
2013-03-29 14:26:00,49.6,28.1,29.00,WSW,248,8.1,10.7,43,0.00,,---,14.72,VWS V14.01,2013-03-29 17:26:00,
2013-03-29 14:27:00,47.8,25.3,29.00,NW,315,10.3,12.8,41,0.00,,---,14.72,VWS V14.01,2013-03-29 17:27:00,
2013-03-29 14:28:00,47.8,25.3,29.00,NNW,338,6.5,10.3,41,0.00,,---,14.72,VWS V14.01,2013-03-29 17:28:00,
2013-03-29 14:29:00,47.5,25.0,29.00,North,0,7.6,7.6,41,0.00,,---,14.72,VWS V14.01,2013-03-29 17:29:00,
2013-03-29 14:30:00,47.7,25.1,29.00,NNW,338,9.8,9.8,41,0.00,,---,14.72,VWS V14.01,2013-03-29 17:30:00,
2013-03-29 14:31:00,47.5,25.0,29.00,North,0,7.6,10.3,41,0.00,,---,14.72,VWS V14.01,2013-03-29 17:31:00,
2013-03-29 14:32:00,47.3,24.8,29.00,North,0,7.2,7.6,41,0.00,,---,14.72,VWS V14.01,2013-03-29 17:32:00,
2013-03-29 14:33:00,47.3,24.8,29.00,NW,315,7.8,8.5,41,0.00,,---,14.72,VWS V14.01,2013-03-29 17:33:00,
2013-03-29 14:34:00,47.3,25.4,29.00,NNW,338,7.6,7.6,42,0.00,,---,14.72,VWS V14.01,2013-03-29 17:34:00,
2013-03-29 14:35:00,47.1,24.6,29.00,North,0,6.0,8.1,41,0.00,,---,14.72,VWS V14.01,2013-03-29 17:35:00,
2013-03-29 14:36:00,47.3,25.4,29.00,NW,315,7.6,7.6,42,0.00,,---,14.72,VWS V14.01,2013-03-29 17:36:00,
2013-03-29 14:37:00,47.3,25.4,29.00,North,0,8.1,8.1,42,0.00,,---,14.72,VWS V14.01,2013-03-29 17:37:00,
2013-03-29 14:38:00,47.3,25.4,29.00,NW,315,7.6,8.1,42,0.00,,---,14.72,VWS V14.01,2013-03-29 17:38:00,
2013-03-29 14:39:00,46.9,24.5,29.00,NNW,338,12.3,12.3,41,0.00,,---,14.72,VWS V14.01,2013-03-29 17:39:00,
2013-03-29 14:40:00,47.1,24.6,29.00,NNW,338,5.8,7.8,41,0.00,,---,14.72,VWS V14.01,2013-03-29 17:40:00,
2013-03-29 14:41:00,46.9,24.5,29.00,North,0,8.7,10.5,41,0.00,,---,14.72,VWS V14.01,2013-03-29 17:41:00,
2013-03-29 14:42:00,46.8,24.3,29.00,NW,315,11.0,12.3,41,0.00,,---,14.72,VWS V14.01,2013-03-29 17:42:00,
2013-03-29 14:43:00,46.8,24.9,29.00,NW,315,9.6,11.0,42,0.00,,---,14.72,VWS V14.01,2013-03-29 17:43:00,
2013-03-29 14:44:00,46.6,25.3,29.00,NW,315,7.4,7.8,43,0.00,,---,14.72,VWS V14.01,2013-03-29 17:44:00,
2013-03-29 14:45:00,46.8,24.9,29.00,WNW,292,6.9,12.8,42,0.00,,---,14.72,VWS V14.01,2013-03-29 17:45:00,
2013-03-29 14:46:00,46.8,24.3,29.00,NW,315,7.8,8.1,41,0.00,,---,14.72,VWS V14.01,2013-03-29 17:46:00,
2013-03-29 14:47:00,46.6,25.3,29.00,North,0,5.4,7.8,43,0.00,,---,14.72,VWS V14.01,2013-03-29 17:47:00,
2013-03-29 14:48:00,46.6,25.3,29.00,NW,315,6.3,6.3,43,0.00,,---,14.72,VWS V14.01,2013-03-29 17:48:00,
2013-03-29 14:49:00,46.6,25.3,29.00,NNW,338,4.7,4.9,43,0.00,,---,14.72,VWS V14.01,2013-03-29 17:49:00,
2013-03-29 14:50:00,46.6,25.3,29.00,NW,315,6.3,6.5,43,0.00,,---,14.72,VWS V14.01,2013-03-29 17:50:00,
2013-03-29 14:51:00,46.6,25.3,29.00,NNW,338,4.9,6.3,43,0.00,,---,14.72,VWS V14.01,2013-03-29 17:51:00,
2013-03-29 14:52:00,46.6,25.3,29.00,North,0,5.4,5.4,43,0.00,,---,14.72,VWS V14.01,2013-03-29 17:52:00,
2013-03-29 14:53:00,46.6,25.3,29.00,WNW,292,13.2,13.2,43,0.00,,---,14.72,VWS V14.01,2013-03-29 17:53:00,
2013-03-29 14:54:00,46.4,24.6,29.00,North,0,6.0,6.0,42,0.00,,---,14.72,VWS V14.01,2013-03-29 17:54:00,
2013-03-29 14:55:00,46.4,24.6,29.00,NW,315,7.8,9.8,42,0.00,,---,14.72,VWS V14.01,2013-03-29 17:55:00,
2013-03-29 14:56:00,46.4,24.6,29.00,NNW,338,5.8,7.8,42,0.00,,---,14.72,VWS V14.01,2013-03-29 17:56:00,
2013-03-29 14:57:00,46.4,24.0,29.00,NW,315,6.3,6.3,41,0.00,,---,14.72,VWS V14.01,2013-03-29 17:57:00,
2013-03-29 14:58:00,46.2,24.4,29.00,NW,315,6.5,6.5,42,0.00,,---,14.72,VWS V14.01,2013-03-29 17:58:00,
2013-03-29 14:59:00,46.2,23.8,29.00,NW,315,7.8,7.8,41,0.00,,---,14.72,VWS V14.01,2013-03-29 17:59:00,
2013-03-29 15:00:00,46.2,23.8,29.00,West,270,8.7,9.4,41,0.00,,---,14.72,VWS V14.01,2013-03-29 18:00:00,
2013-03-29 15:01:00,46.2,23.8,29.00,WNW,292,5.6,8.7,41,0.00,,---,14.72,VWS V14.01,2013-03-29 18:01:00,
2013-03-29 15:02:00,46.0,23.7,29.00,WNW,292,10.7,10.7,41,0.00,,---,14.72,VWS V14.01,2013-03-29 18:02:00,
2013-03-29 15:03:00,46.2,23.8,29.00,NW,315,7.6,10.7,41,0.00,,---,14.72,VWS V14.01,2013-03-29 18:03:00,
2013-03-29 15:04:00,46.0,24.2,29.00,NNW,338,6.3,6.3,42,0.00,,---,14.72,VWS V14.01,2013-03-29 18:04:00,
2013-03-29 15:05:00,46.2,24.4,29.00,NW,315,6.0,6.0,42,0.00,,---,14.72,VWS V14.01,2013-03-29 18:05:00,
2013-03-29 15:06:00,46.0,24.2,29.00,NNW,338,6.3,9.8,42,0.00,,---,14.72,VWS V14.01,2013-03-29 18:06:00,
2013-03-29 15:07:00,46.0,24.2,29.00,North,0,5.4,6.3,42,0.00,,---,14.72,VWS V14.01,2013-03-29 18:07:00,
2013-03-29 15:08:00,46.0,24.2,29.00,North,0,4.9,5.4,42,0.00,,---,14.72,VWS V14.01,2013-03-29 18:08:00,
2013-03-29 15:09:00,45.9,24.1,29.00,WNW,292,7.6,8.1,42,0.00,,---,14.72,VWS V14.01,2013-03-29 18:09:00,
2013-03-29 15:10:00,45.9,24.1,29.00,NW,315,6.0,7.2,42,0.00,,---,14.72,VWS V14.01,2013-03-29 18:10:00,
2013-03-29 15:11:00,45.9,24.1,29.00,NW,315,8.1,8.1,42,0.00,,---,14.72,VWS V14.01,2013-03-29 18:11:00,
2013-03-29 15:12:00,45.9,24.1,29.00,NW,315,6.7,8.1,42,0.00,,---,14.72,VWS V14.01,2013-03-29 18:12:00,
2013-03-29 15:13:00,45.9,24.1,29.00,NNW,338,5.4,8.5,42,0.00,,---,14.72,VWS V14.01,2013-03-29 18:13:00,
2013-03-29 15:14:00,45.9,24.1,29.00,WNW,292,4.5,4.9,42,0.00,,---,14.72,VWS V14.01,2013-03-29 18:14:00,
2013-03-29 15:15:00,45.9,24.1,29.00,NW,315,7.4,7.8,42,0.00,,---,14.72,VWS V14.01,2013-03-29 18:15:00,
2013-03-29 15:16:00,45.9,24.1,29.00,WNW,292,4.9,7.4,42,0.00,,---,14.72,VWS V14.01,2013-03-29 18:16:00,
2013-03-29 15:17:00,45.9,24.1,29.00,NW,315,6.5,10.3,42,0.00,,---,14.72,VWS V14.01,2013-03-29 18:17:00,
2013-03-29 15:18:00,46.6,24.2,29.00,NW,315,6.5,11.2,41,0.00,,---,14.72,VWS V14.01,2013-03-29 18:18:00,
2013-03-29 15:19:00,46.8,24.3,29.00,NW,315,7.4,10.7,41,0.00,,---,14.72,VWS V14.01,2013-03-29 18:19:00,
2013-03-29 15:20:00,46.8,24.9,29.00,NNW,338,5.4,6.5,42,0.00,,---,14.72,VWS V14.01,2013-03-29 18:20:00,
2013-03-29 15:21:00,46.9,25.1,29.00,NNW,338,10.7,10.7,42,0.00,,---,14.72,VWS V14.01,2013-03-29 18:21:00,
2013-03-29 15:22:00,46.8,24.3,29.00,WNW,292,7.6,10.7,41,0.00,,---,14.72,VWS V14.01,2013-03-29 18:22:00,
2013-03-29 15:23:00,46.8,24.3,29.00,NNW,338,3.6,7.6,41,0.00,,---,14.72,VWS V14.01,2013-03-29 18:23:00,
2013-03-29 15:24:00,47.1,24.6,29.00,NW,315,7.4,7.4,41,0.00,,---,14.72,VWS V14.01,2013-03-29 18:24:00,
2013-03-29 15:25:00,46.9,25.1,29.00,NW,315,6.5,6.5,42,0.00,,---,14.72,VWS V14.01,2013-03-29 18:25:00,
2013-03-29 15:26:00,47.1,24.6,29.00,NW,315,7.4,7.4,41,0.00,,---,14.72,VWS V14.01,2013-03-29 18:26:00,
2013-03-29 15:27:00,47.1,24.6,29.00,NW,315,5.6,7.4,41,0.00,,---,14.72,VWS V14.01,2013-03-29 18:27:00,
2013-03-29 15:28:00,47.1,25.2,29.00,NW,315,5.8,5.8,42,0.00,,---,14.72,VWS V14.01,2013-03-29 18:28:00,
2013-03-29 15:29:00,47.3,24.8,29.00,West,270,8.7,8.7,41,0.00,,---,14.72,VWS V14.01,2013-03-29 18:29:00,
2013-03-29 15:30:00,47.3,25.4,29.00,West,270,7.8,7.8,42,0.00,,---,14.72,VWS V14.01,2013-03-29 18:30:00,
2013-03-29 15:31:00,47.3,24.8,29.00,West,270,8.7,8.7,41,0.00,,---,14.72,VWS V14.01,2013-03-29 18:31:00,
2013-03-29 15:32:00,47.3,24.8,29.00,North,0,6.5,8.7,41,0.00,,---,14.72,VWS V14.01,2013-03-29 18:32:00,
2013-03-29 15:33:00,47.3,24.8,29.00,NNW,338,10.1,10.1,41,0.00,,---,14.72,VWS V14.01,2013-03-29 18:33:00,
2013-03-29 15:34:00,47.3,24.8,29.00,West,270,6.0,6.0,41,0.00,,---,14.72,VWS V14.01,2013-03-29 18:34:00,
2013-03-29 15:35:00,47.3,24.8,29.00,West,270,5.6,10.3,41,0.00,,---,14.72,VWS V14.01,2013-03-29 18:35:00,
2013-03-29 15:36:00,47.3,24.8,29.00,WNW,292,5.6,10.1,41,0.00,,---,14.72,VWS V14.01,2013-03-29 18:36:00,
2013-03-29 15:37:00,47.3,24.8,29.00,NW,315,10.5,10.5,41,0.00,,---,14.72,VWS V14.01,2013-03-29 18:37:00,
2013-03-29 15:38:00,47.3,24.8,29.00,NW,315,6.5,10.5,41,0.00,,---,14.72,VWS V14.01,2013-03-29 18:38:00,
2013-03-29 15:39:00,47.3,24.2,29.00,WNW,292,3.1,7.4,40,0.00,,---,14.72,VWS V14.01,2013-03-29 18:39:00,
2013-03-29 15:40:00,47.3,24.8,29.00,NW,315,5.8,9.6,41,0.00,,---,14.72,VWS V14.01,2013-03-29 18:40:00,
2013-03-29 15:41:00,47.3,24.2,29.00,NW,315,7.4,9.6,40,0.00,,---,14.72,VWS V14.01,2013-03-29 18:41:00,
2013-03-29 15:42:00,47.3,24.8,29.00,NW,315,8.1,8.1,41,0.00,,---,14.72,VWS V14.01,2013-03-29 18:42:00,
2013-03-29 15:43:00,47.3,24.8,29.00,NW,315,5.8,9.8,41,0.00,,---,14.72,VWS V14.01,2013-03-29 18:43:00,
2013-03-29 15:44:00,47.3,24.8,29.00,WNW,292,5.4,7.2,41,0.00,,---,14.72,VWS V14.01,2013-03-29 18:44:00,
2013-03-29 15:45:00,47.3,24.8,29.00,WNW,292,6.0,15.4,41,0.00,,---,14.72,VWS V14.01,2013-03-29 18:45:00,
2013-03-29 15:46:00,47.3,24.8,29.00,West,270,7.2,7.4,41,0.00,,---,14.72,VWS V14.01,2013-03-29 18:46:00,
2013-03-29 15:47:00,47.5,24.4,29.00,West,270,5.6,8.7,40,0.00,,---,14.72,VWS V14.01,2013-03-29 18:47:00,
2013-03-29 15:48:00,47.5,24.4,29.00,West,270,8.5,8.5,40,0.00,,---,14.72,VWS V14.01,2013-03-29 18:48:00,
2013-03-29 15:49:00,47.3,24.2,29.00,West,270,6.0,6.0,40,0.00,,---,14.72,VWS V14.01,2013-03-29 18:49:00,
2013-03-29 15:50:00,47.5,24.4,29.00,West,270,6.0,6.5,40,0.00,,---,14.72,VWS V14.01,2013-03-29 18:50:00,
2013-03-29 15:51:00,47.5,24.4,29.00,West,270,6.0,6.0,40,0.00,,---,14.72,VWS V14.01,2013-03-29 18:51:00,
2013-03-29 15:52:00,47.3,24.2,29.00,West,270,5.4,6.0,40,0.00,,---,14.72,VWS V14.01,2013-03-29 18:52:00,
2013-03-29 15:53:00,47.3,24.2,29.00,SW,225,6.3,6.5,40,0.00,,---,14.72,VWS V14.01,2013-03-29 18:53:00,
2013-03-29 15:54:00,47.1,24.1,28.97,West,270,4.9,5.8,40,0.00,,---,14.72,VWS V14.01,2013-03-29 18:54:00,
2013-03-29 15:55:00,47.1,24.6,28.97,NW,315,5.4,6.0,41,0.00,,---,14.72,VWS V14.01,2013-03-29 18:55:00,
2013-03-29 15:56:00,47.1,24.1,28.97,West,270,5.8,7.4,40,0.00,,---,14.72,VWS V14.01,2013-03-29 18:56:00,
2013-03-29 15:57:00,47.1,24.6,28.97,West,270,4.9,5.8,41,0.00,,---,14.72,VWS V14.01,2013-03-29 18:57:00,
2013-03-29 15:58:00,47.3,24.2,28.97,NW,315,6.3,7.6,40,0.00,,---,14.72,VWS V14.01,2013-03-29 18:58:00,
2013-03-29 15:59:00,47.1,24.6,28.97,NW,315,8.5,8.5,41,0.00,,---,14.72,VWS V14.01,2013-03-29 18:59:00,
2013-03-29 16:00:00,47.1,24.6,28.97,North,0,8.7,12.5,41,0.00,,---,14.72,VWS V14.01,2013-03-29 19:00:00,
2013-03-29 16:01:00,47.1,24.6,28.97,NW,315,8.5,8.7,41,0.00,,---,14.72,VWS V14.01,2013-03-29 19:01:00,
2013-03-29 16:02:00,47.3,24.2,28.97,NW,315,7.8,8.5,40,0.00,,---,14.72,VWS V14.01,2013-03-29 19:02:00,
2013-03-29 16:03:00,47.1,24.6,28.97,NW,315,6.3,7.8,41,0.00,,---,14.72,VWS V14.01,2013-03-29 19:03:00,
2013-03-29 16:04:00,47.3,24.8,28.97,NW,315,6.3,7.4,41,0.00,,---,14.72,VWS V14.01,2013-03-29 19:04:00,
2013-03-29 16:05:00,47.3,24.8,28.97,SE,135,5.4,5.4,41,0.00,,---,14.72,VWS V14.01,2013-03-29 19:05:00,
2013-03-29 16:06:00,47.3,24.2,28.97,NW,315,7.4,7.4,40,0.00,,---,14.72,VWS V14.01,2013-03-29 19:06:00,
2013-03-29 16:07:00,47.3,24.8,28.97,NW,315,6.3,7.4,41,0.00,,---,14.72,VWS V14.01,2013-03-29 19:07:00,
2013-03-29 16:08:00,47.3,24.8,28.97,NW,315,7.8,7.8,41,0.00,,---,14.72,VWS V14.01,2013-03-29 19:08:00,
2013-03-29 16:09:00,47.5,24.4,28.97,NW,315,6.0,6.0,40,0.00,,---,14.72,VWS V14.01,2013-03-29 19:09:00,
2013-03-29 16:10:00,47.5,24.4,28.97,NW,315,6.0,6.0,40,0.00,,---,14.72,VWS V14.01,2013-03-29 19:10:00,
2013-03-29 16:11:00,47.5,24.4,28.97,NW,315,6.0,6.0,40,0.00,,---,14.72,VWS V14.01,2013-03-29 19:11:00,
2013-03-29 16:12:00,47.5,24.4,28.97,NW,315,5.4,6.0,40,0.00,,---,14.72,VWS V14.01,2013-03-29 19:12:00,
2013-03-29 16:13:00,48.2,24.4,28.97,NW,315,10.1,10.1,39,0.00,,---,14.72,VWS V14.01,2013-03-29 19:13:00,
2013-03-29 16:14:00,47.7,24.5,28.97,NW,315,8.7,8.7,40,0.00,,---,14.72,VWS V14.01,2013-03-29 19:14:00,
2013-03-29 16:15:00,47.8,24.7,28.97,NW,315,8.7,9.0,40,0.00,,---,14.72,VWS V14.01,2013-03-29 19:15:00,
2013-03-29 16:16:00,47.7,23.9,28.97,NW,315,8.7,8.7,39,0.00,,---,14.72,VWS V14.01,2013-03-29 19:16:00,
2013-03-29 16:17:00,47.7,24.5,28.97,NW,315,8.7,8.7,40,0.00,,---,14.72,VWS V14.01,2013-03-29 19:17:00,
2013-03-29 16:18:00,47.5,23.8,28.97,NW,315,8.7,8.7,39,0.00,,---,14.72,VWS V14.01,2013-03-29 19:18:00,
2013-03-29 16:19:00,47.3,23.6,28.97,NW,315,6.0,11.0,39,0.00,,---,14.72,VWS V14.01,2013-03-29 19:19:00,
2013-03-29 16:20:00,47.3,24.2,28.97,West,270,11.0,11.0,40,0.00,,---,14.72,VWS V14.01,2013-03-29 19:20:00,
2013-03-29 16:21:00,47.1,24.1,28.97,West,270,11.0,11.0,40,0.00,,---,14.72,VWS V14.01,2013-03-29 19:21:00,
2013-03-29 16:22:00,47.3,23.6,28.97,NW,315,6.0,11.0,39,0.00,,---,14.72,VWS V14.01,2013-03-29 19:22:00,
2013-03-29 16:23:00,47.3,23.6,28.97,NW,315,6.0,6.0,39,0.00,,---,14.72,VWS V14.01,2013-03-29 19:23:00,
2013-03-29 16:24:00,47.3,23.6,28.97,NW,315,6.0,6.0,39,0.00,,---,14.72,VWS V14.01,2013-03-29 19:24:00,
2013-03-29 16:25:00,47.3,23.6,28.97,NW,315,6.0,6.0,39,0.00,,---,14.72,VWS V14.01,2013-03-29 19:25:00,
2013-03-29 16:26:00,47.3,23.6,28.97,NW,315,6.0,6.0,39,0.00,,---,14.72,VWS V14.01,2013-03-29 19:26:00,
2013-03-29 16:27:00,47.3,23.6,28.97,NW,315,6.0,6.0,39,0.00,,---,14.72,VWS V14.01,2013-03-29 19:27:00,
2013-03-29 16:28:00,47.1,23.5,28.97,NW,315,6.0,6.0,39,0.00,,---,14.72,VWS V14.01,2013-03-29 19:28:00,
2013-03-29 16:29:00,46.9,23.3,28.97,West,270,5.6,5.6,39,0.00,,---,14.72,VWS V14.01,2013-03-29 19:29:00,
2013-03-29 16:30:00,47.1,23.5,28.97,West,270,5.6,5.6,39,0.00,,---,14.72,VWS V14.01,2013-03-29 19:30:00,
2013-03-29 16:31:00,46.9,23.3,28.97,West,270,5.6,5.6,39,0.00,,---,14.72,VWS V14.01,2013-03-29 19:31:00,
2013-03-29 16:32:00,46.9,23.3,28.97,West,270,5.6,5.6,39,0.00,,---,14.72,VWS V14.01,2013-03-29 19:32:00,
2013-03-29 16:33:00,46.8,23.1,28.97,WNW,292,10.3,10.3,39,0.00,,---,14.72,VWS V14.01,2013-03-29 19:33:00,
2013-03-29 16:34:00,46.8,23.1,28.97,WNW,292,10.3,10.3,39,0.00,,---,14.72,VWS V14.01,2013-03-29 19:34:00,
2013-03-29 16:35:00,46.9,23.3,28.97,WNW,292,10.3,10.3,39,0.00,,---,14.72,VWS V14.01,2013-03-29 19:35:00,
2013-03-29 16:36:00,46.9,23.3,28.97,WNW,292,10.3,10.3,39,0.00,,---,14.72,VWS V14.01,2013-03-29 19:36:00,
2013-03-29 16:37:00,46.8,23.1,28.97,WNW,292,10.3,10.3,39,0.00,,---,14.72,VWS V14.01,2013-03-29 19:37:00,
2013-03-29 16:38:00,46.8,23.1,28.97,WNW,292,10.3,10.3,39,0.00,,---,14.72,VWS V14.01,2013-03-29 19:38:00,
2013-03-29 16:39:00,46.9,23.3,29.00,WNW,292,10.3,10.3,39,0.00,,---,14.72,VWS V14.01,2013-03-29 19:39:00,
2013-03-29 16:40:00,46.9,23.3,29.00,WNW,292,10.3,10.3,39,0.00,,---,14.72,VWS V14.01,2013-03-29 19:40:00,
2013-03-29 16:41:00,46.9,23.3,29.00,WNW,292,10.3,10.3,39,0.00,,---,14.72,VWS V14.01,2013-03-29 19:41:00,
2013-03-29 16:42:00,46.9,23.3,29.00,WNW,292,10.3,10.3,39,0.00,,---,14.72,VWS V14.01,2013-03-29 19:42:00,
2013-03-29 16:43:00,46.9,23.3,29.00,NW,315,10.1,11.4,39,0.00,,---,14.72,VWS V14.01,2013-03-29 19:43:00,
2013-03-29 16:44:00,47.5,23.8,29.00,West,270,10.3,10.3,39,0.00,,---,14.72,VWS V14.01,2013-03-29 19:44:00,
2013-03-29 16:45:00,47.3,24.2,29.00,West,270,6.5,8.5,40,0.00,,---,14.72,VWS V14.01,2013-03-29 19:45:00,
2013-03-29 16:46:00,47.3,23.6,29.00,West,270,5.8,9.0,39,0.00,,---,14.72,VWS V14.01,2013-03-29 19:46:00,
2013-03-29 16:47:00,47.5,23.8,29.00,WSW,248,5.6,10.3,39,0.00,,---,14.72,VWS V14.01,2013-03-29 19:47:00,
2013-03-29 16:48:00,48.7,24.3,29.00,NW,315,8.7,8.7,38,0.00,,---,14.72,VWS V14.01,2013-03-29 19:48:00,
2013-03-29 16:49:00,48.7,24.3,29.00,West,270,12.8,12.8,38,0.00,,---,14.72,VWS V14.01,2013-03-29 19:49:00,
2013-03-29 16:50:00,49.1,24.6,29.00,West,270,12.8,12.8,38,0.00,,---,14.72,VWS V14.01,2013-03-29 19:50:00,
2013-03-29 16:51:00,49.1,24.6,29.00,West,270,12.8,12.8,38,0.00,,---,14.72,VWS V14.01,2013-03-29 19:51:00,
2013-03-29 16:52:00,48.7,24.3,29.00,West,270,12.8,12.8,38,0.00,,---,14.72,VWS V14.01,2013-03-29 19:52:00,
2013-03-29 16:53:00,48.6,24.8,29.00,West,270,12.8,12.8,39,0.00,,---,14.72,VWS V14.01,2013-03-29 19:53:00,
2013-03-29 16:54:00,48.0,24.3,28.97,NW,315,11.4,11.4,39,0.00,,---,14.72,VWS V14.01,2013-03-29 19:54:00,
2013-03-29 16:55:00,48.0,24.3,28.97,WNW,292,10.5,10.5,39,0.00,,---,14.72,VWS V14.01,2013-03-29 19:55:00,
2013-03-29 16:56:00,48.0,24.3,28.97,NW,315,11.4,11.4,39,0.00,,---,14.72,VWS V14.01,2013-03-29 19:56:00,
2013-03-29 16:57:00,48.4,24.0,28.97,NW,315,11.4,11.4,38,0.00,,---,14.72,VWS V14.01,2013-03-29 19:57:00,
2013-03-29 16:58:00,48.2,23.8,28.97,West,270,10.1,14.5,38,0.00,,---,14.72,VWS V14.01,2013-03-29 19:58:00,
2013-03-29 16:59:00,48.0,24.3,28.97,NW,315,5.8,7.6,39,0.00,,---,14.72,VWS V14.01,2013-03-29 19:59:00,
2013-03-29 17:00:00,48.2,23.8,28.97,NW,315,5.6,13.0,38,0.00,,---,14.72,VWS V14.01,2013-03-29 20:00:00,
2013-03-29 17:01:00,47.8,23.5,28.97,NW,315,7.6,8.1,38,0.00,,---,14.72,VWS V14.01,2013-03-29 20:01:00,
2013-03-29 17:02:00,48.0,24.3,28.97,NW,315,6.5,7.6,39,0.00,,---,14.72,VWS V14.01,2013-03-29 20:02:00,
2013-03-29 17:03:00,48.7,24.9,28.97,WNW,292,5.8,6.5,39,0.00,,---,14.72,VWS V14.01,2013-03-29 20:03:00,
2013-03-29 17:04:00,47.8,24.1,28.97,NW,315,6.5,6.5,39,0.00,,---,14.72,VWS V14.01,2013-03-29 20:04:00,
2013-03-29 17:05:00,48.4,24.0,28.97,NW,315,6.5,6.5,38,0.00,,---,14.72,VWS V14.01,2013-03-29 20:05:00,
2013-03-29 17:06:00,47.8,24.1,28.97,NW,315,6.5,6.5,39,0.00,,---,14.72,VWS V14.01,2013-03-29 20:06:00,
2013-03-29 17:07:00,47.7,23.9,28.97,NW,315,6.5,6.5,39,0.00,,---,14.72,VWS V14.01,2013-03-29 20:07:00,
2013-03-29 17:08:00,47.7,23.9,28.97,West,270,5.4,6.5,39,0.00,,---,14.72,VWS V14.01,2013-03-29 20:08:00,
2013-03-29 17:09:00,47.1,22.8,28.97,WNW,292,6.3,6.3,38,0.00,,---,14.72,VWS V14.01,2013-03-29 20:09:00,
2013-03-29 17:10:00,47.5,23.8,28.97,WNW,292,6.3,6.3,39,0.00,,---,14.72,VWS V14.01,2013-03-29 20:10:00,
2013-03-29 17:11:00,47.1,22.8,28.97,WNW,292,6.3,6.3,38,0.00,,---,14.72,VWS V14.01,2013-03-29 20:11:00,
2013-03-29 17:12:00,47.1,22.8,28.97,WNW,292,6.3,6.3,38,0.00,,---,14.72,VWS V14.01,2013-03-29 20:12:00,
2013-03-29 17:13:00,46.9,23.3,28.97,WNW,292,6.3,6.3,39,0.00,,---,14.72,VWS V14.01,2013-03-29 20:13:00,
2013-03-29 17:14:00,46.8,23.1,28.97,WNW,292,6.3,6.3,39,0.00,,---,14.72,VWS V14.01,2013-03-29 20:14:00,
2013-03-29 17:15:00,46.9,23.3,28.97,WNW,292,6.3,6.3,39,0.00,,---,14.72,VWS V14.01,2013-03-29 20:15:00,
2013-03-29 17:16:00,46.8,23.1,28.97,WNW,292,6.3,6.3,39,0.00,,---,14.72,VWS V14.01,2013-03-29 20:16:00,
2013-03-29 17:17:00,46.8,23.1,28.97,WNW,292,6.3,6.3,39,0.00,,---,14.72,VWS V14.01,2013-03-29 20:17:00,
2013-03-29 17:18:00,46.8,23.1,28.97,WNW,292,6.3,6.3,39,0.00,,---,14.72,VWS V14.01,2013-03-29 20:18:00,
2013-03-29 17:19:00,47.8,24.1,28.97,WNW,292,6.3,6.3,39,0.00,,---,14.72,VWS V14.01,2013-03-29 20:19:00,
2013-03-29 17:20:00,47.3,23.0,28.97,WNW,292,6.3,6.3,38,0.00,,---,14.72,VWS V14.01,2013-03-29 20:20:00,
2013-03-29 17:21:00,47.8,24.1,28.97,WNW,292,6.3,6.3,39,0.00,,---,14.72,VWS V14.01,2013-03-29 20:21:00,
2013-03-29 17:22:00,48.4,24.6,28.97,WNW,292,6.3,6.3,39,0.00,,---,14.72,VWS V14.01,2013-03-29 20:22:00,
2013-03-29 17:23:00,48.9,25.1,28.97,NNW,338,8.1,8.1,39,0.00,,---,14.72,VWS V14.01,2013-03-29 20:23:00,
2013-03-29 17:24:00,50.0,25.4,28.97,NNW,338,8.1,8.1,38,0.00,,---,14.72,VWS V14.01,2013-03-29 20:24:00,
2013-03-29 17:25:00,49.5,24.9,28.97,NNW,338,8.1,8.1,38,0.00,,---,14.72,VWS V14.01,2013-03-29 20:25:00,
2013-03-29 17:26:00,50.0,25.4,28.97,NNW,338,8.1,8.1,38,0.00,,---,14.72,VWS V14.01,2013-03-29 20:26:00,
2013-03-29 17:27:00,50.0,25.4,28.97,NNW,338,8.1,8.1,38,0.00,,---,14.72,VWS V14.01,2013-03-29 20:27:00,
2013-03-29 17:28:00,50.4,25.1,28.97,NNW,338,8.1,8.1,37,0.00,,---,14.72,VWS V14.01,2013-03-29 20:28:00,
2013-03-29 17:29:00,51.4,26.0,28.97,NNW,338,8.1,8.1,37,0.00,,---,14.72,VWS V14.01,2013-03-29 20:29:00,
2013-03-29 17:30:00,51.3,26.5,28.97,NNW,338,8.1,8.1,38,0.00,,---,14.72,VWS V14.01,2013-03-29 20:30:00,
2013-03-29 17:31:00,51.6,26.2,28.97,NNW,338,8.1,8.1,37,0.00,,---,14.72,VWS V14.01,2013-03-29 20:31:00,
2013-03-29 17:32:00,51.4,26.1,28.97,NNW,338,8.1,8.1,37,0.00,,---,14.72,VWS V14.01,2013-03-29 20:32:00,
2013-03-29 17:33:00,50.5,25.2,28.97,NNW,338,8.1,8.1,37,0.00,,---,14.72,VWS V14.01,2013-03-29 20:33:00,
2013-03-29 17:34:00,50.7,25.4,28.97,NW,315,8.1,8.1,37,0.00,,---,14.72,VWS V14.01,2013-03-29 20:34:00,
2013-03-29 17:35:00,50.5,25.2,28.97,North,0,7.8,8.1,37,0.00,,---,14.72,VWS V14.01,2013-03-29 20:35:00,
2013-03-29 17:36:00,50.7,25.4,28.97,NW,315,8.1,8.1,37,0.00,,---,14.72,VWS V14.01,2013-03-29 20:36:00,
2013-03-29 17:37:00,50.5,25.2,28.97,NW,315,8.1,8.1,37,0.00,,---,14.72,VWS V14.01,2013-03-29 20:37:00,
2013-03-29 17:38:00,50.2,24.9,28.97,NW,315,8.1,8.1,37,0.00,,---,14.72,VWS V14.01,2013-03-29 20:38:00,
2013-03-29 17:39:00,49.5,24.3,28.97,NW,315,7.6,7.6,37,0.00,,---,14.72,VWS V14.01,2013-03-29 20:39:00,
2013-03-29 17:40:00,50.2,24.9,28.97,NW,315,6.5,10.5,37,0.00,,---,14.72,VWS V14.01,2013-03-29 20:40:00,
2013-03-29 17:41:00,49.5,24.3,28.97,NW,315,7.6,7.8,37,0.00,,---,14.72,VWS V14.01,2013-03-29 20:41:00,
2013-03-29 17:42:00,49.6,24.5,28.97,NW,315,7.6,7.6,37,0.00,,---,14.72,VWS V14.01,2013-03-29 20:42:00,
2013-03-29 17:43:00,49.8,24.6,28.97,NW,315,7.6,7.6,37,0.00,,---,14.72,VWS V14.01,2013-03-29 20:43:00,
2013-03-29 17:44:00,48.7,23.6,28.97,NW,315,7.6,7.6,37,0.00,,---,14.72,VWS V14.01,2013-03-29 20:44:00,
2013-03-29 17:45:00,49.5,24.3,28.97,NW,315,7.6,7.6,37,0.00,,---,14.72,VWS V14.01,2013-03-29 20:45:00,
2013-03-29 17:46:00,49.1,24.0,28.97,NW,315,7.6,7.6,37,0.00,,---,14.72,VWS V14.01,2013-03-29 20:46:00,
2013-03-29 17:47:00,48.6,23.5,28.97,North,0,5.6,7.6,37,0.00,,---,14.72,VWS V14.01,2013-03-29 20:47:00,
2013-03-29 17:48:00,48.7,23.6,28.97,North,0,5.6,5.6,37,0.00,,---,14.72,VWS V14.01,2013-03-29 20:48:00,
2013-03-29 17:49:00,48.7,24.3,28.97,North,0,6.5,6.5,38,0.00,,---,14.72,VWS V14.01,2013-03-29 20:49:00,
2013-03-29 17:50:00,48.6,24.1,28.97,NW,315,4.3,5.6,38,0.00,,---,14.72,VWS V14.01,2013-03-29 20:50:00,
2013-03-29 17:51:00,48.7,24.3,28.97,North,0,6.5,6.5,38,0.00,,---,14.72,VWS V14.01,2013-03-29 20:51:00,
2013-03-29 17:52:00,49.3,24.8,28.97,NNW,338,5.8,6.5,38,0.00,,---,14.72,VWS V14.01,2013-03-29 20:52:00,
2013-03-29 17:53:00,49.6,25.1,28.97,NW,315,5.4,7.2,38,0.00,,---,14.72,VWS V14.01,2013-03-29 20:53:00,
2013-03-29 17:54:00,50.4,25.1,28.97,NW,315,9.4,9.8,37,0.00,,---,14.72,VWS V14.01,2013-03-29 20:54:00,
2013-03-29 17:55:00,50.0,24.8,28.97,NW,315,6.0,8.5,37,0.00,,---,14.72,VWS V14.01,2013-03-29 20:55:00,
2013-03-29 17:56:00,50.4,25.1,28.97,West,270,9.8,9.8,37,0.00,,---,14.72,VWS V14.01,2013-03-29 20:56:00,
2013-03-29 17:57:00,50.4,25.1,28.97,NNW,338,10.3,10.3,37,0.00,,---,14.72,VWS V14.01,2013-03-29 20:57:00,
2013-03-29 17:58:00,50.4,25.1,28.97,NNW,338,10.7,10.7,37,0.00,,---,14.72,VWS V14.01,2013-03-29 20:58:00,
2013-03-29 17:59:00,50.4,25.1,28.97,West,270,8.7,8.7,37,0.00,,---,14.72,VWS V14.01,2013-03-29 20:59:00,
2013-03-29 18:00:00,50.4,25.1,28.97,NW,315,6.3,9.8,37,0.00,,---,14.72,VWS V14.01,2013-03-29 21:00:00,
2013-03-29 18:01:00,50.4,25.1,28.97,NW,315,8.5,8.5,37,0.00,,---,14.72,VWS V14.01,2013-03-29 21:01:00,
2013-03-29 18:02:00,50.4,25.1,28.97,West,270,14.3,14.3,37,0.00,,---,14.72,VWS V14.01,2013-03-29 21:02:00,
2013-03-29 18:03:00,49.8,24.6,28.97,West,270,8.1,14.3,37,0.00,,---,14.72,VWS V14.01,2013-03-29 21:03:00,
2013-03-29 18:04:00,49.3,24.1,28.97,NW,315,5.8,7.2,37,0.00,,---,14.72,VWS V14.01,2013-03-29 21:04:00,
2013-03-29 18:05:00,49.1,24.0,28.97,NW,315,8.1,8.7,37,0.00,,---,14.72,VWS V14.01,2013-03-29 21:05:00,
2013-03-29 18:06:00,49.3,24.1,28.97,NW,315,7.2,8.5,37,0.00,,---,14.72,VWS V14.01,2013-03-29 21:06:00,
2013-03-29 18:07:00,49.5,24.3,28.97,NW,315,6.5,7.2,37,0.00,,---,14.72,VWS V14.01,2013-03-29 21:07:00,
2013-03-29 18:08:00,49.5,24.3,28.97,NW,315,7.6,10.1,37,0.00,,---,14.72,VWS V14.01,2013-03-29 21:08:00,
2013-03-29 18:09:00,49.3,24.1,28.97,West,270,12.5,12.5,37,0.00,,---,14.72,VWS V14.01,2013-03-29 21:09:00,
2013-03-29 18:10:00,49.1,24.0,28.97,NW,315,8.1,12.8,37,0.00,,---,14.72,VWS V14.01,2013-03-29 21:10:00,
2013-03-29 18:11:00,49.3,24.1,28.97,West,270,6.0,10.5,37,0.00,,---,14.72,VWS V14.01,2013-03-29 21:11:00,
2013-03-29 18:12:00,48.9,23.8,28.97,NW,315,11.0,12.5,37,0.00,,---,14.72,VWS V14.01,2013-03-29 21:12:00,
2013-03-29 18:13:00,48.6,23.5,28.97,NW,315,6.0,11.0,37,0.00,,---,14.72,VWS V14.01,2013-03-29 21:13:00,
2013-03-29 18:14:00,47.8,22.9,28.97,North,0,7.4,7.4,37,0.00,,---,14.72,VWS V14.01,2013-03-29 21:14:00,
2013-03-29 18:15:00,48.4,23.3,28.97,West,270,7.8,10.3,37,0.00,,---,14.72,VWS V14.01,2013-03-29 21:15:00,
2013-03-29 18:16:00,48.0,23.0,28.97,North,0,7.4,7.8,37,0.00,,---,14.72,VWS V14.01,2013-03-29 21:16:00,
2013-03-29 18:17:00,47.8,22.8,28.97,NW,315,5.4,7.4,37,0.00,,---,14.72,VWS V14.01,2013-03-29 21:17:00,
2013-03-29 18:18:00,47.8,22.8,28.97,NW,315,5.6,8.1,37,0.00,,---,14.72,VWS V14.01,2013-03-29 21:18:00,
2013-03-29 18:19:00,48.9,23.8,28.97,WNW,292,10.1,10.1,37,0.00,,---,14.72,VWS V14.01,2013-03-29 21:19:00,
2013-03-29 18:20:00,48.7,24.3,28.97,West,270,10.1,10.1,38,0.00,,---,14.72,VWS V14.01,2013-03-29 21:20:00,
2013-03-29 18:21:00,48.9,23.8,28.97,WSW,248,5.8,12.8,37,0.00,,---,14.72,VWS V14.01,2013-03-29 21:21:00,
2013-03-29 18:22:00,48.9,23.8,28.97,West,270,6.9,10.1,37,0.00,,---,14.72,VWS V14.01,2013-03-29 21:22:00,
2013-03-29 18:23:00,48.9,23.8,28.97,NW,315,6.0,8.5,37,0.00,,---,14.72,VWS V14.01,2013-03-29 21:23:00,
2013-03-29 18:24:00,49.3,24.1,28.94,NW,315,7.8,7.8,37,0.00,,---,14.72,VWS V14.01,2013-03-29 21:24:00,
2013-03-29 18:25:00,49.3,24.1,28.94,NW,315,10.1,10.1,37,0.00,,---,14.72,VWS V14.01,2013-03-29 21:25:00,
2013-03-29 18:26:00,49.3,24.1,28.94,NW,315,7.4,10.1,37,0.00,,---,14.72,VWS V14.01,2013-03-29 21:26:00,
2013-03-29 18:27:00,49.3,24.8,28.94,WNW,292,6.5,11.0,38,0.00,,---,14.72,VWS V14.01,2013-03-29 21:27:00,
2013-03-29 18:28:00,49.3,24.1,28.94,NNW,338,8.7,8.7,37,0.00,,---,14.72,VWS V14.01,2013-03-29 21:28:00,
2013-03-29 18:29:00,48.6,23.5,28.94,West,270,10.7,10.7,37,0.00,,---,14.72,VWS V14.01,2013-03-29 21:29:00,
2013-03-29 18:30:00,49.3,24.1,28.94,NW,315,7.4,11.0,37,0.00,,---,14.72,VWS V14.01,2013-03-29 21:30:00,
2013-03-29 18:31:00,49.1,24.0,28.94,West,270,10.7,10.7,37,0.00,,---,14.72,VWS V14.01,2013-03-29 21:31:00,
2013-03-29 18:32:00,48.6,23.5,28.94,NW,315,10.3,10.7,37,0.00,,---,14.72,VWS V14.01,2013-03-29 21:32:00,
2013-03-29 18:33:00,48.6,23.5,28.94,NW,315,6.0,10.3,37,0.00,,---,14.72,VWS V14.01,2013-03-29 21:33:00,
2013-03-29 18:34:00,48.7,23.6,28.94,NW,315,5.8,10.1,37,0.00,,---,14.72,VWS V14.01,2013-03-29 21:34:00,
2013-03-29 18:35:00,48.7,23.6,28.94,NNW,338,6.5,12.5,37,0.00,,---,14.72,VWS V14.01,2013-03-29 21:35:00,
2013-03-29 18:36:00,48.7,23.6,28.94,NW,315,10.1,10.1,37,0.00,,---,14.72,VWS V14.01,2013-03-29 21:36:00,
2013-03-29 18:37:00,48.9,23.8,28.94,North,0,7.4,10.1,37,0.00,,---,14.72,VWS V14.01,2013-03-29 21:37:00,
2013-03-29 18:38:00,48.9,23.8,28.94,NW,315,8.7,8.7,37,0.00,,---,14.72,VWS V14.01,2013-03-29 21:38:00,
2013-03-29 18:39:00,48.9,23.8,28.97,NW,315,7.4,7.4,37,0.00,,---,14.72,VWS V14.01,2013-03-29 21:39:00,
2013-03-29 18:40:00,48.7,23.6,28.97,West,270,4.9,7.8,37,0.00,,---,14.72,VWS V14.01,2013-03-29 21:40:00,
2013-03-29 18:41:00,48.9,23.8,28.97,NW,315,5.6,5.6,37,0.00,,---,14.72,VWS V14.01,2013-03-29 21:41:00,
2013-03-29 18:42:00,49.1,24.0,28.97,NW,315,5.8,8.1,37,0.00,,---,14.72,VWS V14.01,2013-03-29 21:42:00,
2013-03-29 18:43:00,49.1,24.0,28.97,North,0,6.0,6.0,37,0.00,,---,14.72,VWS V14.01,2013-03-29 21:43:00,
2013-03-29 18:44:00,48.4,23.3,28.97,North,0,6.0,6.0,37,0.00,,---,14.72,VWS V14.01,2013-03-29 21:44:00,
2013-03-29 18:45:00,49.1,24.0,28.97,North,0,6.0,6.0,37,0.00,,---,14.72,VWS V14.01,2013-03-29 21:45:00,
2013-03-29 18:46:00,48.7,23.6,28.97,North,0,6.0,6.0,37,0.00,,---,14.72,VWS V14.01,2013-03-29 21:46:00,
2013-03-29 18:47:00,48.4,23.3,28.97,North,0,6.0,6.0,37,0.00,,---,14.72,VWS V14.01,2013-03-29 21:47:00,
2013-03-29 18:48:00,48.2,23.2,28.97,North,0,6.0,6.0,37,0.00,,---,14.72,VWS V14.01,2013-03-29 21:48:00,
2013-03-29 18:49:00,48.2,23.2,28.97,NNW,338,8.5,8.7,37,0.00,,---,14.72,VWS V14.01,2013-03-29 21:49:00,
2013-03-29 18:50:00,48.2,23.2,28.97,NW,315,6.0,11.0,37,0.00,,---,14.72,VWS V14.01,2013-03-29 21:50:00,
2013-03-29 18:51:00,48.2,23.2,28.97,NW,315,8.7,10.5,37,0.00,,---,14.72,VWS V14.01,2013-03-29 21:51:00,
2013-03-29 18:52:00,48.2,23.2,28.97,NW,315,10.5,10.5,37,0.00,,---,14.72,VWS V14.01,2013-03-29 21:52:00,
2013-03-29 18:53:00,48.2,23.2,28.97,NW,315,7.6,10.5,37,0.00,,---,14.72,VWS V14.01,2013-03-29 21:53:00,
2013-03-29 18:54:00,48.2,23.2,28.94,WNW,292,6.0,6.0,37,0.00,,---,14.72,VWS V14.01,2013-03-29 21:54:00,
2013-03-29 18:55:00,48.2,23.2,28.94,NW,315,6.5,9.0,37,0.00,,---,14.72,VWS V14.01,2013-03-29 21:55:00,
2013-03-29 18:56:00,48.2,23.2,28.94,WNW,292,6.0,7.8,37,0.00,,---,14.72,VWS V14.01,2013-03-29 21:56:00,
2013-03-29 18:57:00,48.4,23.3,28.94,West,270,5.8,6.0,37,0.00,,---,14.72,VWS V14.01,2013-03-29 21:57:00,
2013-03-29 18:58:00,48.4,23.3,28.94,NW,315,7.4,8.1,37,0.00,,---,14.72,VWS V14.01,2013-03-29 21:58:00,
2013-03-29 18:59:00,48.2,23.2,28.94,NW,315,8.5,8.5,37,0.00,,---,14.72,VWS V14.01,2013-03-29 21:59:00,
2013-03-29 19:00:00,48.2,23.2,28.94,NNW,338,10.1,10.1,37,0.00,,---,14.72,VWS V14.01,2013-03-29 22:00:00,
2013-03-29 19:01:00,48.2,23.2,28.94,NW,315,7.8,10.1,37,0.00,,---,14.72,VWS V14.01,2013-03-29 22:01:00,
2013-03-29 19:02:00,48.2,23.2,28.94,NW,315,6.3,8.5,37,0.00,,---,14.72,VWS V14.01,2013-03-29 22:02:00,
2013-03-29 19:03:00,48.2,23.2,28.94,West,270,7.6,8.1,37,0.00,,---,14.72,VWS V14.01,2013-03-29 22:03:00,
2013-03-29 19:04:00,48.2,23.2,28.94,North,0,6.5,6.5,37,0.00,,---,14.72,VWS V14.01,2013-03-29 22:04:00,
2013-03-29 19:05:00,48.2,23.2,28.94,NW,315,5.8,6.5,37,0.00,,---,14.72,VWS V14.01,2013-03-29 22:05:00,
2013-03-29 19:06:00,48.2,23.2,28.94,NNW,338,4.9,9.6,37,0.00,,---,14.72,VWS V14.01,2013-03-29 22:06:00,
2013-03-29 19:07:00,48.4,23.3,28.94,North,0,7.2,7.2,37,0.00,,---,14.72,VWS V14.01,2013-03-29 22:07:00,
2013-03-29 19:08:00,48.4,23.3,28.94,NW,315,7.8,9.8,37,0.00,,---,14.72,VWS V14.01,2013-03-29 22:08:00,
2013-03-29 19:09:00,48.0,23.0,28.97,North,0,6.3,7.4,37,0.00,,---,14.72,VWS V14.01,2013-03-29 22:09:00,
2013-03-29 19:10:00,48.0,23.0,28.97,WNW,292,8.5,13.0,37,0.00,,---,14.72,VWS V14.01,2013-03-29 22:10:00,
2013-03-29 19:11:00,47.8,22.8,28.97,NW,315,7.4,10.3,37,0.00,,---,14.72,VWS V14.01,2013-03-29 22:11:00,
2013-03-29 19:12:00,48.0,23.0,28.97,NW,315,8.5,8.5,37,0.00,,---,14.72,VWS V14.01,2013-03-29 22:12:00,
2013-03-29 19:13:00,48.0,23.0,28.97,NW,315,12.1,12.1,37,0.00,,---,14.72,VWS V14.01,2013-03-29 22:13:00,
2013-03-29 19:14:00,48.0,23.0,28.97,North,0,5.8,7.6,37,0.00,,---,14.72,VWS V14.01,2013-03-29 22:14:00,
2013-03-29 19:15:00,48.0,23.0,28.97,North,0,2.9,6.0,37,0.00,,---,14.72,VWS V14.01,2013-03-29 22:15:00,
2013-03-29 19:16:00,48.0,23.0,28.97,NW,315,7.6,9.2,37,0.00,,---,14.72,VWS V14.01,2013-03-29 22:16:00,
2013-03-29 19:17:00,48.0,23.0,28.97,NW,315,8.7,8.7,37,0.00,,---,14.72,VWS V14.01,2013-03-29 22:17:00,
2013-03-29 19:18:00,47.8,22.8,28.97,NW,315,4.9,8.7,37,0.00,,---,14.72,VWS V14.01,2013-03-29 22:18:00,
2013-03-29 19:19:00,48.0,23.6,28.97,WNW,292,8.7,8.7,38,0.00,,---,14.72,VWS V14.01,2013-03-29 22:19:00,
2013-03-29 19:20:00,48.0,23.6,28.97,NW,315,5.4,7.2,38,0.00,,---,14.72,VWS V14.01,2013-03-29 22:20:00,
2013-03-29 19:21:00,48.0,23.6,28.97,WNW,292,7.4,8.7,38,0.00,,---,14.72,VWS V14.01,2013-03-29 22:21:00,
2013-03-29 19:22:00,48.0,23.6,28.97,NW,315,5.6,8.7,38,0.00,,---,14.72,VWS V14.01,2013-03-29 22:22:00,
2013-03-29 19:23:00,47.8,22.8,28.97,NW,315,6.0,7.4,37,0.00,,---,14.72,VWS V14.01,2013-03-29 22:23:00,
2013-03-29 19:24:00,47.8,22.9,28.97,West,270,4.0,4.0,37,0.00,,---,14.72,VWS V14.01,2013-03-29 22:24:00,
2013-03-29 19:25:00,47.8,22.8,28.97,NW,315,5.4,9.4,37,0.00,,---,14.72,VWS V14.01,2013-03-29 22:25:00,
2013-03-29 19:26:00,47.8,22.8,28.97,West,270,4.0,6.3,37,0.00,,---,14.72,VWS V14.01,2013-03-29 22:26:00,
2013-03-29 19:27:00,47.8,22.8,28.97,NNW,338,5.4,5.4,37,0.00,,---,14.72,VWS V14.01,2013-03-29 22:27:00,
2013-03-29 19:28:00,47.8,23.5,28.97,NW,315,4.0,5.4,38,0.00,,---,14.72,VWS V14.01,2013-03-29 22:28:00,
2013-03-29 19:29:00,48.0,23.0,28.97,NW,315,5.4,5.8,37,0.00,,---,14.72,VWS V14.01,2013-03-29 22:29:00,
2013-03-29 19:30:00,48.0,23.0,28.97,NW,315,4.3,7.6,37,0.00,,---,14.72,VWS V14.01,2013-03-29 22:30:00,
2013-03-29 19:31:00,48.0,23.0,28.97,NW,315,5.6,10.1,37,0.00,,---,14.72,VWS V14.01,2013-03-29 22:31:00,
2013-03-29 19:32:00,48.0,23.0,28.97,NNW,338,8.7,8.7,37,0.00,,---,14.72,VWS V14.01,2013-03-29 22:32:00,
2013-03-29 19:33:00,48.0,23.6,28.97,North,0,5.4,9.8,38,0.00,,---,14.72,VWS V14.01,2013-03-29 22:33:00,
2013-03-29 19:34:00,47.8,22.9,28.97,NW,315,6.3,6.3,37,0.00,,---,14.72,VWS V14.01,2013-03-29 22:34:00,
2013-03-29 19:35:00,47.8,22.8,28.97,NW,315,6.5,7.8,37,0.00,,---,14.72,VWS V14.01,2013-03-29 22:35:00,
2013-03-29 19:36:00,47.8,22.8,28.97,NW,315,6.3,6.5,37,0.00,,---,14.72,VWS V14.01,2013-03-29 22:36:00,
2013-03-29 19:37:00,48.0,23.6,28.97,NW,315,4.3,6.3,38,0.00,,---,14.72,VWS V14.01,2013-03-29 22:37:00,
2013-03-29 19:38:00,48.0,23.0,28.97,NW,315,7.2,7.2,37,0.00,,---,14.72,VWS V14.01,2013-03-29 22:38:00,
2013-03-29 19:39:00,47.8,23.5,28.97,North,0,4.9,4.9,38,0.00,,---,14.72,VWS V14.01,2013-03-29 22:39:00,
2013-03-29 19:40:00,48.0,23.0,28.97,NNW,338,7.8,8.7,37,0.00,,---,14.72,VWS V14.01,2013-03-29 22:40:00,
2013-03-29 19:41:00,47.8,22.8,28.97,North,0,4.0,7.8,37,0.00,,---,14.72,VWS V14.01,2013-03-29 22:41:00,
2013-03-29 19:42:00,47.8,22.8,28.97,North,0,6.0,6.3,37,0.00,,---,14.72,VWS V14.01,2013-03-29 22:42:00,
2013-03-29 19:43:00,47.8,22.8,28.97,NW,315,6.0,6.0,37,0.00,,---,14.72,VWS V14.01,2013-03-29 22:43:00,
2013-03-29 19:44:00,47.5,22.5,28.97,West,270,6.0,7.6,37,0.00,,---,14.72,VWS V14.01,2013-03-29 22:44:00,
2013-03-29 19:45:00,47.8,23.5,28.97,NW,315,3.8,4.0,38,0.00,,---,14.72,VWS V14.01,2013-03-29 22:45:00,
2013-03-29 19:46:00,47.5,22.5,28.97,West,270,7.6,9.0,37,0.00,,---,14.72,VWS V14.01,2013-03-29 22:46:00,
2013-03-29 19:47:00,47.5,22.5,28.97,NW,315,4.0,7.6,37,0.00,,---,14.72,VWS V14.01,2013-03-29 22:47:00,
2013-03-29 19:48:00,47.7,22.7,28.97,NNW,338,5.6,5.6,37,0.00,,---,14.72,VWS V14.01,2013-03-29 22:48:00,
2013-03-29 19:49:00,47.3,22.4,28.97,NW,315,3.1,4.7,37,0.00,,---,14.72,VWS V14.01,2013-03-29 22:49:00,
2013-03-29 19:50:00,47.3,22.4,28.97,NW,315,5.6,8.7,37,0.00,,---,14.72,VWS V14.01,2013-03-29 22:50:00,
2013-03-29 19:51:00,47.3,22.4,28.97,West,270,4.7,6.0,37,0.00,,---,14.72,VWS V14.01,2013-03-29 22:51:00,
2013-03-29 19:52:00,47.3,22.4,28.97,WNW,292,6.3,6.3,37,0.00,,---,14.72,VWS V14.01,2013-03-29 22:52:00,
2013-03-29 19:53:00,47.5,23.2,28.97,NW,315,7.4,7.4,38,0.00,,---,14.72,VWS V14.01,2013-03-29 22:53:00,
2013-03-29 19:54:00,47.5,23.2,28.97,NW,315,4.9,4.9,38,0.00,,---,14.72,VWS V14.01,2013-03-29 22:54:00,
2013-03-29 19:55:00,47.5,23.2,28.97,NW,315,4.0,5.4,38,0.00,,---,14.72,VWS V14.01,2013-03-29 22:55:00,
2013-03-29 19:56:00,47.5,23.2,28.97,NW,315,4.0,4.9,38,0.00,,---,14.72,VWS V14.01,2013-03-29 22:56:00,
2013-03-29 19:57:00,47.3,22.4,28.97,NW,315,4.9,4.9,37,0.00,,---,14.72,VWS V14.01,2013-03-29 22:57:00,
2013-03-29 19:58:00,47.3,23.0,28.97,NW,315,5.4,5.6,38,0.00,,---,14.72,VWS V14.01,2013-03-29 22:58:00,
2013-03-29 19:59:00,47.3,22.4,28.97,NW,315,8.1,8.1,37,0.00,,---,14.72,VWS V14.01,2013-03-29 22:59:00,
2013-03-29 20:00:00,47.3,22.4,28.97,NW,315,5.6,8.7,37,0.00,,---,14.72,VWS V14.01,2013-03-29 23:00:00,
2013-03-29 20:01:00,47.3,22.4,28.97,NW,315,4.9,6.0,37,0.00,,---,14.72,VWS V14.01,2013-03-29 23:01:00,
2013-03-29 20:02:00,46.9,22.0,28.97,NNW,338,10.5,12.3,37,0.00,,---,14.72,VWS V14.01,2013-03-29 23:02:00,
2013-03-29 20:03:00,46.9,22.0,28.97,NNW,338,5.8,10.5,37,0.00,,---,14.72,VWS V14.01,2013-03-29 23:03:00,
2013-03-29 20:04:00,46.9,22.0,28.97,North,0,6.5,6.5,37,0.00,,---,14.72,VWS V14.01,2013-03-29 23:04:00,
2013-03-29 20:05:00,47.1,22.2,28.97,NNW,338,3.6,4.9,37,0.00,,---,14.72,VWS V14.01,2013-03-29 23:05:00,
2013-03-29 20:06:00,46.9,22.0,28.97,North,0,4.3,6.5,37,0.00,,---,14.72,VWS V14.01,2013-03-29 23:06:00,
2013-03-29 20:07:00,46.8,21.9,28.97,NNW,338,3.8,6.5,37,0.00,,---,14.72,VWS V14.01,2013-03-29 23:07:00,
2013-03-29 20:08:00,46.6,21.7,28.97,NNW,338,7.8,7.8,37,0.00,,---,14.72,VWS V14.01,2013-03-29 23:08:00,
2013-03-29 20:09:00,46.6,21.7,29.00,NW,315,4.3,4.3,37,0.00,,---,14.72,VWS V14.01,2013-03-29 23:09:00,
2013-03-29 20:10:00,46.6,21.7,29.00,North,0,3.6,6.0,37,0.00,,---,14.72,VWS V14.01,2013-03-29 23:10:00,
2013-03-29 20:11:00,46.6,22.4,29.00,NW,315,3.6,4.7,38,0.00,,---,14.72,VWS V14.01,2013-03-29 23:11:00,
2013-03-29 20:12:00,46.2,22.0,29.00,NW,315,8.5,9.4,38,0.00,,---,14.72,VWS V14.01,2013-03-29 23:12:00,
2013-03-29 20:13:00,46.4,21.6,29.00,North,0,3.8,8.5,37,0.00,,---,14.72,VWS V14.01,2013-03-29 23:13:00,
2013-03-29 20:14:00,45.7,21.5,29.00,West,270,3.6,4.0,38,0.00,,---,14.72,VWS V14.01,2013-03-29 23:14:00,
2013-03-29 20:15:00,46.0,21.9,29.00,NW,315,5.8,5.8,38,0.00,,---,14.72,VWS V14.01,2013-03-29 23:15:00,
2013-03-29 20:16:00,45.7,21.5,29.00,NW,315,4.0,5.8,38,0.00,,---,14.72,VWS V14.01,2013-03-29 23:16:00,
2013-03-29 20:17:00,45.5,21.4,29.00,WSW,248,3.8,4.0,38,0.00,,---,14.72,VWS V14.01,2013-03-29 23:17:00,
2013-03-29 20:18:00,45.3,21.2,29.00,NW,315,3.6,6.3,38,0.00,,---,14.72,VWS V14.01,2013-03-29 23:18:00,
2013-03-29 20:19:00,44.6,20.6,29.00,NW,315,3.6,4.0,38,0.00,,---,14.72,VWS V14.01,2013-03-29 23:19:00,
2013-03-29 20:20:00,44.8,20.7,29.00,NW,315,5.4,6.5,38,0.00,,---,14.72,VWS V14.01,2013-03-29 23:20:00,
2013-03-29 20:21:00,44.6,20.6,29.00,NW,315,4.0,5.4,38,0.00,,---,14.72,VWS V14.01,2013-03-29 23:21:00,
2013-03-29 20:22:00,44.6,20.6,29.00,NW,315,3.1,4.7,38,0.00,,---,14.72,VWS V14.01,2013-03-29 23:22:00,
2013-03-29 20:23:00,44.2,20.9,29.00,NNW,338,3.4,4.3,39,0.00,,---,14.72,VWS V14.01,2013-03-29 23:23:00,
2013-03-29 20:24:00,43.9,20.5,29.00,NW,315,3.4,4.9,39,0.00,,---,14.72,VWS V14.01,2013-03-29 23:24:00,
2013-03-29 20:25:00,44.1,20.7,29.00,WNW,292,3.8,4.3,39,0.00,,---,14.72,VWS V14.01,2013-03-29 23:25:00,
2013-03-29 20:26:00,44.1,20.7,29.00,NW,315,4.9,4.9,39,0.00,,---,14.72,VWS V14.01,2013-03-29 23:26:00,
2013-03-29 20:27:00,43.7,20.4,29.00,West,270,6.0,6.0,39,0.00,,---,14.72,VWS V14.01,2013-03-29 23:27:00,
2013-03-29 20:28:00,43.7,20.4,29.00,NW,315,2.7,6.0,39,0.00,,---,14.72,VWS V14.01,2013-03-29 23:28:00,
2013-03-29 20:29:00,43.5,20.2,29.00,NW,315,3.1,3.8,39,0.00,,---,14.72,VWS V14.01,2013-03-29 23:29:00,
2013-03-29 20:30:00,43.5,20.2,29.00,NW,315,2.7,3.4,39,0.00,,---,14.72,VWS V14.01,2013-03-29 23:30:00,
2013-03-29 20:31:00,43.5,20.2,29.00,West,270,3.8,5.4,39,0.00,,---,14.72,VWS V14.01,2013-03-29 23:31:00,
2013-03-29 20:32:00,43.5,20.2,29.00,WNW,292,2.5,3.8,39,0.00,,---,14.72,VWS V14.01,2013-03-29 23:32:00,
2013-03-29 20:33:00,43.3,20.1,29.00,NW,315,4.0,4.0,39,0.00,,---,14.72,VWS V14.01,2013-03-29 23:33:00,
2013-03-29 20:34:00,42.8,19.6,29.00,NW,315,1.6,2.0,39,0.00,,---,14.72,VWS V14.01,2013-03-29 23:34:00,
2013-03-29 20:35:00,42.8,19.6,29.00,NNW,338,2.0,2.5,39,0.00,,---,14.72,VWS V14.01,2013-03-29 23:35:00,
2013-03-29 20:36:00,42.8,19.6,29.00,NW,315,2.0,2.9,39,0.00,,---,14.72,VWS V14.01,2013-03-29 23:36:00,
2013-03-29 20:37:00,42.6,20.0,29.00,NW,315,1.6,2.0,40,0.00,,---,14.72,VWS V14.01,2013-03-29 23:37:00,
2013-03-29 20:38:00,42.4,19.8,29.00,NW,315,3.1,3.1,40,0.00,,---,14.72,VWS V14.01,2013-03-29 23:38:00,
2013-03-29 20:39:00,42.3,19.7,29.00,NW,315,2.5,2.5,40,0.00,,---,14.72,VWS V14.01,2013-03-29 23:39:00,
2013-03-29 20:40:00,42.4,19.8,29.00,NNW,338,2.9,3.1,40,0.00,,---,14.72,VWS V14.01,2013-03-29 23:40:00,
2013-03-29 20:41:00,42.3,19.7,29.00,NW,315,2.5,2.9,40,0.00,,---,14.72,VWS V14.01,2013-03-29 23:41:00,
2013-03-29 20:42:00,42.3,19.7,29.00,NW,315,0.9,2.5,40,0.00,,---,14.72,VWS V14.01,2013-03-29 23:42:00,
2013-03-29 20:43:00,41.9,19.4,29.00,NNW,338,1.1,1.1,40,0.00,,---,14.72,VWS V14.01,2013-03-29 23:43:00,
2013-03-29 20:44:00,41.4,18.9,29.00,NNW,338,1.1,1.1,40,0.00,,---,14.72,VWS V14.01,2013-03-29 23:44:00,
2013-03-29 20:45:00,41.4,18.9,29.00,NNW,338,1.1,1.1,40,0.00,,---,14.72,VWS V14.01,2013-03-29 23:45:00,
2013-03-29 20:46:00,41.4,18.9,29.00,NNW,338,1.1,1.1,40,0.00,,---,14.72,VWS V14.01,2013-03-29 23:46:00,
2013-03-29 20:47:00,41.4,18.9,29.00,NNW,338,1.1,1.1,40,0.00,,---,14.72,VWS V14.01,2013-03-29 23:47:00,
2013-03-29 20:48:00,41.4,18.9,29.00,NNW,338,1.1,1.1,40,0.00,,---,14.72,VWS V14.01,2013-03-29 23:48:00,
2013-03-29 20:49:00,41.0,19.1,29.00,NW,315,2.5,2.5,41,0.00,,---,14.72,VWS V14.01,2013-03-29 23:49:00,
2013-03-29 20:50:00,41.2,19.3,29.00,NW,315,2.5,2.5,41,0.00,,---,14.72,VWS V14.01,2013-03-29 23:50:00,
2013-03-29 20:51:00,41.0,19.1,29.00,NW,315,2.5,2.5,41,0.00,,---,14.72,VWS V14.01,2013-03-29 23:51:00,
2013-03-29 20:52:00,40.6,18.8,29.00,SW,225,0.0,2.5,41,0.00,,---,14.72,VWS V14.01,2013-03-29 23:52:00,
2013-03-29 20:53:00,40.6,18.8,29.00,SW,225,0.0,0.0,41,0.00,,---,14.72,VWS V14.01,2013-03-29 23:53:00,
2013-03-29 20:54:00,40.1,18.3,29.00,SW,225,0.0,0.0,41,0.00,,---,14.72,VWS V14.01,2013-03-29 23:54:00,
2013-03-29 20:55:00,40.5,18.6,29.00,SW,225,0.0,0.0,41,0.00,,---,14.72,VWS V14.01,2013-03-29 23:55:00,
2013-03-29 20:56:00,40.3,18.5,29.00,SW,225,0.0,0.0,41,0.00,,---,14.72,VWS V14.01,2013-03-29 23:56:00,
2013-03-29 20:57:00,40.1,18.3,29.00,SW,225,0.0,0.0,41,0.00,,---,14.72,VWS V14.01,2013-03-29 23:57:00,
2013-03-29 20:58:00,39.9,18.1,29.00,SW,225,0.0,0.0,41,0.00,,---,14.72,VWS V14.01,2013-03-29 23:58:00,
2013-03-29 20:59:00,39.4,17.7,29.00,SW,225,0.0,0.0,41,0.00,,---,14.72,VWS V14.01,2013-03-29 23:59:00,
2013-03-29 21:00:00,39.4,18.2,29.00,SW,225,0.0,0.0,42,0.00,,---,14.72,VWS V14.01,2013-03-30 00:00:00,
2013-03-29 21:01:00,39.4,17.7,29.00,SW,225,0.0,0.0,41,0.00,,---,14.72,VWS V14.01,2013-03-30 00:01:00,
2013-03-29 21:02:00,39.2,17.5,29.00,SW,225,0.0,0.0,41,0.00,,---,14.72,VWS V14.01,2013-03-30 00:02:00,
2013-03-29 21:03:00,39.0,17.9,29.00,SW,225,0.0,0.0,42,0.00,,---,14.72,VWS V14.01,2013-03-30 00:03:00,
2013-03-29 21:04:00,38.3,17.2,29.00,SSE,158,0.0,0.0,42,0.00,,---,14.72,VWS V14.01,2013-03-30 00:04:00,
2013-03-29 21:05:00,38.7,17.6,29.00,SW,225,0.0,0.0,42,0.00,,---,14.72,VWS V14.01,2013-03-30 00:05:00,
2013-03-29 21:06:00,38.3,17.2,29.00,SSE,158,0.0,0.0,42,0.00,,---,14.72,VWS V14.01,2013-03-30 00:06:00,
2013-03-29 21:07:00,38.1,17.1,29.00,SSE,158,0.0,0.0,42,0.00,,---,14.72,VWS V14.01,2013-03-30 00:07:00,
2013-03-29 21:08:00,37.9,16.9,29.00,SSE,158,0.0,0.0,42,0.00,,---,14.72,VWS V14.01,2013-03-30 00:08:00,
2013-03-29 21:09:00,37.4,17.0,29.00,SE,135,0.0,0.0,43,0.00,,---,14.72,VWS V14.01,2013-03-30 00:09:00,
2013-03-29 21:10:00,37.6,17.1,29.00,SE,135,0.0,0.0,43,0.00,,---,14.72,VWS V14.01,2013-03-30 00:10:00,
2013-03-29 21:11:00,37.6,17.1,29.00,SE,135,0.0,1.1,43,0.00,,---,14.72,VWS V14.01,2013-03-30 00:11:00,
2013-03-29 21:12:00,37.4,17.0,29.00,SE,135,0.0,0.0,43,0.00,,---,14.72,VWS V14.01,2013-03-30 00:12:00,
2013-03-29 21:13:00,37.2,16.8,29.00,SE,135,0.0,0.0,43,0.00,,---,14.72,VWS V14.01,2013-03-30 00:13:00,
2013-03-29 21:14:00,37.0,16.6,29.00,SE,135,1.3,1.3,43,0.00,,---,14.72,VWS V14.01,2013-03-30 00:14:00,
2013-03-29 21:15:00,37.0,16.6,29.00,SE,135,0.0,0.9,43,0.00,,---,14.72,VWS V14.01,2013-03-30 00:15:00,
2013-03-29 21:16:00,37.0,16.6,29.00,SE,135,1.1,1.1,43,0.00,,---,14.72,VWS V14.01,2013-03-30 00:16:00,
2013-03-29 21:17:00,36.9,16.5,29.00,SE,135,1.6,2.0,43,0.00,,---,14.72,VWS V14.01,2013-03-30 00:17:00,
2013-03-29 21:18:00,36.9,16.5,29.00,SE,135,1.6,1.6,43,0.00,,---,14.72,VWS V14.01,2013-03-30 00:18:00,
2013-03-29 21:19:00,36.5,16.7,29.00,SE,135,2.0,2.0,44,0.00,,---,14.72,VWS V14.01,2013-03-30 00:19:00,
2013-03-29 21:20:00,36.7,16.8,29.00,SE,135,2.0,2.0,44,0.00,,---,14.72,VWS V14.01,2013-03-30 00:20:00,
2013-03-29 21:21:00,36.5,16.7,29.00,SE,135,2.0,2.0,44,0.00,,---,14.72,VWS V14.01,2013-03-30 00:21:00,
2013-03-29 21:22:00,36.3,16.5,29.00,SE,135,2.0,2.0,44,0.00,,---,14.72,VWS V14.01,2013-03-30 00:22:00,
2013-03-29 21:23:00,36.3,16.5,29.00,SE,135,1.6,2.0,44,0.00,,---,14.72,VWS V14.01,2013-03-30 00:23:00,
2013-03-29 21:24:00,36.0,16.7,29.00,SE,135,1.6,1.6,45,0.00,,---,14.72,VWS V14.01,2013-03-30 00:24:00,
2013-03-29 21:25:00,36.1,16.9,29.00,SE,135,1.6,2.2,45,0.00,,---,14.72,VWS V14.01,2013-03-30 00:25:00,
2013-03-29 21:26:00,36.1,16.9,29.00,SE,135,1.6,2.0,45,0.00,,---,14.72,VWS V14.01,2013-03-30 00:26:00,
2013-03-29 21:27:00,36.0,16.7,29.00,SE,135,2.2,2.2,45,0.00,,---,14.72,VWS V14.01,2013-03-30 00:27:00,
2013-03-29 21:28:00,35.8,17.0,29.00,SE,135,1.3,2.2,46,0.00,,---,14.72,VWS V14.01,2013-03-30 00:28:00,
2013-03-29 21:29:00,35.8,17.0,29.00,SE,135,0.9,0.9,46,0.00,,---,14.72,VWS V14.01,2013-03-30 00:29:00,
2013-03-29 21:30:00,35.8,17.0,29.00,SE,135,0.0,1.1,46,0.00,,---,14.72,VWS V14.01,2013-03-30 00:30:00,
2013-03-29 21:31:00,35.8,17.0,29.00,SE,135,0.9,1.3,46,0.00,,---,14.72,VWS V14.01,2013-03-30 00:31:00,
2013-03-29 21:32:00,35.8,17.0,29.00,SE,135,0.0,0.9,46,0.00,,---,14.72,VWS V14.01,2013-03-30 00:32:00,
2013-03-29 21:33:00,35.6,16.9,29.00,SE,135,0.0,0.0,46,0.00,,---,14.72,VWS V14.01,2013-03-30 00:33:00,
2013-03-29 21:34:00,35.4,17.2,29.00,SE,135,0.0,0.0,47,0.00,,---,14.72,VWS V14.01,2013-03-30 00:34:00,
2013-03-29 21:35:00,35.4,17.2,29.00,SE,135,0.0,0.0,47,0.00,,---,14.72,VWS V14.01,2013-03-30 00:35:00,
2013-03-29 21:36:00,35.4,17.2,29.00,SE,135,0.0,0.0,47,0.00,,---,14.72,VWS V14.01,2013-03-30 00:36:00,
2013-03-29 21:37:00,35.4,17.2,29.00,SE,135,0.0,0.0,47,0.00,,---,14.72,VWS V14.01,2013-03-30 00:37:00,
2013-03-29 21:38:00,35.1,16.9,29.00,SE,135,0.0,0.0,47,0.00,,---,14.72,VWS V14.01,2013-03-30 00:38:00,
2013-03-29 21:39:00,35.1,16.9,29.00,SE,135,1.6,1.6,47,0.00,,---,14.72,VWS V14.01,2013-03-30 00:39:00,
2013-03-29 21:40:00,35.1,16.9,29.00,SE,135,0.0,1.3,47,0.00,,---,14.72,VWS V14.01,2013-03-30 00:40:00,
2013-03-29 21:41:00,35.1,16.9,29.00,SE,135,1.6,1.6,47,0.00,,---,14.72,VWS V14.01,2013-03-30 00:41:00,
2013-03-29 21:42:00,35.1,16.9,29.00,South,180,2.5,2.5,47,0.00,,---,14.72,VWS V14.01,2013-03-30 00:42:00,
2013-03-29 21:43:00,34.9,17.2,29.00,SE,135,2.2,2.5,48,0.00,,---,14.72,VWS V14.01,2013-03-30 00:43:00,
2013-03-29 21:44:00,34.9,17.2,29.00,SE,135,2.2,2.2,48,0.00,,---,14.72,VWS V14.01,2013-03-30 00:44:00,
2013-03-29 21:45:00,34.9,17.2,29.00,SSE,158,1.6,1.6,48,0.00,,---,14.72,VWS V14.01,2013-03-30 00:45:00,
2013-03-29 21:46:00,34.9,17.2,29.00,SE,135,2.0,2.0,48,0.00,,---,14.72,VWS V14.01,2013-03-30 00:46:00,
2013-03-29 21:47:00,34.9,17.2,29.00,SE,135,1.3,2.2,48,0.00,,---,14.72,VWS V14.01,2013-03-30 00:47:00,
2013-03-29 21:48:00,34.9,17.2,29.00,SE,135,1.3,1.6,48,0.00,,---,14.72,VWS V14.01,2013-03-30 00:48:00,
2013-03-29 21:49:00,34.5,17.3,29.00,SE,135,0.9,0.9,49,0.00,,---,14.72,VWS V14.01,2013-03-30 00:49:00,
2013-03-29 21:50:00,34.7,17.5,29.00,SE,135,0.9,2.0,49,0.00,,---,14.72,VWS V14.01,2013-03-30 00:50:00,
2013-03-29 21:51:00,34.5,17.3,29.00,SE,135,0.0,0.9,49,0.00,,---,14.72,VWS V14.01,2013-03-30 00:51:00,
2013-03-29 21:52:00,34.3,17.6,29.00,SE,135,0.0,1.1,50,0.00,,---,14.72,VWS V14.01,2013-03-30 00:52:00,
2013-03-29 21:53:00,34.3,17.6,29.00,SE,135,0.0,0.0,50,0.00,,---,14.72,VWS V14.01,2013-03-30 00:53:00,
2013-03-29 21:54:00,34.0,17.3,29.00,SE,135,0.0,0.0,50,0.00,,---,14.72,VWS V14.01,2013-03-30 00:54:00,
2013-03-29 21:55:00,34.2,17.5,29.00,SE,135,0.0,0.0,50,0.00,,---,14.72,VWS V14.01,2013-03-30 00:55:00,
2013-03-29 21:56:00,34.0,17.3,29.00,SE,135,0.0,0.0,50,0.00,,---,14.72,VWS V14.01,2013-03-30 00:56:00,
2013-03-29 21:57:00,34.0,17.3,29.00,SE,135,0.0,0.0,50,0.00,,---,14.72,VWS V14.01,2013-03-30 00:57:00,
2013-03-29 21:58:00,33.8,17.6,29.00,SE,135,0.0,0.0,51,0.00,,---,14.72,VWS V14.01,2013-03-30 00:58:00,
2013-03-29 21:59:00,33.4,17.3,29.00,SE,135,0.0,0.0,51,0.00,,---,14.72,VWS V14.01,2013-03-30 00:59:00,
2013-03-29 22:00:00,33.4,17.3,29.00,SE,135,0.0,0.0,51,0.00,,---,14.72,VWS V14.01,2013-03-30 01:00:00,
2013-03-29 22:01:00,33.4,17.3,29.00,SE,135,0.0,0.0,51,0.00,,---,14.72,VWS V14.01,2013-03-30 01:01:00,
2013-03-29 22:02:00,33.3,17.1,29.00,SE,135,0.0,0.0,51,0.00,,---,14.72,VWS V14.01,2013-03-30 01:02:00,
2013-03-29 22:03:00,33.3,17.1,29.00,SE,135,0.0,0.0,51,0.00,,---,14.72,VWS V14.01,2013-03-30 01:03:00,
2013-03-29 22:04:00,32.7,17.0,29.00,SE,135,0.0,0.0,52,0.00,,---,14.72,VWS V14.01,2013-03-30 01:04:00,
2013-03-29 22:05:00,33.1,17.4,29.00,SE,135,0.0,0.0,52,0.00,,---,14.72,VWS V14.01,2013-03-30 01:05:00,
2013-03-29 22:06:00,32.7,17.0,29.00,SE,135,0.0,0.0,52,0.00,,---,14.72,VWS V14.01,2013-03-30 01:06:00,
2013-03-29 22:07:00,32.7,17.0,29.00,SE,135,0.0,0.0,52,0.00,,---,14.72,VWS V14.01,2013-03-30 01:07:00,
2013-03-29 22:08:00,32.5,16.9,29.00,SE,135,0.0,0.0,52,0.00,,---,14.72,VWS V14.01,2013-03-30 01:08:00,
2013-03-29 22:09:00,32.5,16.9,29.00,SE,135,1.3,1.3,52,0.00,,---,14.72,VWS V14.01,2013-03-30 01:09:00,
2013-03-29 22:10:00,32.5,17.3,29.00,SE,135,1.3,1.3,53,0.00,,---,14.72,VWS V14.01,2013-03-30 01:10:00,
2013-03-29 22:11:00,32.5,16.9,29.00,SE,135,1.3,1.3,52,0.00,,---,14.72,VWS V14.01,2013-03-30 01:11:00,
2013-03-29 22:12:00,32.5,16.9,29.00,SE,135,1.3,1.3,52,0.00,,---,14.72,VWS V14.01,2013-03-30 01:12:00,
2013-03-29 22:13:00,32.5,17.3,29.00,SE,135,1.6,2.0,53,0.00,,---,14.72,VWS V14.01,2013-03-30 01:13:00,
2013-03-29 22:14:00,32.5,17.3,29.00,ESE,112,1.6,2.5,53,0.00,,---,14.72,VWS V14.01,2013-03-30 01:14:00,
2013-03-29 22:15:00,32.5,17.3,29.00,ESE,112,2.5,2.5,53,0.00,,---,14.72,VWS V14.01,2013-03-30 01:15:00,
2013-03-29 22:16:00,32.5,17.3,29.00,ESE,112,1.6,2.5,53,0.00,,---,14.72,VWS V14.01,2013-03-30 01:16:00,
2013-03-29 22:17:00,32.5,17.3,29.00,ESE,112,2.5,2.5,53,0.00,,---,14.72,VWS V14.01,2013-03-30 01:17:00,
2013-03-29 22:18:00,32.5,17.8,29.00,ESE,112,1.6,2.5,54,0.00,,---,14.72,VWS V14.01,2013-03-30 01:18:00,
2013-03-29 22:19:00,32.5,17.8,29.00,ESE,112,1.1,1.6,54,0.00,,---,14.72,VWS V14.01,2013-03-30 01:19:00,
2013-03-29 22:20:00,32.5,17.8,29.00,ESE,112,1.6,1.6,54,0.00,,---,14.72,VWS V14.01,2013-03-30 01:20:00,
2013-03-29 22:21:00,32.5,17.8,29.00,ESE,112,1.1,1.6,54,0.00,,---,14.72,VWS V14.01,2013-03-30 01:21:00,
2013-03-29 22:22:00,32.5,17.8,29.00,ESE,112,0.0,1.3,54,0.00,,---,14.72,VWS V14.01,2013-03-30 01:22:00,
2013-03-29 22:23:00,32.4,17.6,29.00,ESE,112,0.0,0.0,54,0.00,,---,14.72,VWS V14.01,2013-03-30 01:23:00,
2013-03-29 22:24:00,32.4,17.6,29.03,SE,135,2.0,2.0,54,0.00,,---,14.72,VWS V14.01,2013-03-30 01:24:00,
2013-03-29 22:25:00,32.4,17.6,29.03,South,180,0.0,0.0,54,0.00,,---,14.72,VWS V14.01,2013-03-30 01:25:00,
2013-03-29 22:26:00,32.4,17.6,29.03,SE,135,2.0,2.0,54,0.00,,---,14.72,VWS V14.01,2013-03-30 01:26:00,
2013-03-29 22:27:00,32.4,17.6,29.03,SE,135,1.6,2.0,54,0.00,,---,14.72,VWS V14.01,2013-03-30 01:27:00,
2013-03-29 22:28:00,32.2,17.4,29.03,SE,135,1.6,2.2,54,0.00,,---,14.72,VWS V14.01,2013-03-30 01:28:00,
2013-03-29 22:29:00,32.2,17.8,29.03,SE,135,2.5,2.5,55,0.00,,---,14.72,VWS V14.01,2013-03-30 01:29:00,
2013-03-29 22:30:00,32.2,17.8,29.03,SE,135,2.5,2.5,55,0.00,,---,14.72,VWS V14.01,2013-03-30 01:30:00,
2013-03-29 22:31:00,32.2,17.8,29.03,SE,135,2.5,2.5,55,0.00,,---,14.72,VWS V14.01,2013-03-30 01:31:00,
2013-03-29 22:32:00,32.0,17.7,29.03,SE,135,2.0,2.5,55,0.00,,---,14.72,VWS V14.01,2013-03-30 01:32:00,
2013-03-29 22:33:00,32.0,18.1,29.03,SE,135,1.3,2.0,56,0.00,,---,14.72,VWS V14.01,2013-03-30 01:33:00,
2013-03-29 22:34:00,31.6,17.8,29.03,SE,135,1.3,1.3,56,0.00,,---,14.72,VWS V14.01,2013-03-30 01:34:00,
2013-03-29 22:35:00,31.8,17.5,29.03,SE,135,1.3,1.6,55,0.00,,---,14.72,VWS V14.01,2013-03-30 01:35:00,
2013-03-29 22:36:00,31.6,17.8,29.03,SE,135,1.1,1.3,56,0.00,,---,14.72,VWS V14.01,2013-03-30 01:36:00,
2013-03-29 22:37:00,31.5,17.6,29.03,SE,135,0.0,1.3,56,0.00,,---,14.72,VWS V14.01,2013-03-30 01:37:00,
2013-03-29 22:38:00,31.5,17.6,29.03,SE,135,0.0,0.0,56,0.00,,---,14.72,VWS V14.01,2013-03-30 01:38:00,
2013-03-29 22:39:00,31.1,17.2,29.03,SE,135,0.0,0.0,56,0.00,,---,14.72,VWS V14.01,2013-03-30 01:39:00,
2013-03-29 22:40:00,31.3,17.4,29.03,SE,135,0.0,0.0,56,0.00,,---,14.72,VWS V14.01,2013-03-30 01:40:00,
2013-03-29 22:41:00,31.1,17.2,29.03,SE,135,0.0,0.0,56,0.00,,---,14.72,VWS V14.01,2013-03-30 01:41:00,
2013-03-29 22:42:00,31.1,17.2,29.03,SE,135,0.0,0.0,56,0.00,,---,14.72,VWS V14.01,2013-03-30 01:42:00,
2013-03-29 22:43:00,30.9,16.7,29.03,SE,135,0.0,0.0,55,0.00,,---,14.72,VWS V14.01,2013-03-30 01:43:00,
2013-03-29 22:44:00,30.7,16.9,29.03,SE,135,0.0,0.0,56,0.00,,---,14.72,VWS V14.01,2013-03-30 01:44:00,
2013-03-29 22:45:00,30.7,16.9,29.03,SE,135,0.0,0.0,56,0.00,,---,14.72,VWS V14.01,2013-03-30 01:45:00,
2013-03-29 22:46:00,30.7,16.9,29.03,SE,135,0.0,0.0,56,0.00,,---,14.72,VWS V14.01,2013-03-30 01:46:00,
2013-03-29 22:47:00,30.7,16.9,29.03,SE,135,0.0,0.0,56,0.00,,---,14.72,VWS V14.01,2013-03-30 01:47:00,
2013-03-29 22:48:00,30.6,16.7,29.03,SE,135,0.0,0.0,56,0.00,,---,14.72,VWS V14.01,2013-03-30 01:48:00,
2013-03-29 22:49:00,30.4,16.6,29.03,SE,135,0.0,0.0,56,0.00,,---,14.72,VWS V14.01,2013-03-30 01:49:00,
2013-03-29 22:50:00,30.6,16.7,29.03,SE,135,0.0,0.0,56,0.00,,---,14.72,VWS V14.01,2013-03-30 01:50:00,
2013-03-29 22:51:00,30.4,16.6,29.03,SE,135,0.0,0.0,56,0.00,,---,14.72,VWS V14.01,2013-03-30 01:51:00,
2013-03-29 22:52:00,30.2,16.8,29.03,SE,135,0.0,0.0,57,0.00,,---,14.72,VWS V14.01,2013-03-30 01:52:00,
2013-03-29 22:53:00,30.2,16.8,29.03,SE,135,0.0,0.0,57,0.00,,---,14.72,VWS V14.01,2013-03-30 01:53:00,
2013-03-29 22:54:00,30.0,16.6,29.03,SE,135,0.0,0.0,57,0.00,,---,14.72,VWS V14.01,2013-03-30 01:54:00,
2013-03-29 22:55:00,30.0,16.6,29.03,SE,135,0.0,0.0,57,0.00,,---,14.72,VWS V14.01,2013-03-30 01:55:00,
2013-03-29 22:56:00,30.0,16.6,29.03,SE,135,0.0,0.0,57,0.00,,---,14.72,VWS V14.01,2013-03-30 01:56:00,
2013-03-29 22:57:00,30.0,16.6,29.03,SE,135,0.0,0.0,57,0.00,,---,14.72,VWS V14.01,2013-03-30 01:57:00,
2013-03-29 22:58:00,29.8,16.5,29.03,SE,135,0.0,0.0,57,0.00,,---,14.72,VWS V14.01,2013-03-30 01:58:00,
2013-03-29 22:59:00,29.7,16.7,29.03,SE,135,0.0,0.0,58,0.00,,---,14.72,VWS V14.01,2013-03-30 01:59:00,
2013-03-29 23:00:00,29.7,16.7,29.03,SE,135,0.0,0.0,58,0.00,,---,14.72,VWS V14.01,2013-03-30 02:00:00,
2013-03-29 23:01:00,29.7,16.7,29.03,SE,135,0.0,0.0,58,0.00,,---,14.72,VWS V14.01,2013-03-30 02:01:00,
2013-03-29 23:02:00,29.7,16.7,29.03,SE,135,0.0,0.0,58,0.00,,---,14.72,VWS V14.01,2013-03-30 02:02:00,
2013-03-29 23:03:00,29.5,16.9,29.03,SE,135,0.0,0.0,59,0.00,,---,14.72,VWS V14.01,2013-03-30 02:03:00,
2013-03-29 23:04:00,29.7,17.1,29.03,SE,135,1.1,1.6,59,0.00,,---,14.72,VWS V14.01,2013-03-30 02:04:00,
2013-03-29 23:05:00,29.5,16.9,29.03,SE,135,1.6,2.0,59,0.00,,---,14.72,VWS V14.01,2013-03-30 02:05:00,
2013-03-29 23:06:00,29.7,17.1,29.03,SE,135,1.1,1.6,59,0.00,,---,14.72,VWS V14.01,2013-03-30 02:06:00,
2013-03-29 23:07:00,29.7,17.1,29.03,SE,135,2.2,2.2,59,0.00,,---,14.72,VWS V14.01,2013-03-30 02:07:00,
2013-03-29 23:08:00,29.7,17.1,29.03,SE,135,2.0,2.2,59,0.00,,---,14.72,VWS V14.01,2013-03-30 02:08:00,
2013-03-29 23:09:00,29.8,18.0,29.03,SE,135,0.0,1.1,61,0.00,,---,14.72,VWS V14.01,2013-03-30 02:09:00,
2013-03-29 23:10:00,29.8,18.0,29.03,SE,135,1.1,2.2,61,0.00,,---,14.72,VWS V14.01,2013-03-30 02:10:00,
2013-03-29 23:11:00,29.8,18.0,29.03,SE,135,0.0,1.1,61,0.00,,---,14.72,VWS V14.01,2013-03-30 02:11:00,
2013-03-29 23:12:00,29.7,17.9,29.03,SE,135,0.0,0.0,61,0.00,,---,14.72,VWS V14.01,2013-03-30 02:12:00,
2013-03-29 23:13:00,29.7,17.9,29.03,SE,135,1.3,2.0,61,0.00,,---,14.72,VWS V14.01,2013-03-30 02:13:00,
2013-03-29 23:14:00,29.7,17.9,29.03,SE,135,1.3,1.3,61,0.00,,---,14.72,VWS V14.01,2013-03-30 02:14:00,
2013-03-29 23:15:00,29.7,17.9,29.03,SE,135,0.0,0.0,61,0.00,,---,14.72,VWS V14.01,2013-03-30 02:15:00,
2013-03-29 23:16:00,29.7,17.9,29.03,SE,135,1.3,1.3,61,0.00,,---,14.72,VWS V14.01,2013-03-30 02:16:00,
2013-03-29 23:17:00,29.7,17.9,29.03,SE,135,0.9,1.3,61,0.00,,---,14.72,VWS V14.01,2013-03-30 02:17:00,
2013-03-29 23:18:00,29.7,17.9,29.03,SE,135,0.0,0.9,61,0.00,,---,14.72,VWS V14.01,2013-03-30 02:18:00,
2013-03-29 23:19:00,29.5,17.7,29.03,SE,135,0.0,0.0,61,0.00,,---,14.72,VWS V14.01,2013-03-30 02:19:00,
2013-03-29 23:20:00,29.5,18.1,29.03,SE,135,0.0,0.0,62,0.00,,---,14.72,VWS V14.01,2013-03-30 02:20:00,
2013-03-29 23:21:00,29.5,17.7,29.03,SE,135,0.0,0.0,61,0.00,,---,14.72,VWS V14.01,2013-03-30 02:21:00,
2013-03-29 23:22:00,29.3,17.9,29.03,SE,135,0.0,0.0,62,0.00,,---,14.72,VWS V14.01,2013-03-30 02:22:00,
2013-03-29 23:23:00,29.1,17.7,29.03,SE,135,0.0,0.0,62,0.00,,---,14.72,VWS V14.01,2013-03-30 02:23:00,
2013-03-29 23:24:00,28.9,17.6,29.03,SE,135,0.0,0.0,62,0.00,,---,14.72,VWS V14.01,2013-03-30 02:24:00,
2013-03-29 23:25:00,29.1,17.7,29.03,SE,135,0.0,0.0,62,0.00,,---,14.72,VWS V14.01,2013-03-30 02:25:00,
2013-03-29 23:26:00,28.9,17.6,29.03,SE,135,0.0,0.0,62,0.00,,---,14.72,VWS V14.01,2013-03-30 02:26:00,
2013-03-29 23:27:00,28.9,17.6,29.03,SE,135,0.0,0.0,62,0.00,,---,14.72,VWS V14.01,2013-03-30 02:27:00,
2013-03-29 23:28:00,28.8,17.4,29.03,SE,135,0.0,0.0,62,0.00,,---,14.72,VWS V14.01,2013-03-30 02:28:00,
2013-03-29 23:29:00,28.6,17.6,29.03,SE,135,0.0,0.0,63,0.00,,---,14.72,VWS V14.01,2013-03-30 02:29:00,
2013-03-29 23:30:00,28.6,17.6,29.03,SE,135,0.0,0.0,63,0.00,,---,14.72,VWS V14.01,2013-03-30 02:30:00,
2013-03-29 23:31:00,28.6,17.6,29.03,SE,135,0.0,0.0,63,0.00,,---,14.72,VWS V14.01,2013-03-30 02:31:00,
2013-03-29 23:32:00,28.6,17.6,29.03,SE,135,0.9,1.3,63,0.00,,---,14.72,VWS V14.01,2013-03-30 02:32:00,
2013-03-29 23:33:00,28.6,17.6,29.03,SE,135,0.0,1.1,63,0.00,,---,14.72,VWS V14.01,2013-03-30 02:33:00,
2013-03-29 23:34:00,28.6,17.6,29.03,SE,135,1.1,1.3,63,0.00,,---,14.72,VWS V14.01,2013-03-30 02:34:00,
2013-03-29 23:35:00,28.6,17.6,29.03,SE,135,1.3,1.6,63,0.00,,---,14.72,VWS V14.01,2013-03-30 02:35:00,
2013-03-29 23:36:00,28.6,17.6,29.03,SE,135,1.1,1.3,63,0.00,,---,14.72,VWS V14.01,2013-03-30 02:36:00,
2013-03-29 23:37:00,28.6,17.6,29.03,SE,135,1.6,1.6,63,0.00,,---,14.72,VWS V14.01,2013-03-30 02:37:00,
2013-03-29 23:38:00,28.6,17.6,29.03,SE,135,1.6,1.6,63,0.00,,---,14.72,VWS V14.01,2013-03-30 02:38:00,
2013-03-29 23:39:00,28.6,18.0,29.03,SE,135,1.1,1.1,64,0.00,,---,14.72,VWS V14.01,2013-03-30 02:39:00,
2013-03-29 23:40:00,28.6,18.0,29.03,SE,135,0.9,1.1,64,0.00,,---,14.72,VWS V14.01,2013-03-30 02:40:00,
2013-03-29 23:41:00,28.6,18.0,29.03,SE,135,1.1,1.1,64,0.00,,---,14.72,VWS V14.01,2013-03-30 02:41:00,
2013-03-29 23:42:00,28.6,18.0,29.03,SE,135,0.9,1.3,64,0.00,,---,14.72,VWS V14.01,2013-03-30 02:42:00,
2013-03-29 23:43:00,28.6,18.3,29.03,SE,135,1.1,1.1,65,0.00,,---,14.72,VWS V14.01,2013-03-30 02:43:00,
2013-03-29 23:44:00,28.6,18.3,29.03,SE,135,0.9,1.1,65,0.00,,---,14.72,VWS V14.01,2013-03-30 02:44:00,
2013-03-29 23:45:00,28.6,18.3,29.03,SE,135,1.1,1.3,65,0.00,,---,14.72,VWS V14.01,2013-03-30 02:45:00,
2013-03-29 23:46:00,28.6,18.3,29.03,SE,135,0.9,1.1,65,0.00,,---,14.72,VWS V14.01,2013-03-30 02:46:00,
2013-03-29 23:47:00,28.6,18.3,29.03,SE,135,1.6,1.6,65,0.00,,---,14.72,VWS V14.01,2013-03-30 02:47:00,
2013-03-29 23:48:00,28.6,18.3,29.03,SE,135,2.0,2.0,65,0.00,,---,14.72,VWS V14.01,2013-03-30 02:48:00,
2013-03-29 23:49:00,28.4,18.1,29.03,SE,135,1.1,1.1,65,0.00,,---,14.72,VWS V14.01,2013-03-30 02:49:00,
2013-03-29 23:50:00,28.4,18.1,29.03,SE,135,0.9,1.3,65,0.00,,---,14.72,VWS V14.01,2013-03-30 02:50:00,
2013-03-29 23:51:00,28.4,18.1,29.03,SE,135,1.1,1.1,65,0.00,,---,14.72,VWS V14.01,2013-03-30 02:51:00,
2013-03-29 23:52:00,28.4,18.5,29.03,SE,135,1.3,1.3,66,0.00,,---,14.72,VWS V14.01,2013-03-30 02:52:00,
2013-03-29 23:53:00,28.4,18.5,29.03,SE,135,0.0,1.3,66,0.00,,---,14.72,VWS V14.01,2013-03-30 02:53:00,
2013-03-29 23:54:00,28.4,18.5,29.03,SE,135,0.9,1.1,66,0.00,,---,14.72,VWS V14.01,2013-03-30 02:54:00,
2013-03-29 23:55:00,28.6,18.3,29.03,SE,135,1.1,1.3,65,0.00,,---,14.72,VWS V14.01,2013-03-30 02:55:00,
2013-03-29 23:56:00,28.4,18.5,29.03,SE,135,0.9,1.1,66,0.00,,---,14.72,VWS V14.01,2013-03-30 02:56:00,
2013-03-29 23:57:00,28.6,18.7,29.03,SE,135,0.0,0.9,66,0.00,,---,14.72,VWS V14.01,2013-03-30 02:57:00,
2013-03-29 23:58:00,28.6,18.7,29.03,SE,135,0.0,0.0,66,0.00,,---,14.72,VWS V14.01,2013-03-30 02:58:00,
2013-03-29 23:59:00,28.6,18.7,29.03,SE,135,0.0,0.0,66,0.00,,---,14.72,VWS V14.01,2013-03-30 02:59:00,